<?xml version="1.0" encoding="UTF-8" standalone="no" ?>
<gpx xmlns="http://www.topografix.com/GPX/1/1" xmlns:xsi="http://www.w3.org/2001/XMLSchema-instance" xsi:schemaLocation="http://www.topografix.com/GPX/1/1 http://www.topografix.com/GPX/1/1/gpx.xsd" version="1.1" creator="VisuGPX - https://www.visugpx.com">
  <metadata>
    <name>voujeaucourt</name>
    <desc><![CDATA[rando vtt bourguignon voujeaucour tbourguignon]]></desc>
  </metadata>
  <trk>
    <name><![CDATA[2016-09-11 08:57 voujeaucourt ]]></name>
    <desc><![CDATA[<p>Heure de départ: 09/11/2016 08:58</p><p>Heure d'arrivée: 09/11/2016 11:34</p><p>Distance: 36 km (02:36)</p><p>Temps déplacement: 02:10</p><p>Vitesse moyenne: 13,78 km/h</p><p>Vitesse moyenne mouv.: 16,57 km/h</p><p>Vitesse Max.: 48,84km/h</p><p>Altitude minimale: 294 m</p><p>Altitude maximale: 455 m</p><p>Vitesse de montée: 582,7 m/h</p><p>Vitesse de descente: -952,2 m/h</p><p>Gain d'altitude: 775 m</p><p>Perte d'altitude: -774 m</p><p>Temps de montée: 01:19</p><p>Temps de descente: 00:48</p><hr align="center" width="480" style="height: 2px; width: 517px"/>]]></desc>
    <trkseg>
      <trkpt lat="47.41417" lon="6.78436">
        <ele>341.05</ele>
        <time>2016-09-11T06:58:10Z</time>
      </trkpt>
      <trkpt lat="47.4141" lon="6.78405">
        <ele>339.73</ele>
        <time>2016-09-11T06:59:43Z</time>
      </trkpt>
      <trkpt lat="47.41409" lon="6.78431">
        <ele>339.88</ele>
        <time>2016-09-11T07:00:48Z</time>
      </trkpt>
      <trkpt lat="47.41415" lon="6.78457">
        <ele>338.96</ele>
        <time>2016-09-11T07:01:42Z</time>
      </trkpt>
      <trkpt lat="47.41433" lon="6.78444">
        <ele>339</ele>
        <time>2016-09-11T07:01:53Z</time>
      </trkpt>
      <trkpt lat="47.41441" lon="6.78418">
        <ele>338.91</ele>
        <time>2016-09-11T07:02:03Z</time>
      </trkpt>
      <trkpt lat="47.41448" lon="6.78392">
        <ele>339.46</ele>
        <time>2016-09-11T07:02:13Z</time>
      </trkpt>
      <trkpt lat="47.41454" lon="6.78367">
        <ele>339.97</ele>
        <time>2016-09-11T07:02:21Z</time>
      </trkpt>
      <trkpt lat="47.4146" lon="6.78339">
        <ele>340.36</ele>
        <time>2016-09-11T07:02:29Z</time>
      </trkpt>
      <trkpt lat="47.41466" lon="6.78312">
        <ele>340.37</ele>
        <time>2016-09-11T07:02:36Z</time>
      </trkpt>
      <trkpt lat="47.41472" lon="6.78286">
        <ele>340.38</ele>
        <time>2016-09-11T07:02:43Z</time>
      </trkpt>
      <trkpt lat="47.41478" lon="6.78259">
        <ele>340.45</ele>
        <time>2016-09-11T07:02:51Z</time>
      </trkpt>
      <trkpt lat="47.41484" lon="6.78232">
        <ele>340.55</ele>
        <time>2016-09-11T07:02:59Z</time>
      </trkpt>
      <trkpt lat="47.41489" lon="6.78206">
        <ele>340.6</ele>
        <time>2016-09-11T07:03:07Z</time>
      </trkpt>
      <trkpt lat="47.41494" lon="6.78177">
        <ele>340.46</ele>
        <time>2016-09-11T07:03:16Z</time>
      </trkpt>
      <trkpt lat="47.41485" lon="6.78154">
        <ele>341.07</ele>
        <time>2016-09-11T07:03:31Z</time>
      </trkpt>
      <trkpt lat="47.41467" lon="6.78146">
        <ele>342.43</ele>
        <time>2016-09-11T07:03:42Z</time>
      </trkpt>
      <trkpt lat="47.4145" lon="6.78135">
        <ele>343.23</ele>
        <time>2016-09-11T07:03:49Z</time>
      </trkpt>
      <trkpt lat="47.41434" lon="6.78121">
        <ele>343.81</ele>
        <time>2016-09-11T07:03:56Z</time>
      </trkpt>
      <trkpt lat="47.41418" lon="6.78109">
        <ele>343.92</ele>
        <time>2016-09-11T07:04:02Z</time>
      </trkpt>
      <trkpt lat="47.41402" lon="6.78094">
        <ele>344.21</ele>
        <time>2016-09-11T07:04:07Z</time>
      </trkpt>
      <trkpt lat="47.41386" lon="6.7808">
        <ele>344.36</ele>
        <time>2016-09-11T07:04:12Z</time>
      </trkpt>
      <trkpt lat="47.4137" lon="6.78065">
        <ele>344.36</ele>
        <time>2016-09-11T07:04:17Z</time>
      </trkpt>
      <trkpt lat="47.41365" lon="6.78038">
        <ele>344.03</ele>
        <time>2016-09-11T07:04:27Z</time>
      </trkpt>
      <trkpt lat="47.41357" lon="6.78011">
        <ele>343.83</ele>
        <time>2016-09-11T07:04:33Z</time>
      </trkpt>
      <trkpt lat="47.4135" lon="6.77981">
        <ele>343.08</ele>
        <time>2016-09-11T07:04:39Z</time>
      </trkpt>
      <trkpt lat="47.41349" lon="6.7795">
        <ele>338.76</ele>
        <time>2016-09-11T07:04:44Z</time>
      </trkpt>
      <trkpt lat="47.41353" lon="6.77924">
        <ele>333.92</ele>
        <time>2016-09-11T07:04:49Z</time>
      </trkpt>
      <trkpt lat="47.41357" lon="6.77896">
        <ele>333.86</ele>
        <time>2016-09-11T07:04:54Z</time>
      </trkpt>
      <trkpt lat="47.41366" lon="6.7787">
        <ele>333.88</ele>
        <time>2016-09-11T07:05:00Z</time>
      </trkpt>
      <trkpt lat="47.41376" lon="6.77841">
        <ele>332.52</ele>
        <time>2016-09-11T07:05:06Z</time>
      </trkpt>
      <trkpt lat="47.41387" lon="6.77818">
        <ele>333.2</ele>
        <time>2016-09-11T07:05:11Z</time>
      </trkpt>
      <trkpt lat="47.414" lon="6.77796">
        <ele>335.9</ele>
        <time>2016-09-11T07:05:16Z</time>
      </trkpt>
      <trkpt lat="47.41411" lon="6.77773">
        <ele>336.11</ele>
        <time>2016-09-11T07:05:21Z</time>
      </trkpt>
      <trkpt lat="47.41421" lon="6.77749">
        <ele>337.99</ele>
        <time>2016-09-11T07:05:26Z</time>
      </trkpt>
      <trkpt lat="47.41428" lon="6.77723">
        <ele>339.7</ele>
        <time>2016-09-11T07:05:31Z</time>
      </trkpt>
      <trkpt lat="47.41434" lon="6.77696">
        <ele>342.62</ele>
        <time>2016-09-11T07:05:36Z</time>
      </trkpt>
      <trkpt lat="47.41443" lon="6.7767">
        <ele>344.32</ele>
        <time>2016-09-11T07:05:42Z</time>
      </trkpt>
      <trkpt lat="47.41453" lon="6.77646">
        <ele>344.3</ele>
        <time>2016-09-11T07:05:48Z</time>
      </trkpt>
      <trkpt lat="47.41466" lon="6.77623">
        <ele>344.19</ele>
        <time>2016-09-11T07:05:55Z</time>
      </trkpt>
      <trkpt lat="47.41485" lon="6.77608">
        <ele>344.18</ele>
        <time>2016-09-11T07:06:01Z</time>
      </trkpt>
      <trkpt lat="47.41505" lon="6.77604">
        <ele>344.71</ele>
        <time>2016-09-11T07:06:05Z</time>
      </trkpt>
      <trkpt lat="47.41525" lon="6.77603">
        <ele>344.45</ele>
        <time>2016-09-11T07:06:10Z</time>
      </trkpt>
      <trkpt lat="47.41544" lon="6.77601">
        <ele>345.56</ele>
        <time>2016-09-11T07:06:15Z</time>
      </trkpt>
      <trkpt lat="47.41565" lon="6.77605">
        <ele>346.8</ele>
        <time>2016-09-11T07:06:21Z</time>
      </trkpt>
      <trkpt lat="47.41584" lon="6.77613">
        <ele>350.04</ele>
        <time>2016-09-11T07:06:27Z</time>
      </trkpt>
      <trkpt lat="47.41602" lon="6.77621">
        <ele>351.11</ele>
        <time>2016-09-11T07:06:32Z</time>
      </trkpt>
      <trkpt lat="47.4162" lon="6.77635">
        <ele>353.91</ele>
        <time>2016-09-11T07:06:37Z</time>
      </trkpt>
      <trkpt lat="47.41639" lon="6.77649">
        <ele>353.35</ele>
        <time>2016-09-11T07:06:42Z</time>
      </trkpt>
      <trkpt lat="47.41657" lon="6.77664">
        <ele>352.48</ele>
        <time>2016-09-11T07:06:47Z</time>
      </trkpt>
      <trkpt lat="47.41674" lon="6.77679">
        <ele>352.03</ele>
        <time>2016-09-11T07:06:52Z</time>
      </trkpt>
      <trkpt lat="47.41693" lon="6.77686">
        <ele>351.39</ele>
        <time>2016-09-11T07:06:57Z</time>
      </trkpt>
      <trkpt lat="47.41712" lon="6.7768">
        <ele>352.03</ele>
        <time>2016-09-11T07:07:03Z</time>
      </trkpt>
      <trkpt lat="47.41728" lon="6.77666">
        <ele>351.75</ele>
        <time>2016-09-11T07:07:10Z</time>
      </trkpt>
      <trkpt lat="47.41744" lon="6.7765">
        <ele>351.44</ele>
        <time>2016-09-11T07:07:17Z</time>
      </trkpt>
      <trkpt lat="47.41764" lon="6.77641">
        <ele>351.46</ele>
        <time>2016-09-11T07:07:23Z</time>
      </trkpt>
      <trkpt lat="47.41782" lon="6.77633">
        <ele>351.99</ele>
        <time>2016-09-11T07:07:29Z</time>
      </trkpt>
      <trkpt lat="47.418" lon="6.77622">
        <ele>352.65</ele>
        <time>2016-09-11T07:07:36Z</time>
      </trkpt>
      <trkpt lat="47.41815" lon="6.77602">
        <ele>354.08</ele>
        <time>2016-09-11T07:07:44Z</time>
      </trkpt>
      <trkpt lat="47.41824" lon="6.77576">
        <ele>354.95</ele>
        <time>2016-09-11T07:07:51Z</time>
      </trkpt>
      <trkpt lat="47.41833" lon="6.77551">
        <ele>354.96</ele>
        <time>2016-09-11T07:07:58Z</time>
      </trkpt>
      <trkpt lat="47.41842" lon="6.77525">
        <ele>355.47</ele>
        <time>2016-09-11T07:08:05Z</time>
      </trkpt>
      <trkpt lat="47.41851" lon="6.77501">
        <ele>356.04</ele>
        <time>2016-09-11T07:08:12Z</time>
      </trkpt>
      <trkpt lat="47.41868" lon="6.77513">
        <ele>357.7</ele>
        <time>2016-09-11T07:08:27Z</time>
      </trkpt>
      <trkpt lat="47.4187" lon="6.77543">
        <ele>359.51</ele>
        <time>2016-09-11T07:08:36Z</time>
      </trkpt>
      <trkpt lat="47.4187" lon="6.77572">
        <ele>360.99</ele>
        <time>2016-09-11T07:08:45Z</time>
      </trkpt>
      <trkpt lat="47.41871" lon="6.776">
        <ele>362.11</ele>
        <time>2016-09-11T07:08:55Z</time>
      </trkpt>
      <trkpt lat="47.4187" lon="6.77629">
        <ele>363.35</ele>
        <time>2016-09-11T07:09:04Z</time>
      </trkpt>
      <trkpt lat="47.41884" lon="6.7765">
        <ele>364.94</ele>
        <time>2016-09-11T07:09:14Z</time>
      </trkpt>
      <trkpt lat="47.41901" lon="6.77644">
        <ele>366.49</ele>
        <time>2016-09-11T07:09:23Z</time>
      </trkpt>
      <trkpt lat="47.41919" lon="6.77653">
        <ele>368.29</ele>
        <time>2016-09-11T07:09:34Z</time>
      </trkpt>
      <trkpt lat="47.41939" lon="6.77656">
        <ele>369.53</ele>
        <time>2016-09-11T07:09:43Z</time>
      </trkpt>
      <trkpt lat="47.41958" lon="6.77664">
        <ele>370.09</ele>
        <time>2016-09-11T07:09:50Z</time>
      </trkpt>
      <trkpt lat="47.41978" lon="6.77662">
        <ele>370.29</ele>
        <time>2016-09-11T07:09:55Z</time>
      </trkpt>
      <trkpt lat="47.41999" lon="6.77656">
        <ele>370.71</ele>
        <time>2016-09-11T07:10:01Z</time>
      </trkpt>
      <trkpt lat="47.42017" lon="6.77649">
        <ele>371.15</ele>
        <time>2016-09-11T07:10:06Z</time>
      </trkpt>
      <trkpt lat="47.42038" lon="6.77653">
        <ele>372.79</ele>
        <time>2016-09-11T07:10:11Z</time>
      </trkpt>
      <trkpt lat="47.42056" lon="6.7766">
        <ele>374.33</ele>
        <time>2016-09-11T07:10:15Z</time>
      </trkpt>
      <trkpt lat="47.42076" lon="6.77669">
        <ele>375.58</ele>
        <time>2016-09-11T07:10:20Z</time>
      </trkpt>
      <trkpt lat="47.42093" lon="6.77676">
        <ele>376.24</ele>
        <time>2016-09-11T07:10:24Z</time>
      </trkpt>
      <trkpt lat="47.42112" lon="6.77676">
        <ele>377.49</ele>
        <time>2016-09-11T07:10:28Z</time>
      </trkpt>
      <trkpt lat="47.42133" lon="6.77675">
        <ele>376.9</ele>
        <time>2016-09-11T07:10:32Z</time>
      </trkpt>
      <trkpt lat="47.42154" lon="6.77675">
        <ele>376.85</ele>
        <time>2016-09-11T07:10:37Z</time>
      </trkpt>
      <trkpt lat="47.42173" lon="6.77673">
        <ele>376.17</ele>
        <time>2016-09-11T07:10:42Z</time>
      </trkpt>
      <trkpt lat="47.42193" lon="6.77673">
        <ele>376.29</ele>
        <time>2016-09-11T07:10:48Z</time>
      </trkpt>
      <trkpt lat="47.42213" lon="6.77673">
        <ele>375.73</ele>
        <time>2016-09-11T07:10:54Z</time>
      </trkpt>
      <trkpt lat="47.42232" lon="6.77671">
        <ele>373.9</ele>
        <time>2016-09-11T07:10:59Z</time>
      </trkpt>
      <trkpt lat="47.42252" lon="6.77658">
        <ele>370.81</ele>
        <time>2016-09-11T07:11:03Z</time>
      </trkpt>
      <trkpt lat="47.42255" lon="6.77627">
        <ele>367.58</ele>
        <time>2016-09-11T07:11:08Z</time>
      </trkpt>
      <trkpt lat="47.42256" lon="6.776">
        <ele>367.51</ele>
        <time>2016-09-11T07:11:13Z</time>
      </trkpt>
      <trkpt lat="47.42268" lon="6.77621">
        <ele>368.89</ele>
        <time>2016-09-11T07:11:21Z</time>
      </trkpt>
      <trkpt lat="47.42286" lon="6.77633">
        <ele>368.44</ele>
        <time>2016-09-11T07:11:27Z</time>
      </trkpt>
      <trkpt lat="47.42297" lon="6.77654">
        <ele>368.01</ele>
        <time>2016-09-11T07:11:34Z</time>
      </trkpt>
      <trkpt lat="47.42311" lon="6.77676">
        <ele>363.38</ele>
        <time>2016-09-11T07:12:28Z</time>
      </trkpt>
      <trkpt lat="47.42325" lon="6.77695">
        <ele>362.54</ele>
        <time>2016-09-11T07:12:35Z</time>
      </trkpt>
      <trkpt lat="47.42342" lon="6.77704">
        <ele>362.06</ele>
        <time>2016-09-11T07:12:39Z</time>
      </trkpt>
      <trkpt lat="47.4236" lon="6.7771">
        <ele>360.46</ele>
        <time>2016-09-11T07:12:42Z</time>
      </trkpt>
      <trkpt lat="47.42382" lon="6.77712">
        <ele>357.34</ele>
        <time>2016-09-11T07:12:48Z</time>
      </trkpt>
      <trkpt lat="47.42403" lon="6.77709">
        <ele>356.36</ele>
        <time>2016-09-11T07:12:54Z</time>
      </trkpt>
      <trkpt lat="47.42421" lon="6.77707">
        <ele>355.52</ele>
        <time>2016-09-11T07:13:02Z</time>
      </trkpt>
      <trkpt lat="47.4244" lon="6.77703">
        <ele>355.07</ele>
        <time>2016-09-11T07:13:10Z</time>
      </trkpt>
      <trkpt lat="47.4246" lon="6.77701">
        <ele>354.64</ele>
        <time>2016-09-11T07:13:17Z</time>
      </trkpt>
      <trkpt lat="47.42478" lon="6.77694">
        <ele>354.49</ele>
        <time>2016-09-11T07:13:24Z</time>
      </trkpt>
      <trkpt lat="47.42498" lon="6.77697">
        <ele>353.94</ele>
        <time>2016-09-11T07:13:33Z</time>
      </trkpt>
      <trkpt lat="47.42518" lon="6.77698">
        <ele>353.53</ele>
        <time>2016-09-11T07:13:38Z</time>
      </trkpt>
      <trkpt lat="47.4254" lon="6.77703">
        <ele>353.45</ele>
        <time>2016-09-11T07:13:41Z</time>
      </trkpt>
      <trkpt lat="47.42565" lon="6.77703">
        <ele>353.49</ele>
        <time>2016-09-11T07:13:45Z</time>
      </trkpt>
      <trkpt lat="47.42592" lon="6.77706">
        <ele>352.53</ele>
        <time>2016-09-11T07:13:49Z</time>
      </trkpt>
      <trkpt lat="47.42613" lon="6.77704">
        <ele>350.22</ele>
        <time>2016-09-11T07:13:52Z</time>
      </trkpt>
      <trkpt lat="47.42635" lon="6.77695">
        <ele>349.17</ele>
        <time>2016-09-11T07:13:57Z</time>
      </trkpt>
      <trkpt lat="47.42654" lon="6.77701">
        <ele>348.61</ele>
        <time>2016-09-11T07:14:04Z</time>
      </trkpt>
      <trkpt lat="47.42673" lon="6.77703">
        <ele>347.22</ele>
        <time>2016-09-11T07:14:08Z</time>
      </trkpt>
      <trkpt lat="47.42695" lon="6.77705">
        <ele>347.32</ele>
        <time>2016-09-11T07:14:13Z</time>
      </trkpt>
      <trkpt lat="47.42713" lon="6.77716">
        <ele>347</ele>
        <time>2016-09-11T07:14:18Z</time>
      </trkpt>
      <trkpt lat="47.42733" lon="6.77723">
        <ele>347.2</ele>
        <time>2016-09-11T07:14:24Z</time>
      </trkpt>
      <trkpt lat="47.42751" lon="6.77728">
        <ele>347.73</ele>
        <time>2016-09-11T07:14:30Z</time>
      </trkpt>
      <trkpt lat="47.42769" lon="6.77739">
        <ele>348.21</ele>
        <time>2016-09-11T07:14:37Z</time>
      </trkpt>
      <trkpt lat="47.4279" lon="6.77742">
        <ele>348.8</ele>
        <time>2016-09-11T07:14:42Z</time>
      </trkpt>
      <trkpt lat="47.4281" lon="6.77741">
        <ele>349.35</ele>
        <time>2016-09-11T07:14:46Z</time>
      </trkpt>
      <trkpt lat="47.4283" lon="6.77735">
        <ele>349.65</ele>
        <time>2016-09-11T07:14:52Z</time>
      </trkpt>
      <trkpt lat="47.4285" lon="6.77743">
        <ele>350.02</ele>
        <time>2016-09-11T07:14:59Z</time>
      </trkpt>
      <trkpt lat="47.42868" lon="6.77751">
        <ele>350.37</ele>
        <time>2016-09-11T07:15:05Z</time>
      </trkpt>
      <trkpt lat="47.42887" lon="6.77762">
        <ele>351.43</ele>
        <time>2016-09-11T07:15:10Z</time>
      </trkpt>
      <trkpt lat="47.42906" lon="6.77759">
        <ele>352.55</ele>
        <time>2016-09-11T07:15:17Z</time>
      </trkpt>
      <trkpt lat="47.42927" lon="6.7776">
        <ele>354.75</ele>
        <time>2016-09-11T07:15:22Z</time>
      </trkpt>
      <trkpt lat="47.42947" lon="6.7776">
        <ele>356.07</ele>
        <time>2016-09-11T07:15:27Z</time>
      </trkpt>
      <trkpt lat="47.42966" lon="6.77753">
        <ele>358.83</ele>
        <time>2016-09-11T07:15:32Z</time>
      </trkpt>
      <trkpt lat="47.42986" lon="6.77747">
        <ele>361.04</ele>
        <time>2016-09-11T07:15:36Z</time>
      </trkpt>
      <trkpt lat="47.43007" lon="6.77739">
        <ele>362.15</ele>
        <time>2016-09-11T07:15:41Z</time>
      </trkpt>
      <trkpt lat="47.43029" lon="6.77731">
        <ele>360.03</ele>
        <time>2016-09-11T07:15:46Z</time>
      </trkpt>
      <trkpt lat="47.43049" lon="6.77718">
        <ele>358.79</ele>
        <time>2016-09-11T07:15:51Z</time>
      </trkpt>
      <trkpt lat="47.43066" lon="6.77707">
        <ele>355.98</ele>
        <time>2016-09-11T07:15:56Z</time>
      </trkpt>
      <trkpt lat="47.43087" lon="6.77697">
        <ele>356.44</ele>
        <time>2016-09-11T07:16:01Z</time>
      </trkpt>
      <trkpt lat="47.43106" lon="6.77686">
        <ele>356.89</ele>
        <time>2016-09-11T07:16:05Z</time>
      </trkpt>
      <trkpt lat="47.43124" lon="6.77671">
        <ele>356.2</ele>
        <time>2016-09-11T07:16:09Z</time>
      </trkpt>
      <trkpt lat="47.43145" lon="6.77657">
        <ele>355.96</ele>
        <time>2016-09-11T07:16:14Z</time>
      </trkpt>
      <trkpt lat="47.43164" lon="6.77649">
        <ele>356.79</ele>
        <time>2016-09-11T07:16:18Z</time>
      </trkpt>
      <trkpt lat="47.43184" lon="6.7764">
        <ele>355.35</ele>
        <time>2016-09-11T07:16:23Z</time>
      </trkpt>
      <trkpt lat="47.43201" lon="6.77629">
        <ele>355.39</ele>
        <time>2016-09-11T07:16:28Z</time>
      </trkpt>
      <trkpt lat="47.43218" lon="6.77612">
        <ele>354.53</ele>
        <time>2016-09-11T07:16:33Z</time>
      </trkpt>
      <trkpt lat="47.43233" lon="6.77596">
        <ele>355.69</ele>
        <time>2016-09-11T07:16:37Z</time>
      </trkpt>
      <trkpt lat="47.4325" lon="6.7758">
        <ele>355.58</ele>
        <time>2016-09-11T07:16:43Z</time>
      </trkpt>
      <trkpt lat="47.43267" lon="6.77568">
        <ele>357.73</ele>
        <time>2016-09-11T07:16:47Z</time>
      </trkpt>
      <trkpt lat="47.43283" lon="6.77553">
        <ele>358.28</ele>
        <time>2016-09-11T07:16:51Z</time>
      </trkpt>
      <trkpt lat="47.43297" lon="6.77533">
        <ele>357.8</ele>
        <time>2016-09-11T07:16:55Z</time>
      </trkpt>
      <trkpt lat="47.4331" lon="6.77511">
        <ele>358.33</ele>
        <time>2016-09-11T07:16:59Z</time>
      </trkpt>
      <trkpt lat="47.43326" lon="6.77492">
        <ele>358.84</ele>
        <time>2016-09-11T07:17:03Z</time>
      </trkpt>
      <trkpt lat="47.43341" lon="6.77476">
        <ele>358.11</ele>
        <time>2016-09-11T07:17:07Z</time>
      </trkpt>
      <trkpt lat="47.43356" lon="6.77456">
        <ele>355.38</ele>
        <time>2016-09-11T07:17:11Z</time>
      </trkpt>
      <trkpt lat="47.43371" lon="6.77438">
        <ele>356.91</ele>
        <time>2016-09-11T07:17:16Z</time>
      </trkpt>
      <trkpt lat="47.43389" lon="6.77419">
        <ele>357.94</ele>
        <time>2016-09-11T07:17:21Z</time>
      </trkpt>
      <trkpt lat="47.43404" lon="6.77403">
        <ele>360.05</ele>
        <time>2016-09-11T07:17:24Z</time>
      </trkpt>
      <trkpt lat="47.4342" lon="6.77388">
        <ele>359.94</ele>
        <time>2016-09-11T07:17:30Z</time>
      </trkpt>
      <trkpt lat="47.4344" lon="6.77382">
        <ele>359.16</ele>
        <time>2016-09-11T07:17:36Z</time>
      </trkpt>
      <trkpt lat="47.43458" lon="6.77372">
        <ele>359.42</ele>
        <time>2016-09-11T07:17:41Z</time>
      </trkpt>
      <trkpt lat="47.43478" lon="6.77358">
        <ele>360.44</ele>
        <time>2016-09-11T07:17:46Z</time>
      </trkpt>
      <trkpt lat="47.43495" lon="6.77345">
        <ele>360.58</ele>
        <time>2016-09-11T07:17:53Z</time>
      </trkpt>
      <trkpt lat="47.43515" lon="6.77335">
        <ele>361.05</ele>
        <time>2016-09-11T07:17:58Z</time>
      </trkpt>
      <trkpt lat="47.43535" lon="6.77329">
        <ele>363.7</ele>
        <time>2016-09-11T07:18:03Z</time>
      </trkpt>
      <trkpt lat="47.43557" lon="6.77324">
        <ele>364.2</ele>
        <time>2016-09-11T07:18:07Z</time>
      </trkpt>
      <trkpt lat="47.43577" lon="6.7732">
        <ele>363.69</ele>
        <time>2016-09-11T07:18:11Z</time>
      </trkpt>
      <trkpt lat="47.43601" lon="6.77316">
        <ele>363.52</ele>
        <time>2016-09-11T07:18:15Z</time>
      </trkpt>
      <trkpt lat="47.43625" lon="6.7732">
        <ele>365.19</ele>
        <time>2016-09-11T07:18:20Z</time>
      </trkpt>
      <trkpt lat="47.43644" lon="6.77323">
        <ele>367.49</ele>
        <time>2016-09-11T07:18:24Z</time>
      </trkpt>
      <trkpt lat="47.43664" lon="6.77326">
        <ele>368.24</ele>
        <time>2016-09-11T07:18:30Z</time>
      </trkpt>
      <trkpt lat="47.43685" lon="6.77316">
        <ele>368.82</ele>
        <time>2016-09-11T07:18:34Z</time>
      </trkpt>
      <trkpt lat="47.43706" lon="6.77303">
        <ele>367.4</ele>
        <time>2016-09-11T07:18:38Z</time>
      </trkpt>
      <trkpt lat="47.43723" lon="6.77289">
        <ele>366.2</ele>
        <time>2016-09-11T07:18:43Z</time>
      </trkpt>
      <trkpt lat="47.43741" lon="6.77292">
        <ele>365.37</ele>
        <time>2016-09-11T07:18:52Z</time>
      </trkpt>
      <trkpt lat="47.43757" lon="6.77273">
        <ele>364.68</ele>
        <time>2016-09-11T07:19:01Z</time>
      </trkpt>
      <trkpt lat="47.43755" lon="6.77245">
        <ele>364.21</ele>
        <time>2016-09-11T07:19:12Z</time>
      </trkpt>
      <trkpt lat="47.43738" lon="6.77228">
        <ele>364.07</ele>
        <time>2016-09-11T07:19:16Z</time>
      </trkpt>
      <trkpt lat="47.43721" lon="6.77213">
        <ele>364.35</ele>
        <time>2016-09-11T07:19:24Z</time>
      </trkpt>
      <trkpt lat="47.43707" lon="6.77196">
        <ele>365.6</ele>
        <time>2016-09-11T07:19:32Z</time>
      </trkpt>
      <trkpt lat="47.43713" lon="6.77171">
        <ele>366.96</ele>
        <time>2016-09-11T07:19:42Z</time>
      </trkpt>
      <trkpt lat="47.43731" lon="6.7718">
        <ele>367.97</ele>
        <time>2016-09-11T07:19:49Z</time>
      </trkpt>
      <trkpt lat="47.43746" lon="6.77195">
        <ele>368.2</ele>
        <time>2016-09-11T07:19:56Z</time>
      </trkpt>
      <trkpt lat="47.43763" lon="6.77211">
        <ele>368.03</ele>
        <time>2016-09-11T07:20:04Z</time>
      </trkpt>
      <trkpt lat="47.43772" lon="6.77238">
        <ele>368.26</ele>
        <time>2016-09-11T07:20:12Z</time>
      </trkpt>
      <trkpt lat="47.43778" lon="6.77266">
        <ele>369.02</ele>
        <time>2016-09-11T07:20:18Z</time>
      </trkpt>
      <trkpt lat="47.43782" lon="6.77295">
        <ele>369.28</ele>
        <time>2016-09-11T07:20:23Z</time>
      </trkpt>
      <trkpt lat="47.43794" lon="6.77323">
        <ele>368.91</ele>
        <time>2016-09-11T07:20:27Z</time>
      </trkpt>
      <trkpt lat="47.43811" lon="6.7734">
        <ele>368.14</ele>
        <time>2016-09-11T07:20:31Z</time>
      </trkpt>
      <trkpt lat="47.43829" lon="6.77347">
        <ele>367.85</ele>
        <time>2016-09-11T07:20:35Z</time>
      </trkpt>
      <trkpt lat="47.43848" lon="6.7735">
        <ele>371.03</ele>
        <time>2016-09-11T07:20:39Z</time>
      </trkpt>
      <trkpt lat="47.43869" lon="6.77351">
        <ele>369.41</ele>
        <time>2016-09-11T07:20:43Z</time>
      </trkpt>
      <trkpt lat="47.43891" lon="6.77363">
        <ele>366.5</ele>
        <time>2016-09-11T07:20:48Z</time>
      </trkpt>
      <trkpt lat="47.43915" lon="6.77371">
        <ele>362.41</ele>
        <time>2016-09-11T07:20:52Z</time>
      </trkpt>
      <trkpt lat="47.43936" lon="6.77373">
        <ele>362.41</ele>
        <time>2016-09-11T07:20:56Z</time>
      </trkpt>
      <trkpt lat="47.43954" lon="6.77377">
        <ele>362.52</ele>
        <time>2016-09-11T07:21:00Z</time>
      </trkpt>
      <trkpt lat="47.43973" lon="6.77382">
        <ele>364.55</ele>
        <time>2016-09-11T07:21:04Z</time>
      </trkpt>
      <trkpt lat="47.43993" lon="6.77387">
        <ele>366.05</ele>
        <time>2016-09-11T07:21:08Z</time>
      </trkpt>
      <trkpt lat="47.44012" lon="6.77392">
        <ele>362.74</ele>
        <time>2016-09-11T07:21:12Z</time>
      </trkpt>
      <trkpt lat="47.44032" lon="6.77396">
        <ele>360.69</ele>
        <time>2016-09-11T07:21:16Z</time>
      </trkpt>
      <trkpt lat="47.4405" lon="6.77404">
        <ele>363.67</ele>
        <time>2016-09-11T07:21:20Z</time>
      </trkpt>
      <trkpt lat="47.4407" lon="6.7741">
        <ele>362.65</ele>
        <time>2016-09-11T07:21:24Z</time>
      </trkpt>
      <trkpt lat="47.44088" lon="6.77418">
        <ele>361.35</ele>
        <time>2016-09-11T07:21:28Z</time>
      </trkpt>
      <trkpt lat="47.44106" lon="6.7743">
        <ele>360.93</ele>
        <time>2016-09-11T07:21:32Z</time>
      </trkpt>
      <trkpt lat="47.44124" lon="6.77439">
        <ele>359.61</ele>
        <time>2016-09-11T07:21:36Z</time>
      </trkpt>
      <trkpt lat="47.44144" lon="6.7745">
        <ele>358.43</ele>
        <time>2016-09-11T07:21:41Z</time>
      </trkpt>
      <trkpt lat="47.44161" lon="6.77457">
        <ele>361.03</ele>
        <time>2016-09-11T07:21:45Z</time>
      </trkpt>
      <trkpt lat="47.44179" lon="6.77463">
        <ele>360.13</ele>
        <time>2016-09-11T07:21:49Z</time>
      </trkpt>
      <trkpt lat="47.44198" lon="6.77473">
        <ele>362.48</ele>
        <time>2016-09-11T07:21:53Z</time>
      </trkpt>
      <trkpt lat="47.44217" lon="6.77484">
        <ele>361.55</ele>
        <time>2016-09-11T07:21:58Z</time>
      </trkpt>
      <trkpt lat="47.44236" lon="6.77501">
        <ele>360.14</ele>
        <time>2016-09-11T07:22:03Z</time>
      </trkpt>
      <trkpt lat="47.44258" lon="6.7751">
        <ele>360.98</ele>
        <time>2016-09-11T07:22:08Z</time>
      </trkpt>
      <trkpt lat="47.44275" lon="6.77519">
        <ele>358.07</ele>
        <time>2016-09-11T07:22:12Z</time>
      </trkpt>
      <trkpt lat="47.44292" lon="6.77529">
        <ele>359.48</ele>
        <time>2016-09-11T07:22:16Z</time>
      </trkpt>
      <trkpt lat="47.44312" lon="6.77537">
        <ele>362.01</ele>
        <time>2016-09-11T07:22:20Z</time>
      </trkpt>
      <trkpt lat="47.44333" lon="6.77544">
        <ele>363.85</ele>
        <time>2016-09-11T07:22:24Z</time>
      </trkpt>
      <trkpt lat="47.44353" lon="6.77552">
        <ele>363.77</ele>
        <time>2016-09-11T07:22:28Z</time>
      </trkpt>
      <trkpt lat="47.44374" lon="6.7756">
        <ele>363.19</ele>
        <time>2016-09-11T07:22:32Z</time>
      </trkpt>
      <trkpt lat="47.44392" lon="6.77568">
        <ele>360.57</ele>
        <time>2016-09-11T07:22:36Z</time>
      </trkpt>
      <trkpt lat="47.4441" lon="6.77576">
        <ele>359.74</ele>
        <time>2016-09-11T07:22:40Z</time>
      </trkpt>
      <trkpt lat="47.44431" lon="6.77585">
        <ele>359.53</ele>
        <time>2016-09-11T07:22:44Z</time>
      </trkpt>
      <trkpt lat="47.44452" lon="6.77593">
        <ele>358.18</ele>
        <time>2016-09-11T07:22:48Z</time>
      </trkpt>
      <trkpt lat="47.44469" lon="6.77596">
        <ele>357.42</ele>
        <time>2016-09-11T07:22:51Z</time>
      </trkpt>
      <trkpt lat="47.44491" lon="6.77598">
        <ele>361.22</ele>
        <time>2016-09-11T07:22:55Z</time>
      </trkpt>
      <trkpt lat="47.44511" lon="6.7761">
        <ele>361.7</ele>
        <time>2016-09-11T07:22:59Z</time>
      </trkpt>
      <trkpt lat="47.4453" lon="6.77622">
        <ele>358.91</ele>
        <time>2016-09-11T07:23:03Z</time>
      </trkpt>
      <trkpt lat="47.4455" lon="6.77631">
        <ele>354.9</ele>
        <time>2016-09-11T07:23:07Z</time>
      </trkpt>
      <trkpt lat="47.44571" lon="6.77635">
        <ele>354.19</ele>
        <time>2016-09-11T07:23:11Z</time>
      </trkpt>
      <trkpt lat="47.44592" lon="6.77634">
        <ele>355.99</ele>
        <time>2016-09-11T07:23:15Z</time>
      </trkpt>
      <trkpt lat="47.44613" lon="6.77633">
        <ele>357.11</ele>
        <time>2016-09-11T07:23:19Z</time>
      </trkpt>
      <trkpt lat="47.44633" lon="6.77632">
        <ele>357.85</ele>
        <time>2016-09-11T07:23:23Z</time>
      </trkpt>
      <trkpt lat="47.44654" lon="6.7763">
        <ele>358.99</ele>
        <time>2016-09-11T07:23:27Z</time>
      </trkpt>
      <trkpt lat="47.44672" lon="6.77628">
        <ele>359.86</ele>
        <time>2016-09-11T07:23:31Z</time>
      </trkpt>
      <trkpt lat="47.4469" lon="6.77623">
        <ele>360.84</ele>
        <time>2016-09-11T07:23:35Z</time>
      </trkpt>
      <trkpt lat="47.44707" lon="6.77614">
        <ele>361.23</ele>
        <time>2016-09-11T07:23:39Z</time>
      </trkpt>
      <trkpt lat="47.44726" lon="6.77605">
        <ele>359.86</ele>
        <time>2016-09-11T07:23:43Z</time>
      </trkpt>
      <trkpt lat="47.44743" lon="6.77594">
        <ele>358.27</ele>
        <time>2016-09-11T07:23:47Z</time>
      </trkpt>
      <trkpt lat="47.4476" lon="6.77584">
        <ele>358.53</ele>
        <time>2016-09-11T07:23:51Z</time>
      </trkpt>
      <trkpt lat="47.4478" lon="6.77573">
        <ele>358.92</ele>
        <time>2016-09-11T07:23:55Z</time>
      </trkpt>
      <trkpt lat="47.44797" lon="6.77563">
        <ele>360.87</ele>
        <time>2016-09-11T07:23:58Z</time>
      </trkpt>
      <trkpt lat="47.44819" lon="6.77551">
        <ele>361.54</ele>
        <time>2016-09-11T07:24:02Z</time>
      </trkpt>
      <trkpt lat="47.44839" lon="6.77541">
        <ele>358.74</ele>
        <time>2016-09-11T07:24:06Z</time>
      </trkpt>
      <trkpt lat="47.44854" lon="6.77522">
        <ele>355.78</ele>
        <time>2016-09-11T07:24:10Z</time>
      </trkpt>
      <trkpt lat="47.44866" lon="6.77498">
        <ele>358.24</ele>
        <time>2016-09-11T07:24:15Z</time>
      </trkpt>
      <trkpt lat="47.44873" lon="6.7747">
        <ele>359.2</ele>
        <time>2016-09-11T07:24:20Z</time>
      </trkpt>
      <trkpt lat="47.44882" lon="6.77445">
        <ele>359.67</ele>
        <time>2016-09-11T07:24:26Z</time>
      </trkpt>
      <trkpt lat="47.44895" lon="6.77421">
        <ele>361.11</ele>
        <time>2016-09-11T07:24:32Z</time>
      </trkpt>
      <trkpt lat="47.44911" lon="6.77399">
        <ele>364.08</ele>
        <time>2016-09-11T07:24:38Z</time>
      </trkpt>
      <trkpt lat="47.44925" lon="6.77383">
        <ele>365.11</ele>
        <time>2016-09-11T07:24:43Z</time>
      </trkpt>
      <trkpt lat="47.44943" lon="6.77395">
        <ele>363.04</ele>
        <time>2016-09-11T07:24:49Z</time>
      </trkpt>
      <trkpt lat="47.44961" lon="6.77412">
        <ele>360.51</ele>
        <time>2016-09-11T07:24:53Z</time>
      </trkpt>
      <trkpt lat="47.44977" lon="6.77426">
        <ele>360.49</ele>
        <time>2016-09-11T07:24:57Z</time>
      </trkpt>
      <trkpt lat="47.44995" lon="6.7742">
        <ele>364.81</ele>
        <time>2016-09-11T07:27:45Z</time>
      </trkpt>
      <trkpt lat="47.45008" lon="6.77399">
        <ele>364.76</ele>
        <time>2016-09-11T07:27:52Z</time>
      </trkpt>
      <trkpt lat="47.45017" lon="6.77376">
        <ele>364.51</ele>
        <time>2016-09-11T07:27:59Z</time>
      </trkpt>
      <trkpt lat="47.45027" lon="6.77352">
        <ele>364.87</ele>
        <time>2016-09-11T07:28:07Z</time>
      </trkpt>
      <trkpt lat="47.45032" lon="6.77326">
        <ele>365.1</ele>
        <time>2016-09-11T07:28:14Z</time>
      </trkpt>
      <trkpt lat="47.45038" lon="6.773">
        <ele>365.07</ele>
        <time>2016-09-11T07:28:21Z</time>
      </trkpt>
      <trkpt lat="47.45048" lon="6.77275">
        <ele>365.15</ele>
        <time>2016-09-11T07:28:31Z</time>
      </trkpt>
      <trkpt lat="47.4506" lon="6.77253">
        <ele>365.23</ele>
        <time>2016-09-11T07:28:37Z</time>
      </trkpt>
      <trkpt lat="47.45072" lon="6.77228">
        <ele>365.99</ele>
        <time>2016-09-11T07:28:43Z</time>
      </trkpt>
      <trkpt lat="47.45077" lon="6.77202">
        <ele>366.98</ele>
        <time>2016-09-11T07:28:49Z</time>
      </trkpt>
      <trkpt lat="47.45079" lon="6.77173">
        <ele>368.73</ele>
        <time>2016-09-11T07:28:55Z</time>
      </trkpt>
      <trkpt lat="47.4508" lon="6.77142">
        <ele>371.01</ele>
        <time>2016-09-11T07:29:02Z</time>
      </trkpt>
      <trkpt lat="47.45083" lon="6.77114">
        <ele>372.61</ele>
        <time>2016-09-11T07:29:08Z</time>
      </trkpt>
      <trkpt lat="47.45088" lon="6.77085">
        <ele>373.12</ele>
        <time>2016-09-11T07:29:15Z</time>
      </trkpt>
      <trkpt lat="47.45096" lon="6.77061">
        <ele>373.52</ele>
        <time>2016-09-11T07:29:21Z</time>
      </trkpt>
      <trkpt lat="47.45106" lon="6.77039">
        <ele>374.15</ele>
        <time>2016-09-11T07:29:28Z</time>
      </trkpt>
      <trkpt lat="47.45116" lon="6.77015">
        <ele>374.2</ele>
        <time>2016-09-11T07:29:36Z</time>
      </trkpt>
      <trkpt lat="47.45123" lon="6.76988">
        <ele>374.56</ele>
        <time>2016-09-11T07:29:43Z</time>
      </trkpt>
      <trkpt lat="47.4513" lon="6.76962">
        <ele>373.94</ele>
        <time>2016-09-11T07:29:49Z</time>
      </trkpt>
      <trkpt lat="47.45138" lon="6.76935">
        <ele>372.78</ele>
        <time>2016-09-11T07:29:56Z</time>
      </trkpt>
      <trkpt lat="47.45126" lon="6.76906">
        <ele>372.41</ele>
        <time>2016-09-11T07:30:02Z</time>
      </trkpt>
      <trkpt lat="47.45116" lon="6.76884">
        <ele>372.43</ele>
        <time>2016-09-11T07:30:07Z</time>
      </trkpt>
      <trkpt lat="47.45107" lon="6.76857">
        <ele>371.83</ele>
        <time>2016-09-11T07:30:13Z</time>
      </trkpt>
      <trkpt lat="47.45094" lon="6.76834">
        <ele>371.15</ele>
        <time>2016-09-11T07:30:23Z</time>
      </trkpt>
      <trkpt lat="47.45071" lon="6.7683">
        <ele>371.67</ele>
        <time>2016-09-11T07:30:31Z</time>
      </trkpt>
      <trkpt lat="47.45051" lon="6.76836">
        <ele>373.35</ele>
        <time>2016-09-11T07:30:37Z</time>
      </trkpt>
      <trkpt lat="47.45033" lon="6.76839">
        <ele>374.16</ele>
        <time>2016-09-11T07:30:43Z</time>
      </trkpt>
      <trkpt lat="47.45013" lon="6.76841">
        <ele>374.91</ele>
        <time>2016-09-11T07:30:50Z</time>
      </trkpt>
      <trkpt lat="47.44999" lon="6.76821">
        <ele>377.08</ele>
        <time>2016-09-11T07:30:57Z</time>
      </trkpt>
      <trkpt lat="47.44986" lon="6.76804">
        <ele>379.75</ele>
        <time>2016-09-11T07:31:04Z</time>
      </trkpt>
      <trkpt lat="47.4497" lon="6.7679">
        <ele>383.75</ele>
        <time>2016-09-11T07:31:11Z</time>
      </trkpt>
      <trkpt lat="47.44955" lon="6.76772">
        <ele>384.46</ele>
        <time>2016-09-11T07:31:17Z</time>
      </trkpt>
      <trkpt lat="47.44921" lon="6.76733">
        <ele>386.71</ele>
        <time>2016-09-11T07:31:31Z</time>
      </trkpt>
      <trkpt lat="47.44853" lon="6.76653">
        <ele>394.25</ele>
        <time>2016-09-11T07:32:11Z</time>
      </trkpt>
      <trkpt lat="47.4484" lon="6.76633">
        <ele>397.56</ele>
        <time>2016-09-11T07:32:18Z</time>
      </trkpt>
      <trkpt lat="47.44825" lon="6.76616">
        <ele>398.29</ele>
        <time>2016-09-11T07:32:25Z</time>
      </trkpt>
      <trkpt lat="47.44809" lon="6.766">
        <ele>399.98</ele>
        <time>2016-09-11T07:32:34Z</time>
      </trkpt>
      <trkpt lat="47.44796" lon="6.76582">
        <ele>401.76</ele>
        <time>2016-09-11T07:32:45Z</time>
      </trkpt>
      <trkpt lat="47.4478" lon="6.76569">
        <ele>403.41</ele>
        <time>2016-09-11T07:32:57Z</time>
      </trkpt>
      <trkpt lat="47.44766" lon="6.76546">
        <ele>405.17</ele>
        <time>2016-09-11T07:33:07Z</time>
      </trkpt>
      <trkpt lat="47.44752" lon="6.76524">
        <ele>406.49</ele>
        <time>2016-09-11T07:33:16Z</time>
      </trkpt>
      <trkpt lat="47.44738" lon="6.76507">
        <ele>408.31</ele>
        <time>2016-09-11T07:33:26Z</time>
      </trkpt>
      <trkpt lat="47.44721" lon="6.7649">
        <ele>410.77</ele>
        <time>2016-09-11T07:33:34Z</time>
      </trkpt>
      <trkpt lat="47.44708" lon="6.76471">
        <ele>412.75</ele>
        <time>2016-09-11T07:33:41Z</time>
      </trkpt>
      <trkpt lat="47.44691" lon="6.76454">
        <ele>413.94</ele>
        <time>2016-09-11T07:33:50Z</time>
      </trkpt>
      <trkpt lat="47.44678" lon="6.76434">
        <ele>414.17</ele>
        <time>2016-09-11T07:33:59Z</time>
      </trkpt>
      <trkpt lat="47.44665" lon="6.76416">
        <ele>413.77</ele>
        <time>2016-09-11T07:34:09Z</time>
      </trkpt>
      <trkpt lat="47.4465" lon="6.76394">
        <ele>413.11</ele>
        <time>2016-09-11T07:34:18Z</time>
      </trkpt>
      <trkpt lat="47.44646" lon="6.76362">
        <ele>412.54</ele>
        <time>2016-09-11T07:34:26Z</time>
      </trkpt>
      <trkpt lat="47.44645" lon="6.76328">
        <ele>412.92</ele>
        <time>2016-09-11T07:34:30Z</time>
      </trkpt>
      <trkpt lat="47.44637" lon="6.76303">
        <ele>412.84</ele>
        <time>2016-09-11T07:34:33Z</time>
      </trkpt>
      <trkpt lat="47.44626" lon="6.7628">
        <ele>412.61</ele>
        <time>2016-09-11T07:34:36Z</time>
      </trkpt>
      <trkpt lat="47.4462" lon="6.76252">
        <ele>411.99</ele>
        <time>2016-09-11T07:34:43Z</time>
      </trkpt>
      <trkpt lat="47.44632" lon="6.76225">
        <ele>410.91</ele>
        <time>2016-09-11T07:36:10Z</time>
      </trkpt>
      <trkpt lat="47.44646" lon="6.76205">
        <ele>410.65</ele>
        <time>2016-09-11T07:36:19Z</time>
      </trkpt>
      <trkpt lat="47.44661" lon="6.76179">
        <ele>410.24</ele>
        <time>2016-09-11T07:36:26Z</time>
      </trkpt>
      <trkpt lat="47.44667" lon="6.76152">
        <ele>409.84</ele>
        <time>2016-09-11T07:36:30Z</time>
      </trkpt>
      <trkpt lat="47.44673" lon="6.76125">
        <ele>408.19</ele>
        <time>2016-09-11T07:36:36Z</time>
      </trkpt>
      <trkpt lat="47.4468" lon="6.76099">
        <ele>406.32</ele>
        <time>2016-09-11T07:36:41Z</time>
      </trkpt>
      <trkpt lat="47.44688" lon="6.76071">
        <ele>404.84</ele>
        <time>2016-09-11T07:36:45Z</time>
      </trkpt>
      <trkpt lat="47.44696" lon="6.76039">
        <ele>404.08</ele>
        <time>2016-09-11T07:36:49Z</time>
      </trkpt>
      <trkpt lat="47.44704" lon="6.76014">
        <ele>403.03</ele>
        <time>2016-09-11T07:36:54Z</time>
      </trkpt>
      <trkpt lat="47.44721" lon="6.75992">
        <ele>401.93</ele>
        <time>2016-09-11T07:37:01Z</time>
      </trkpt>
      <trkpt lat="47.4474" lon="6.75982">
        <ele>401.4</ele>
        <time>2016-09-11T07:37:07Z</time>
      </trkpt>
      <trkpt lat="47.4476" lon="6.75992">
        <ele>400.99</ele>
        <time>2016-09-11T07:37:13Z</time>
      </trkpt>
      <trkpt lat="47.4478" lon="6.76003">
        <ele>400.23</ele>
        <time>2016-09-11T07:37:17Z</time>
      </trkpt>
      <trkpt lat="47.44797" lon="6.75991">
        <ele>399.72</ele>
        <time>2016-09-11T07:37:24Z</time>
      </trkpt>
      <trkpt lat="47.44817" lon="6.7599">
        <ele>399.7</ele>
        <time>2016-09-11T07:37:29Z</time>
      </trkpt>
      <trkpt lat="47.44841" lon="6.75992">
        <ele>400.29</ele>
        <time>2016-09-11T07:37:35Z</time>
      </trkpt>
      <trkpt lat="47.44864" lon="6.75988">
        <ele>399.98</ele>
        <time>2016-09-11T07:37:40Z</time>
      </trkpt>
      <trkpt lat="47.44882" lon="6.7598">
        <ele>399.92</ele>
        <time>2016-09-11T07:37:43Z</time>
      </trkpt>
      <trkpt lat="47.44899" lon="6.75966">
        <ele>399.82</ele>
        <time>2016-09-11T07:37:49Z</time>
      </trkpt>
      <trkpt lat="47.44917" lon="6.75959">
        <ele>399.62</ele>
        <time>2016-09-11T07:37:54Z</time>
      </trkpt>
      <trkpt lat="47.44935" lon="6.75949">
        <ele>399.65</ele>
        <time>2016-09-11T07:37:58Z</time>
      </trkpt>
      <trkpt lat="47.44952" lon="6.75929">
        <ele>399.35</ele>
        <time>2016-09-11T07:38:02Z</time>
      </trkpt>
      <trkpt lat="47.44967" lon="6.75908">
        <ele>399.03</ele>
        <time>2016-09-11T07:38:08Z</time>
      </trkpt>
      <trkpt lat="47.4498" lon="6.75888">
        <ele>398.5</ele>
        <time>2016-09-11T07:38:13Z</time>
      </trkpt>
      <trkpt lat="47.44996" lon="6.75865">
        <ele>397.16</ele>
        <time>2016-09-11T07:38:17Z</time>
      </trkpt>
      <trkpt lat="47.45012" lon="6.75844">
        <ele>395.12</ele>
        <time>2016-09-11T07:38:21Z</time>
      </trkpt>
      <trkpt lat="47.45031" lon="6.75832">
        <ele>394.19</ele>
        <time>2016-09-11T07:38:25Z</time>
      </trkpt>
      <trkpt lat="47.4505" lon="6.75828">
        <ele>393.92</ele>
        <time>2016-09-11T07:38:29Z</time>
      </trkpt>
      <trkpt lat="47.4507" lon="6.75832">
        <ele>394.27</ele>
        <time>2016-09-11T07:38:34Z</time>
      </trkpt>
      <trkpt lat="47.4509" lon="6.75821">
        <ele>394.41</ele>
        <time>2016-09-11T07:38:39Z</time>
      </trkpt>
      <trkpt lat="47.45109" lon="6.75814">
        <ele>394.5</ele>
        <time>2016-09-11T07:38:43Z</time>
      </trkpt>
      <trkpt lat="47.45128" lon="6.7581">
        <ele>394.24</ele>
        <time>2016-09-11T07:38:46Z</time>
      </trkpt>
      <trkpt lat="47.45149" lon="6.75809">
        <ele>395.39</ele>
        <time>2016-09-11T07:38:49Z</time>
      </trkpt>
      <trkpt lat="47.4517" lon="6.75814">
        <ele>393.02</ele>
        <time>2016-09-11T07:38:52Z</time>
      </trkpt>
      <trkpt lat="47.45191" lon="6.75824">
        <ele>393.05</ele>
        <time>2016-09-11T07:38:56Z</time>
      </trkpt>
      <trkpt lat="47.45206" lon="6.75841">
        <ele>393.96</ele>
        <time>2016-09-11T07:39:00Z</time>
      </trkpt>
      <trkpt lat="47.45226" lon="6.75856">
        <ele>394.29</ele>
        <time>2016-09-11T07:39:04Z</time>
      </trkpt>
      <trkpt lat="47.45243" lon="6.75867">
        <ele>393.79</ele>
        <time>2016-09-11T07:39:10Z</time>
      </trkpt>
      <trkpt lat="47.45263" lon="6.75876">
        <ele>392.66</ele>
        <time>2016-09-11T07:39:16Z</time>
      </trkpt>
      <trkpt lat="47.45281" lon="6.75883">
        <ele>392.11</ele>
        <time>2016-09-11T07:39:20Z</time>
      </trkpt>
      <trkpt lat="47.45299" lon="6.75893">
        <ele>391.2</ele>
        <time>2016-09-11T07:39:26Z</time>
      </trkpt>
      <trkpt lat="47.45318" lon="6.75906">
        <ele>390.87</ele>
        <time>2016-09-11T07:39:32Z</time>
      </trkpt>
      <trkpt lat="47.45337" lon="6.75911">
        <ele>389.96</ele>
        <time>2016-09-11T07:39:38Z</time>
      </trkpt>
      <trkpt lat="47.45354" lon="6.75929">
        <ele>390.08</ele>
        <time>2016-09-11T07:39:43Z</time>
      </trkpt>
      <trkpt lat="47.45358" lon="6.75955">
        <ele>389.56</ele>
        <time>2016-09-11T07:39:52Z</time>
      </trkpt>
      <trkpt lat="47.45358" lon="6.75983">
        <ele>388.86</ele>
        <time>2016-09-11T07:40:14Z</time>
      </trkpt>
      <trkpt lat="47.45362" lon="6.76009">
        <ele>387.76</ele>
        <time>2016-09-11T07:40:20Z</time>
      </trkpt>
      <trkpt lat="47.45357" lon="6.76036">
        <ele>388.15</ele>
        <time>2016-09-11T07:40:29Z</time>
      </trkpt>
      <trkpt lat="47.4535" lon="6.76061">
        <ele>388.94</ele>
        <time>2016-09-11T07:40:38Z</time>
      </trkpt>
      <trkpt lat="47.45352" lon="6.76088">
        <ele>388.18</ele>
        <time>2016-09-11T07:40:48Z</time>
      </trkpt>
      <trkpt lat="47.45373" lon="6.76098">
        <ele>387.24</ele>
        <time>2016-09-11T07:40:55Z</time>
      </trkpt>
      <trkpt lat="47.4539" lon="6.76109">
        <ele>384.27</ele>
        <time>2016-09-11T07:41:06Z</time>
      </trkpt>
      <trkpt lat="47.45404" lon="6.76128">
        <ele>383.21</ele>
        <time>2016-09-11T07:41:12Z</time>
      </trkpt>
      <trkpt lat="47.45422" lon="6.76136">
        <ele>381.74</ele>
        <time>2016-09-11T07:41:17Z</time>
      </trkpt>
      <trkpt lat="47.45441" lon="6.76145">
        <ele>379.73</ele>
        <time>2016-09-11T07:41:26Z</time>
      </trkpt>
      <trkpt lat="47.45462" lon="6.7615">
        <ele>378.32</ele>
        <time>2016-09-11T07:41:33Z</time>
      </trkpt>
      <trkpt lat="47.45479" lon="6.76163">
        <ele>375</ele>
        <time>2016-09-11T07:41:42Z</time>
      </trkpt>
      <trkpt lat="47.45497" lon="6.76173">
        <ele>374.07</ele>
        <time>2016-09-11T07:41:49Z</time>
      </trkpt>
      <trkpt lat="47.45518" lon="6.76173">
        <ele>373.55</ele>
        <time>2016-09-11T07:41:55Z</time>
      </trkpt>
      <trkpt lat="47.45536" lon="6.76167">
        <ele>373.96</ele>
        <time>2016-09-11T07:42:00Z</time>
      </trkpt>
      <trkpt lat="47.45556" lon="6.76149">
        <ele>373.4</ele>
        <time>2016-09-11T07:42:05Z</time>
      </trkpt>
      <trkpt lat="47.45574" lon="6.76136">
        <ele>373.2</ele>
        <time>2016-09-11T07:42:10Z</time>
      </trkpt>
      <trkpt lat="47.45594" lon="6.76125">
        <ele>372.63</ele>
        <time>2016-09-11T07:42:15Z</time>
      </trkpt>
      <trkpt lat="47.45611" lon="6.7611">
        <ele>372.26</ele>
        <time>2016-09-11T07:42:19Z</time>
      </trkpt>
      <trkpt lat="47.45629" lon="6.76099">
        <ele>371.31</ele>
        <time>2016-09-11T07:42:23Z</time>
      </trkpt>
      <trkpt lat="47.45648" lon="6.76091">
        <ele>365.96</ele>
        <time>2016-09-11T07:42:27Z</time>
      </trkpt>
      <trkpt lat="47.45667" lon="6.76081">
        <ele>365.15</ele>
        <time>2016-09-11T07:42:31Z</time>
      </trkpt>
      <trkpt lat="47.45685" lon="6.76075">
        <ele>365.6</ele>
        <time>2016-09-11T07:42:35Z</time>
      </trkpt>
      <trkpt lat="47.45702" lon="6.76063">
        <ele>365.6</ele>
        <time>2016-09-11T07:42:40Z</time>
      </trkpt>
      <trkpt lat="47.45721" lon="6.76047">
        <ele>365.35</ele>
        <time>2016-09-11T07:42:46Z</time>
      </trkpt>
      <trkpt lat="47.4574" lon="6.76036">
        <ele>364.28</ele>
        <time>2016-09-11T07:42:51Z</time>
      </trkpt>
      <trkpt lat="47.45756" lon="6.76025">
        <ele>362.9</ele>
        <time>2016-09-11T07:42:57Z</time>
      </trkpt>
      <trkpt lat="47.45776" lon="6.76016">
        <ele>362.01</ele>
        <time>2016-09-11T07:43:03Z</time>
      </trkpt>
      <trkpt lat="47.45794" lon="6.76002">
        <ele>361.9</ele>
        <time>2016-09-11T07:43:10Z</time>
      </trkpt>
      <trkpt lat="47.45812" lon="6.75986">
        <ele>361.87</ele>
        <time>2016-09-11T07:43:17Z</time>
      </trkpt>
      <trkpt lat="47.45831" lon="6.75984">
        <ele>361.87</ele>
        <time>2016-09-11T07:43:23Z</time>
      </trkpt>
      <trkpt lat="47.45847" lon="6.75994">
        <ele>361.62</ele>
        <time>2016-09-11T07:43:28Z</time>
      </trkpt>
      <trkpt lat="47.45865" lon="6.76007">
        <ele>361.09</ele>
        <time>2016-09-11T07:43:33Z</time>
      </trkpt>
      <trkpt lat="47.45882" lon="6.76018">
        <ele>357.13</ele>
        <time>2016-09-11T07:44:18Z</time>
      </trkpt>
      <trkpt lat="47.45898" lon="6.76002">
        <ele>349.96</ele>
        <time>2016-09-11T07:45:45Z</time>
      </trkpt>
      <trkpt lat="47.45886" lon="6.75974">
        <ele>345.07</ele>
        <time>2016-09-11T07:45:50Z</time>
      </trkpt>
      <trkpt lat="47.45871" lon="6.75946">
        <ele>344.32</ele>
        <time>2016-09-11T07:45:54Z</time>
      </trkpt>
      <trkpt lat="47.45861" lon="6.75918">
        <ele>346.71</ele>
        <time>2016-09-11T07:45:57Z</time>
      </trkpt>
      <trkpt lat="47.45849" lon="6.75893">
        <ele>347.37</ele>
        <time>2016-09-11T07:46:00Z</time>
      </trkpt>
      <trkpt lat="47.45836" lon="6.75869">
        <ele>347.24</ele>
        <time>2016-09-11T07:46:03Z</time>
      </trkpt>
      <trkpt lat="47.45822" lon="6.75848">
        <ele>346.43</ele>
        <time>2016-09-11T07:46:06Z</time>
      </trkpt>
      <trkpt lat="47.45804" lon="6.75827">
        <ele>346.04</ele>
        <time>2016-09-11T07:46:10Z</time>
      </trkpt>
      <trkpt lat="47.45788" lon="6.7581">
        <ele>342.77</ele>
        <time>2016-09-11T07:46:14Z</time>
      </trkpt>
      <trkpt lat="47.45773" lon="6.75795">
        <ele>339.7</ele>
        <time>2016-09-11T07:46:18Z</time>
      </trkpt>
      <trkpt lat="47.45753" lon="6.75782">
        <ele>333.77</ele>
        <time>2016-09-11T07:46:23Z</time>
      </trkpt>
      <trkpt lat="47.45735" lon="6.75769">
        <ele>332.25</ele>
        <time>2016-09-11T07:46:28Z</time>
      </trkpt>
      <trkpt lat="47.45719" lon="6.75757">
        <ele>332.33</ele>
        <time>2016-09-11T07:46:33Z</time>
      </trkpt>
      <trkpt lat="47.45699" lon="6.75745">
        <ele>332.29</ele>
        <time>2016-09-11T07:46:39Z</time>
      </trkpt>
      <trkpt lat="47.45682" lon="6.75732">
        <ele>332.18</ele>
        <time>2016-09-11T07:46:44Z</time>
      </trkpt>
      <trkpt lat="47.45665" lon="6.75719">
        <ele>331.97</ele>
        <time>2016-09-11T07:46:49Z</time>
      </trkpt>
      <trkpt lat="47.45649" lon="6.75707">
        <ele>334.31</ele>
        <time>2016-09-11T07:46:54Z</time>
      </trkpt>
      <trkpt lat="47.45632" lon="6.75692">
        <ele>339.43</ele>
        <time>2016-09-11T07:46:59Z</time>
      </trkpt>
      <trkpt lat="47.45613" lon="6.75676">
        <ele>339.95</ele>
        <time>2016-09-11T07:47:04Z</time>
      </trkpt>
      <trkpt lat="47.45593" lon="6.75662">
        <ele>340.02</ele>
        <time>2016-09-11T07:47:09Z</time>
      </trkpt>
      <trkpt lat="47.45575" lon="6.75645">
        <ele>337.8</ele>
        <time>2016-09-11T07:47:13Z</time>
      </trkpt>
      <trkpt lat="47.45558" lon="6.75628">
        <ele>336.53</ele>
        <time>2016-09-11T07:47:17Z</time>
      </trkpt>
      <trkpt lat="47.45541" lon="6.75613">
        <ele>339.61</ele>
        <time>2016-09-11T07:47:21Z</time>
      </trkpt>
      <trkpt lat="47.45525" lon="6.75598">
        <ele>340.57</ele>
        <time>2016-09-11T07:47:25Z</time>
      </trkpt>
      <trkpt lat="47.45509" lon="6.75585">
        <ele>341.67</ele>
        <time>2016-09-11T07:47:29Z</time>
      </trkpt>
      <trkpt lat="47.4549" lon="6.75571">
        <ele>338.72</ele>
        <time>2016-09-11T07:47:33Z</time>
      </trkpt>
      <trkpt lat="47.45473" lon="6.75556">
        <ele>335.11</ele>
        <time>2016-09-11T07:47:37Z</time>
      </trkpt>
      <trkpt lat="47.45455" lon="6.75539">
        <ele>332.28</ele>
        <time>2016-09-11T07:47:41Z</time>
      </trkpt>
      <trkpt lat="47.45438" lon="6.75522">
        <ele>330.7</ele>
        <time>2016-09-11T07:47:46Z</time>
      </trkpt>
      <trkpt lat="47.45423" lon="6.75505">
        <ele>329.14</ele>
        <time>2016-09-11T07:47:50Z</time>
      </trkpt>
      <trkpt lat="47.45407" lon="6.75489">
        <ele>329.73</ele>
        <time>2016-09-11T07:47:55Z</time>
      </trkpt>
      <trkpt lat="47.4539" lon="6.7547">
        <ele>333.01</ele>
        <time>2016-09-11T07:48:00Z</time>
      </trkpt>
      <trkpt lat="47.45372" lon="6.7545">
        <ele>333.91</ele>
        <time>2016-09-11T07:48:05Z</time>
      </trkpt>
      <trkpt lat="47.45357" lon="6.7543">
        <ele>332.67</ele>
        <time>2016-09-11T07:48:09Z</time>
      </trkpt>
      <trkpt lat="47.45343" lon="6.75412">
        <ele>338.39</ele>
        <time>2016-09-11T07:48:14Z</time>
      </trkpt>
      <trkpt lat="47.45329" lon="6.75388">
        <ele>338.77</ele>
        <time>2016-09-11T07:48:19Z</time>
      </trkpt>
      <trkpt lat="47.45317" lon="6.75365">
        <ele>335.71</ele>
        <time>2016-09-11T07:48:24Z</time>
      </trkpt>
      <trkpt lat="47.45313" lon="6.75338">
        <ele>336.44</ele>
        <time>2016-09-11T07:48:32Z</time>
      </trkpt>
      <trkpt lat="47.45335" lon="6.75321">
        <ele>337.15</ele>
        <time>2016-09-11T07:48:42Z</time>
      </trkpt>
      <trkpt lat="47.45353" lon="6.75316">
        <ele>337.82</ele>
        <time>2016-09-11T07:48:46Z</time>
      </trkpt>
      <trkpt lat="47.45372" lon="6.75305">
        <ele>344.36</ele>
        <time>2016-09-11T07:48:50Z</time>
      </trkpt>
      <trkpt lat="47.45392" lon="6.75296">
        <ele>347.62</ele>
        <time>2016-09-11T07:48:55Z</time>
      </trkpt>
      <trkpt lat="47.45381" lon="6.75271">
        <ele>346.77</ele>
        <time>2016-09-11T07:48:59Z</time>
      </trkpt>
      <trkpt lat="47.45368" lon="6.75252">
        <ele>346.51</ele>
        <time>2016-09-11T07:49:04Z</time>
      </trkpt>
      <trkpt lat="47.45356" lon="6.75231">
        <ele>346.16</ele>
        <time>2016-09-11T07:49:09Z</time>
      </trkpt>
      <trkpt lat="47.45344" lon="6.75212">
        <ele>346.19</ele>
        <time>2016-09-11T07:49:15Z</time>
      </trkpt>
      <trkpt lat="47.4533" lon="6.75188">
        <ele>346.44</ele>
        <time>2016-09-11T07:49:23Z</time>
      </trkpt>
      <trkpt lat="47.45315" lon="6.75168">
        <ele>346.88</ele>
        <time>2016-09-11T07:49:32Z</time>
      </trkpt>
      <trkpt lat="47.45302" lon="6.75144">
        <ele>347.5</ele>
        <time>2016-09-11T07:49:40Z</time>
      </trkpt>
      <trkpt lat="47.45295" lon="6.75119">
        <ele>348.02</ele>
        <time>2016-09-11T07:49:47Z</time>
      </trkpt>
      <trkpt lat="47.45285" lon="6.75095">
        <ele>348.12</ele>
        <time>2016-09-11T07:49:54Z</time>
      </trkpt>
      <trkpt lat="47.45274" lon="6.7507">
        <ele>348.16</ele>
        <time>2016-09-11T07:49:59Z</time>
      </trkpt>
      <trkpt lat="47.45267" lon="6.75042">
        <ele>348.75</ele>
        <time>2016-09-11T07:50:05Z</time>
      </trkpt>
      <trkpt lat="47.4526" lon="6.75018">
        <ele>349.78</ele>
        <time>2016-09-11T07:50:11Z</time>
      </trkpt>
      <trkpt lat="47.4525" lon="6.74993">
        <ele>350.09</ele>
        <time>2016-09-11T07:50:17Z</time>
      </trkpt>
      <trkpt lat="47.45241" lon="6.74965">
        <ele>351.41</ele>
        <time>2016-09-11T07:50:22Z</time>
      </trkpt>
      <trkpt lat="47.45235" lon="6.74937">
        <ele>351.98</ele>
        <time>2016-09-11T07:50:28Z</time>
      </trkpt>
      <trkpt lat="47.45234" lon="6.74908">
        <ele>352.64</ele>
        <time>2016-09-11T07:50:36Z</time>
      </trkpt>
      <trkpt lat="47.45239" lon="6.74882">
        <ele>351.33</ele>
        <time>2016-09-11T07:50:44Z</time>
      </trkpt>
      <trkpt lat="47.45226" lon="6.74864">
        <ele>350.16</ele>
        <time>2016-09-11T07:50:53Z</time>
      </trkpt>
      <trkpt lat="47.4521" lon="6.74841">
        <ele>349.64</ele>
        <time>2016-09-11T07:51:00Z</time>
      </trkpt>
      <trkpt lat="47.45198" lon="6.74816">
        <ele>349.2</ele>
        <time>2016-09-11T07:51:07Z</time>
      </trkpt>
      <trkpt lat="47.45193" lon="6.74788">
        <ele>350.14</ele>
        <time>2016-09-11T07:51:14Z</time>
      </trkpt>
      <trkpt lat="47.45182" lon="6.74762">
        <ele>351.56</ele>
        <time>2016-09-11T07:51:20Z</time>
      </trkpt>
      <trkpt lat="47.45173" lon="6.74734">
        <ele>353.6</ele>
        <time>2016-09-11T07:51:27Z</time>
      </trkpt>
      <trkpt lat="47.45163" lon="6.7471">
        <ele>357.05</ele>
        <time>2016-09-11T07:51:36Z</time>
      </trkpt>
      <trkpt lat="47.45146" lon="6.74695">
        <ele>360.55</ele>
        <time>2016-09-11T07:51:47Z</time>
      </trkpt>
      <trkpt lat="47.45132" lon="6.74673">
        <ele>361.82</ele>
        <time>2016-09-11T07:51:58Z</time>
      </trkpt>
      <trkpt lat="47.45121" lon="6.74649">
        <ele>361.78</ele>
        <time>2016-09-11T07:52:06Z</time>
      </trkpt>
      <trkpt lat="47.45107" lon="6.74633">
        <ele>361.88</ele>
        <time>2016-09-11T07:52:12Z</time>
      </trkpt>
      <trkpt lat="47.45093" lon="6.74613">
        <ele>361.61</ele>
        <time>2016-09-11T07:52:19Z</time>
      </trkpt>
      <trkpt lat="47.4508" lon="6.74593">
        <ele>361.02</ele>
        <time>2016-09-11T07:52:25Z</time>
      </trkpt>
      <trkpt lat="47.45065" lon="6.74572">
        <ele>360.51</ele>
        <time>2016-09-11T07:52:31Z</time>
      </trkpt>
      <trkpt lat="47.45051" lon="6.74553">
        <ele>360.5</ele>
        <time>2016-09-11T07:52:35Z</time>
      </trkpt>
      <trkpt lat="47.45035" lon="6.74528">
        <ele>360.37</ele>
        <time>2016-09-11T07:52:41Z</time>
      </trkpt>
      <trkpt lat="47.45019" lon="6.74507">
        <ele>360.16</ele>
        <time>2016-09-11T07:52:48Z</time>
      </trkpt>
      <trkpt lat="47.45006" lon="6.74486">
        <ele>361.04</ele>
        <time>2016-09-11T07:52:54Z</time>
      </trkpt>
      <trkpt lat="47.44994" lon="6.74466">
        <ele>362.29</ele>
        <time>2016-09-11T07:53:02Z</time>
      </trkpt>
      <trkpt lat="47.44985" lon="6.74437">
        <ele>363.74</ele>
        <time>2016-09-11T07:53:15Z</time>
      </trkpt>
      <trkpt lat="47.45001" lon="6.74422">
        <ele>366.16</ele>
        <time>2016-09-11T07:54:16Z</time>
      </trkpt>
      <trkpt lat="47.45016" lon="6.74405">
        <ele>368.47</ele>
        <time>2016-09-11T07:54:26Z</time>
      </trkpt>
      <trkpt lat="47.45031" lon="6.74387">
        <ele>371.22</ele>
        <time>2016-09-11T07:54:36Z</time>
      </trkpt>
      <trkpt lat="47.45043" lon="6.74366">
        <ele>373.73</ele>
        <time>2016-09-11T07:54:46Z</time>
      </trkpt>
      <trkpt lat="47.45059" lon="6.74348">
        <ele>377.28</ele>
        <time>2016-09-11T07:54:59Z</time>
      </trkpt>
      <trkpt lat="47.45073" lon="6.74331">
        <ele>379.94</ele>
        <time>2016-09-11T07:55:11Z</time>
      </trkpt>
      <trkpt lat="47.45085" lon="6.74309">
        <ele>381.94</ele>
        <time>2016-09-11T07:55:21Z</time>
      </trkpt>
      <trkpt lat="47.45095" lon="6.74285">
        <ele>384.02</ele>
        <time>2016-09-11T07:55:33Z</time>
      </trkpt>
      <trkpt lat="47.45109" lon="6.74263">
        <ele>385.41</ele>
        <time>2016-09-11T07:55:45Z</time>
      </trkpt>
      <trkpt lat="47.45127" lon="6.74253">
        <ele>383.21</ele>
        <time>2016-09-11T07:56:03Z</time>
      </trkpt>
      <trkpt lat="47.45136" lon="6.74229">
        <ele>385.42</ele>
        <time>2016-09-11T07:56:31Z</time>
      </trkpt>
      <trkpt lat="47.45152" lon="6.74215">
        <ele>388.42</ele>
        <time>2016-09-11T07:56:58Z</time>
      </trkpt>
      <trkpt lat="47.45167" lon="6.742">
        <ele>392.04</ele>
        <time>2016-09-11T07:57:11Z</time>
      </trkpt>
      <trkpt lat="47.45183" lon="6.7418">
        <ele>393.33</ele>
        <time>2016-09-11T07:57:19Z</time>
      </trkpt>
      <trkpt lat="47.45199" lon="6.74168">
        <ele>392.78</ele>
        <time>2016-09-11T07:57:30Z</time>
      </trkpt>
      <trkpt lat="47.45218" lon="6.74158">
        <ele>392.66</ele>
        <time>2016-09-11T07:57:42Z</time>
      </trkpt>
      <trkpt lat="47.45235" lon="6.74142">
        <ele>394.91</ele>
        <time>2016-09-11T07:57:57Z</time>
      </trkpt>
      <trkpt lat="47.45242" lon="6.74116">
        <ele>399.31</ele>
        <time>2016-09-11T07:58:09Z</time>
      </trkpt>
      <trkpt lat="47.45254" lon="6.74095">
        <ele>402.03</ele>
        <time>2016-09-11T07:58:19Z</time>
      </trkpt>
      <trkpt lat="47.45262" lon="6.74066">
        <ele>404.31</ele>
        <time>2016-09-11T07:58:39Z</time>
      </trkpt>
      <trkpt lat="47.45276" lon="6.74045">
        <ele>407.4</ele>
        <time>2016-09-11T07:58:49Z</time>
      </trkpt>
      <trkpt lat="47.45291" lon="6.74028">
        <ele>411.32</ele>
        <time>2016-09-11T07:59:03Z</time>
      </trkpt>
      <trkpt lat="47.45304" lon="6.74008">
        <ele>415.33</ele>
        <time>2016-09-11T07:59:12Z</time>
      </trkpt>
      <trkpt lat="47.45319" lon="6.73991">
        <ele>419.32</ele>
        <time>2016-09-11T07:59:22Z</time>
      </trkpt>
      <trkpt lat="47.45327" lon="6.73964">
        <ele>422.55</ele>
        <time>2016-09-11T07:59:32Z</time>
      </trkpt>
      <trkpt lat="47.45335" lon="6.7394">
        <ele>426.05</ele>
        <time>2016-09-11T07:59:42Z</time>
      </trkpt>
      <trkpt lat="47.45338" lon="6.7391">
        <ele>428.4</ele>
        <time>2016-09-11T07:59:50Z</time>
      </trkpt>
      <trkpt lat="47.45347" lon="6.73883">
        <ele>430.62</ele>
        <time>2016-09-11T08:00:04Z</time>
      </trkpt>
      <trkpt lat="47.45349" lon="6.73855">
        <ele>430.6</ele>
        <time>2016-09-11T08:00:10Z</time>
      </trkpt>
      <trkpt lat="47.45356" lon="6.7383">
        <ele>430.47</ele>
        <time>2016-09-11T08:00:18Z</time>
      </trkpt>
      <trkpt lat="47.4537" lon="6.73811">
        <ele>430.15</ele>
        <time>2016-09-11T08:00:26Z</time>
      </trkpt>
      <trkpt lat="47.45387" lon="6.73798">
        <ele>429.5</ele>
        <time>2016-09-11T08:00:37Z</time>
      </trkpt>
      <trkpt lat="47.45402" lon="6.73783">
        <ele>428.97</ele>
        <time>2016-09-11T08:00:46Z</time>
      </trkpt>
      <trkpt lat="47.45419" lon="6.73767">
        <ele>429.65</ele>
        <time>2016-09-11T08:00:56Z</time>
      </trkpt>
      <trkpt lat="47.45436" lon="6.7376">
        <ele>430.76</ele>
        <time>2016-09-11T08:01:02Z</time>
      </trkpt>
      <trkpt lat="47.45455" lon="6.73752">
        <ele>432.69</ele>
        <time>2016-09-11T08:01:10Z</time>
      </trkpt>
      <trkpt lat="47.45472" lon="6.7374">
        <ele>434.18</ele>
        <time>2016-09-11T08:01:18Z</time>
      </trkpt>
      <trkpt lat="47.45491" lon="6.73737">
        <ele>435.22</ele>
        <time>2016-09-11T08:01:25Z</time>
      </trkpt>
      <trkpt lat="47.45509" lon="6.73726">
        <ele>436.85</ele>
        <time>2016-09-11T08:01:32Z</time>
      </trkpt>
      <trkpt lat="47.45528" lon="6.7372">
        <ele>438.66</ele>
        <time>2016-09-11T08:01:39Z</time>
      </trkpt>
      <trkpt lat="47.45547" lon="6.73709">
        <ele>440.56</ele>
        <time>2016-09-11T08:01:46Z</time>
      </trkpt>
      <trkpt lat="47.45563" lon="6.73696">
        <ele>441.55</ele>
        <time>2016-09-11T08:01:51Z</time>
      </trkpt>
      <trkpt lat="47.4558" lon="6.73681">
        <ele>442.84</ele>
        <time>2016-09-11T08:02:03Z</time>
      </trkpt>
      <trkpt lat="47.45598" lon="6.73683">
        <ele>442.65</ele>
        <time>2016-09-11T08:02:11Z</time>
      </trkpt>
      <trkpt lat="47.45619" lon="6.73682">
        <ele>443.77</ele>
        <time>2016-09-11T08:02:21Z</time>
      </trkpt>
      <trkpt lat="47.45637" lon="6.7368">
        <ele>445.64</ele>
        <time>2016-09-11T08:02:29Z</time>
      </trkpt>
      <trkpt lat="47.45639" lon="6.73708">
        <ele>454.49</ele>
        <time>2016-09-11T08:03:47Z</time>
      </trkpt>
      <trkpt lat="47.45623" lon="6.73729">
        <ele>452.94</ele>
        <time>2016-09-11T08:04:17Z</time>
      </trkpt>
      <trkpt lat="47.45619" lon="6.73755">
        <ele>451.77</ele>
        <time>2016-09-11T08:04:22Z</time>
      </trkpt>
      <trkpt lat="47.45618" lon="6.73788">
        <ele>451.34</ele>
        <time>2016-09-11T08:04:26Z</time>
      </trkpt>
      <trkpt lat="47.45614" lon="6.73815">
        <ele>451.05</ele>
        <time>2016-09-11T08:04:29Z</time>
      </trkpt>
      <trkpt lat="47.45607" lon="6.73846">
        <ele>453.35</ele>
        <time>2016-09-11T08:04:33Z</time>
      </trkpt>
      <trkpt lat="47.45608" lon="6.73873">
        <ele>455.57</ele>
        <time>2016-09-11T08:04:36Z</time>
      </trkpt>
      <trkpt lat="47.45616" lon="6.73899">
        <ele>453.53</ele>
        <time>2016-09-11T08:04:39Z</time>
      </trkpt>
      <trkpt lat="47.45636" lon="6.73923">
        <ele>449.85</ele>
        <time>2016-09-11T08:04:43Z</time>
      </trkpt>
      <trkpt lat="47.45652" lon="6.73949">
        <ele>450.66</ele>
        <time>2016-09-11T08:04:46Z</time>
      </trkpt>
      <trkpt lat="47.45671" lon="6.73978">
        <ele>451.35</ele>
        <time>2016-09-11T08:04:49Z</time>
      </trkpt>
      <trkpt lat="47.45683" lon="6.73998">
        <ele>448.98</ele>
        <time>2016-09-11T08:04:51Z</time>
      </trkpt>
      <trkpt lat="47.45696" lon="6.74018">
        <ele>447.76</ele>
        <time>2016-09-11T08:04:54Z</time>
      </trkpt>
      <trkpt lat="47.45715" lon="6.74032">
        <ele>445.23</ele>
        <time>2016-09-11T08:04:58Z</time>
      </trkpt>
      <trkpt lat="47.45732" lon="6.74048">
        <ele>440.95</ele>
        <time>2016-09-11T08:05:01Z</time>
      </trkpt>
      <trkpt lat="47.45745" lon="6.74068">
        <ele>433.46</ele>
        <time>2016-09-11T08:05:04Z</time>
      </trkpt>
      <trkpt lat="47.45754" lon="6.74092">
        <ele>430.04</ele>
        <time>2016-09-11T08:05:07Z</time>
      </trkpt>
      <trkpt lat="47.45766" lon="6.74121">
        <ele>427.65</ele>
        <time>2016-09-11T08:05:10Z</time>
      </trkpt>
      <trkpt lat="47.4578" lon="6.74147">
        <ele>423.54</ele>
        <time>2016-09-11T08:05:12Z</time>
      </trkpt>
      <trkpt lat="47.45799" lon="6.74168">
        <ele>419.64</ele>
        <time>2016-09-11T08:05:15Z</time>
      </trkpt>
      <trkpt lat="47.45816" lon="6.7418">
        <ele>418.21</ele>
        <time>2016-09-11T08:05:19Z</time>
      </trkpt>
      <trkpt lat="47.45839" lon="6.74186">
        <ele>415.95</ele>
        <time>2016-09-11T08:05:23Z</time>
      </trkpt>
      <trkpt lat="47.45863" lon="6.74196">
        <ele>416.77</ele>
        <time>2016-09-11T08:05:29Z</time>
      </trkpt>
      <trkpt lat="47.45881" lon="6.74203">
        <ele>415.42</ele>
        <time>2016-09-11T08:05:33Z</time>
      </trkpt>
      <trkpt lat="47.45899" lon="6.74205">
        <ele>413.28</ele>
        <time>2016-09-11T08:05:36Z</time>
      </trkpt>
      <trkpt lat="47.45921" lon="6.74207">
        <ele>413.12</ele>
        <time>2016-09-11T08:05:41Z</time>
      </trkpt>
      <trkpt lat="47.45946" lon="6.742">
        <ele>413.28</ele>
        <time>2016-09-11T08:05:46Z</time>
      </trkpt>
      <trkpt lat="47.45967" lon="6.74203">
        <ele>413.42</ele>
        <time>2016-09-11T08:05:50Z</time>
      </trkpt>
      <trkpt lat="47.45982" lon="6.74219">
        <ele>412.67</ele>
        <time>2016-09-11T08:05:55Z</time>
      </trkpt>
      <trkpt lat="47.46" lon="6.74229">
        <ele>413.41</ele>
        <time>2016-09-11T08:06:00Z</time>
      </trkpt>
      <trkpt lat="47.46019" lon="6.7422">
        <ele>413.46</ele>
        <time>2016-09-11T08:06:05Z</time>
      </trkpt>
      <trkpt lat="47.4604" lon="6.74213">
        <ele>413.49</ele>
        <time>2016-09-11T08:06:12Z</time>
      </trkpt>
      <trkpt lat="47.4606" lon="6.74211">
        <ele>413</ele>
        <time>2016-09-11T08:06:18Z</time>
      </trkpt>
      <trkpt lat="47.4608" lon="6.74212">
        <ele>413.2</ele>
        <time>2016-09-11T08:06:23Z</time>
      </trkpt>
      <trkpt lat="47.46098" lon="6.74224">
        <ele>413.43</ele>
        <time>2016-09-11T08:06:28Z</time>
      </trkpt>
      <trkpt lat="47.46119" lon="6.74231">
        <ele>416.3</ele>
        <time>2016-09-11T08:06:34Z</time>
      </trkpt>
      <trkpt lat="47.4614" lon="6.74233">
        <ele>417.48</ele>
        <time>2016-09-11T08:06:40Z</time>
      </trkpt>
      <trkpt lat="47.4616" lon="6.74235">
        <ele>417.53</ele>
        <time>2016-09-11T08:06:45Z</time>
      </trkpt>
      <trkpt lat="47.46182" lon="6.74244">
        <ele>416.97</ele>
        <time>2016-09-11T08:06:50Z</time>
      </trkpt>
      <trkpt lat="47.46202" lon="6.74253">
        <ele>418.02</ele>
        <time>2016-09-11T08:06:55Z</time>
      </trkpt>
      <trkpt lat="47.46228" lon="6.7426">
        <ele>418.2</ele>
        <time>2016-09-11T08:07:02Z</time>
      </trkpt>
      <trkpt lat="47.46249" lon="6.74269">
        <ele>418.36</ele>
        <time>2016-09-11T08:07:08Z</time>
      </trkpt>
      <trkpt lat="47.46268" lon="6.74274">
        <ele>418.54</ele>
        <time>2016-09-11T08:07:13Z</time>
      </trkpt>
      <trkpt lat="47.46284" lon="6.74288">
        <ele>418.26</ele>
        <time>2016-09-11T08:07:20Z</time>
      </trkpt>
      <trkpt lat="47.46309" lon="6.74304">
        <ele>418.2</ele>
        <time>2016-09-11T08:07:27Z</time>
      </trkpt>
      <trkpt lat="47.46328" lon="6.74309">
        <ele>418.2</ele>
        <time>2016-09-11T08:07:32Z</time>
      </trkpt>
      <trkpt lat="47.46346" lon="6.7431">
        <ele>414.91</ele>
        <time>2016-09-11T08:07:36Z</time>
      </trkpt>
      <trkpt lat="47.46364" lon="6.7432">
        <ele>410.6</ele>
        <time>2016-09-11T08:07:40Z</time>
      </trkpt>
      <trkpt lat="47.46382" lon="6.74331">
        <ele>410.26</ele>
        <time>2016-09-11T08:07:45Z</time>
      </trkpt>
      <trkpt lat="47.46402" lon="6.74336">
        <ele>409.48</ele>
        <time>2016-09-11T08:07:50Z</time>
      </trkpt>
      <trkpt lat="47.46421" lon="6.74341">
        <ele>406.9</ele>
        <time>2016-09-11T08:07:54Z</time>
      </trkpt>
      <trkpt lat="47.46439" lon="6.74357">
        <ele>406.15</ele>
        <time>2016-09-11T08:08:01Z</time>
      </trkpt>
      <trkpt lat="47.46453" lon="6.74374">
        <ele>405.12</ele>
        <time>2016-09-11T08:08:04Z</time>
      </trkpt>
      <trkpt lat="47.46469" lon="6.74392">
        <ele>402.04</ele>
        <time>2016-09-11T08:08:07Z</time>
      </trkpt>
      <trkpt lat="47.46487" lon="6.74411">
        <ele>397.52</ele>
        <time>2016-09-11T08:08:10Z</time>
      </trkpt>
      <trkpt lat="47.46505" lon="6.74431">
        <ele>394.23</ele>
        <time>2016-09-11T08:08:13Z</time>
      </trkpt>
      <trkpt lat="47.4652" lon="6.74458">
        <ele>391.51</ele>
        <time>2016-09-11T08:08:16Z</time>
      </trkpt>
      <trkpt lat="47.46528" lon="6.74484">
        <ele>388.51</ele>
        <time>2016-09-11T08:08:19Z</time>
      </trkpt>
      <trkpt lat="47.46544" lon="6.74508">
        <ele>388.13</ele>
        <time>2016-09-11T08:08:22Z</time>
      </trkpt>
      <trkpt lat="47.46559" lon="6.74529">
        <ele>386.58</ele>
        <time>2016-09-11T08:08:25Z</time>
      </trkpt>
      <trkpt lat="47.46577" lon="6.74556">
        <ele>386.11</ele>
        <time>2016-09-11T08:08:28Z</time>
      </trkpt>
      <trkpt lat="47.46592" lon="6.74582">
        <ele>386.97</ele>
        <time>2016-09-11T08:08:31Z</time>
      </trkpt>
      <trkpt lat="47.46604" lon="6.74604">
        <ele>384.92</ele>
        <time>2016-09-11T08:08:34Z</time>
      </trkpt>
      <trkpt lat="47.4662" lon="6.7463">
        <ele>382.39</ele>
        <time>2016-09-11T08:08:37Z</time>
      </trkpt>
      <trkpt lat="47.46636" lon="6.74655">
        <ele>380</ele>
        <time>2016-09-11T08:08:40Z</time>
      </trkpt>
      <trkpt lat="47.46651" lon="6.74676">
        <ele>375.69</ele>
        <time>2016-09-11T08:08:43Z</time>
      </trkpt>
      <trkpt lat="47.46671" lon="6.74705">
        <ele>370.77</ele>
        <time>2016-09-11T08:08:46Z</time>
      </trkpt>
      <trkpt lat="47.46696" lon="6.74716">
        <ele>368.06</ele>
        <time>2016-09-11T08:08:49Z</time>
      </trkpt>
      <trkpt lat="47.4672" lon="6.74709">
        <ele>363.09</ele>
        <time>2016-09-11T08:08:52Z</time>
      </trkpt>
      <trkpt lat="47.46745" lon="6.74701">
        <ele>359.63</ele>
        <time>2016-09-11T08:08:55Z</time>
      </trkpt>
      <trkpt lat="47.46766" lon="6.74685">
        <ele>358.21</ele>
        <time>2016-09-11T08:08:58Z</time>
      </trkpt>
      <trkpt lat="47.46786" lon="6.74667">
        <ele>355.99</ele>
        <time>2016-09-11T08:09:02Z</time>
      </trkpt>
      <trkpt lat="47.46805" lon="6.74663">
        <ele>355</ele>
        <time>2016-09-11T08:09:06Z</time>
      </trkpt>
      <trkpt lat="47.46824" lon="6.74657">
        <ele>352.97</ele>
        <time>2016-09-11T08:09:10Z</time>
      </trkpt>
      <trkpt lat="47.46841" lon="6.7464">
        <ele>350.39</ele>
        <time>2016-09-11T08:09:14Z</time>
      </trkpt>
      <trkpt lat="47.46858" lon="6.7462">
        <ele>349.94</ele>
        <time>2016-09-11T08:09:18Z</time>
      </trkpt>
      <trkpt lat="47.46875" lon="6.74602">
        <ele>345.93</ele>
        <time>2016-09-11T08:09:22Z</time>
      </trkpt>
      <trkpt lat="47.46895" lon="6.74592">
        <ele>343.53</ele>
        <time>2016-09-11T08:09:26Z</time>
      </trkpt>
      <trkpt lat="47.46914" lon="6.74582">
        <ele>343.35</ele>
        <time>2016-09-11T08:09:30Z</time>
      </trkpt>
      <trkpt lat="47.46931" lon="6.74574">
        <ele>343.32</ele>
        <time>2016-09-11T08:09:35Z</time>
      </trkpt>
      <trkpt lat="47.46951" lon="6.7457">
        <ele>343.29</ele>
        <time>2016-09-11T08:09:41Z</time>
      </trkpt>
      <trkpt lat="47.4697" lon="6.7457">
        <ele>342.91</ele>
        <time>2016-09-11T08:09:46Z</time>
      </trkpt>
      <trkpt lat="47.46988" lon="6.7457">
        <ele>341.64</ele>
        <time>2016-09-11T08:09:50Z</time>
      </trkpt>
      <trkpt lat="47.47011" lon="6.7457">
        <ele>340.7</ele>
        <time>2016-09-11T08:09:55Z</time>
      </trkpt>
      <trkpt lat="47.47029" lon="6.74565">
        <ele>341.05</ele>
        <time>2016-09-11T08:09:59Z</time>
      </trkpt>
      <trkpt lat="47.47038" lon="6.7459">
        <ele>340.36</ele>
        <time>2016-09-11T08:10:07Z</time>
      </trkpt>
      <trkpt lat="47.47028" lon="6.74614">
        <ele>338.3</ele>
        <time>2016-09-11T08:10:40Z</time>
      </trkpt>
      <trkpt lat="47.4702" lon="6.74638">
        <ele>337.54</ele>
        <time>2016-09-11T08:10:47Z</time>
      </trkpt>
      <trkpt lat="47.47011" lon="6.74663">
        <ele>336</ele>
        <time>2016-09-11T08:10:54Z</time>
      </trkpt>
      <trkpt lat="47.47003" lon="6.74693">
        <ele>327.49</ele>
        <time>2016-09-11T08:10:59Z</time>
      </trkpt>
      <trkpt lat="47.46998" lon="6.74722">
        <ele>320.51</ele>
        <time>2016-09-11T08:11:02Z</time>
      </trkpt>
      <trkpt lat="47.46995" lon="6.74755">
        <ele>317.44</ele>
        <time>2016-09-11T08:11:05Z</time>
      </trkpt>
      <trkpt lat="47.46994" lon="6.74786">
        <ele>314.78</ele>
        <time>2016-09-11T08:11:08Z</time>
      </trkpt>
      <trkpt lat="47.46994" lon="6.74816">
        <ele>314.58</ele>
        <time>2016-09-11T08:11:11Z</time>
      </trkpt>
      <trkpt lat="47.46994" lon="6.74847">
        <ele>314.43</ele>
        <time>2016-09-11T08:11:14Z</time>
      </trkpt>
      <trkpt lat="47.46994" lon="6.74874">
        <ele>317.18</ele>
        <time>2016-09-11T08:11:17Z</time>
      </trkpt>
      <trkpt lat="47.46995" lon="6.74908">
        <ele>324.08</ele>
        <time>2016-09-11T08:11:21Z</time>
      </trkpt>
      <trkpt lat="47.46996" lon="6.74938">
        <ele>326.72</ele>
        <time>2016-09-11T08:11:25Z</time>
      </trkpt>
      <trkpt lat="47.46994" lon="6.74969">
        <ele>326.1</ele>
        <time>2016-09-11T08:11:29Z</time>
      </trkpt>
      <trkpt lat="47.46995" lon="6.74998">
        <ele>325.61</ele>
        <time>2016-09-11T08:11:33Z</time>
      </trkpt>
      <trkpt lat="47.46996" lon="6.75028">
        <ele>326.46</ele>
        <time>2016-09-11T08:11:37Z</time>
      </trkpt>
      <trkpt lat="47.47" lon="6.75057">
        <ele>326.08</ele>
        <time>2016-09-11T08:11:41Z</time>
      </trkpt>
      <trkpt lat="47.47007" lon="6.75084">
        <ele>326.47</ele>
        <time>2016-09-11T08:11:45Z</time>
      </trkpt>
      <trkpt lat="47.47014" lon="6.75112">
        <ele>330.23</ele>
        <time>2016-09-11T08:11:49Z</time>
      </trkpt>
      <trkpt lat="47.4702" lon="6.75138">
        <ele>331.05</ele>
        <time>2016-09-11T08:11:53Z</time>
      </trkpt>
      <trkpt lat="47.47026" lon="6.75164">
        <ele>331.19</ele>
        <time>2016-09-11T08:11:57Z</time>
      </trkpt>
      <trkpt lat="47.47033" lon="6.75192">
        <ele>332.35</ele>
        <time>2016-09-11T08:12:01Z</time>
      </trkpt>
      <trkpt lat="47.47041" lon="6.75221">
        <ele>333.18</ele>
        <time>2016-09-11T08:12:05Z</time>
      </trkpt>
      <trkpt lat="47.47049" lon="6.75253">
        <ele>331.47</ele>
        <time>2016-09-11T08:12:09Z</time>
      </trkpt>
      <trkpt lat="47.47054" lon="6.75281">
        <ele>331.21</ele>
        <time>2016-09-11T08:12:12Z</time>
      </trkpt>
      <trkpt lat="47.47057" lon="6.75311">
        <ele>332</ele>
        <time>2016-09-11T08:12:15Z</time>
      </trkpt>
      <trkpt lat="47.47059" lon="6.75338">
        <ele>331.75</ele>
        <time>2016-09-11T08:12:18Z</time>
      </trkpt>
      <trkpt lat="47.47059" lon="6.75365">
        <ele>332.98</ele>
        <time>2016-09-11T08:12:21Z</time>
      </trkpt>
      <trkpt lat="47.47058" lon="6.75393">
        <ele>332.63</ele>
        <time>2016-09-11T08:12:24Z</time>
      </trkpt>
      <trkpt lat="47.47062" lon="6.75425">
        <ele>333.11</ele>
        <time>2016-09-11T08:12:29Z</time>
      </trkpt>
      <trkpt lat="47.47064" lon="6.75455">
        <ele>334.09</ele>
        <time>2016-09-11T08:12:33Z</time>
      </trkpt>
      <trkpt lat="47.47065" lon="6.75489">
        <ele>333.04</ele>
        <time>2016-09-11T08:12:37Z</time>
      </trkpt>
      <trkpt lat="47.47065" lon="6.75519">
        <ele>332.2</ele>
        <time>2016-09-11T08:12:41Z</time>
      </trkpt>
      <trkpt lat="47.47066" lon="6.75549">
        <ele>331.71</ele>
        <time>2016-09-11T08:12:45Z</time>
      </trkpt>
      <trkpt lat="47.47067" lon="6.75579">
        <ele>333.73</ele>
        <time>2016-09-11T08:12:49Z</time>
      </trkpt>
      <trkpt lat="47.47069" lon="6.75609">
        <ele>336.71</ele>
        <time>2016-09-11T08:12:53Z</time>
      </trkpt>
      <trkpt lat="47.4707" lon="6.75639">
        <ele>337.18</ele>
        <time>2016-09-11T08:12:57Z</time>
      </trkpt>
      <trkpt lat="47.47071" lon="6.75669">
        <ele>337.81</ele>
        <time>2016-09-11T08:13:01Z</time>
      </trkpt>
      <trkpt lat="47.47074" lon="6.75701">
        <ele>337.58</ele>
        <time>2016-09-11T08:13:05Z</time>
      </trkpt>
      <trkpt lat="47.47078" lon="6.75732">
        <ele>339.79</ele>
        <time>2016-09-11T08:13:09Z</time>
      </trkpt>
      <trkpt lat="47.47083" lon="6.7576">
        <ele>340.59</ele>
        <time>2016-09-11T08:13:13Z</time>
      </trkpt>
      <trkpt lat="47.47088" lon="6.75792">
        <ele>341.78</ele>
        <time>2016-09-11T08:13:17Z</time>
      </trkpt>
      <trkpt lat="47.47091" lon="6.75818">
        <ele>345.38</ele>
        <time>2016-09-11T08:13:21Z</time>
      </trkpt>
      <trkpt lat="47.47094" lon="6.75848">
        <ele>348.7</ele>
        <time>2016-09-11T08:13:25Z</time>
      </trkpt>
      <trkpt lat="47.47096" lon="6.75877">
        <ele>348.37</ele>
        <time>2016-09-11T08:13:29Z</time>
      </trkpt>
      <trkpt lat="47.47096" lon="6.75908">
        <ele>344</ele>
        <time>2016-09-11T08:13:33Z</time>
      </trkpt>
      <trkpt lat="47.47095" lon="6.75942">
        <ele>343.07</ele>
        <time>2016-09-11T08:13:37Z</time>
      </trkpt>
      <trkpt lat="47.47093" lon="6.75975">
        <ele>341.28</ele>
        <time>2016-09-11T08:13:41Z</time>
      </trkpt>
      <trkpt lat="47.47087" lon="6.76005">
        <ele>340.06</ele>
        <time>2016-09-11T08:13:45Z</time>
      </trkpt>
      <trkpt lat="47.47086" lon="6.76036">
        <ele>337.68</ele>
        <time>2016-09-11T08:13:49Z</time>
      </trkpt>
      <trkpt lat="47.47086" lon="6.76064">
        <ele>336.04</ele>
        <time>2016-09-11T08:13:52Z</time>
      </trkpt>
      <trkpt lat="47.47085" lon="6.76092">
        <ele>336.02</ele>
        <time>2016-09-11T08:13:55Z</time>
      </trkpt>
      <trkpt lat="47.47084" lon="6.76119">
        <ele>336.75</ele>
        <time>2016-09-11T08:13:58Z</time>
      </trkpt>
      <trkpt lat="47.47097" lon="6.76145">
        <ele>338.17</ele>
        <time>2016-09-11T08:14:01Z</time>
      </trkpt>
      <trkpt lat="47.47118" lon="6.76168">
        <ele>339.83</ele>
        <time>2016-09-11T08:14:04Z</time>
      </trkpt>
      <trkpt lat="47.47123" lon="6.76199">
        <ele>339.11</ele>
        <time>2016-09-11T08:14:06Z</time>
      </trkpt>
      <trkpt lat="47.47128" lon="6.76235">
        <ele>337.22</ele>
        <time>2016-09-11T08:14:08Z</time>
      </trkpt>
      <trkpt lat="47.47132" lon="6.76275">
        <ele>334.58</ele>
        <time>2016-09-11T08:14:10Z</time>
      </trkpt>
      <trkpt lat="47.47136" lon="6.76313">
        <ele>330.59</ele>
        <time>2016-09-11T08:14:12Z</time>
      </trkpt>
      <trkpt lat="47.47145" lon="6.76343">
        <ele>326.66</ele>
        <time>2016-09-11T08:14:14Z</time>
      </trkpt>
      <trkpt lat="47.47156" lon="6.7637">
        <ele>321.99</ele>
        <time>2016-09-11T08:14:17Z</time>
      </trkpt>
      <trkpt lat="47.47175" lon="6.76383">
        <ele>317.3</ele>
        <time>2016-09-11T08:14:22Z</time>
      </trkpt>
      <trkpt lat="47.47193" lon="6.76387">
        <ele>313.32</ele>
        <time>2016-09-11T08:14:26Z</time>
      </trkpt>
      <trkpt lat="47.47215" lon="6.76394">
        <ele>310.87</ele>
        <time>2016-09-11T08:14:30Z</time>
      </trkpt>
      <trkpt lat="47.47239" lon="6.76398">
        <ele>309.66</ele>
        <time>2016-09-11T08:14:34Z</time>
      </trkpt>
      <trkpt lat="47.4726" lon="6.76397">
        <ele>312.34</ele>
        <time>2016-09-11T08:14:38Z</time>
      </trkpt>
      <trkpt lat="47.47281" lon="6.76392">
        <ele>313.68</ele>
        <time>2016-09-11T08:14:42Z</time>
      </trkpt>
      <trkpt lat="47.47303" lon="6.76387">
        <ele>313.05</ele>
        <time>2016-09-11T08:14:46Z</time>
      </trkpt>
      <trkpt lat="47.47325" lon="6.76393">
        <ele>312.61</ele>
        <time>2016-09-11T08:14:50Z</time>
      </trkpt>
      <trkpt lat="47.47346" lon="6.76403">
        <ele>313.01</ele>
        <time>2016-09-11T08:14:54Z</time>
      </trkpt>
      <trkpt lat="47.47367" lon="6.76416">
        <ele>314.02</ele>
        <time>2016-09-11T08:14:58Z</time>
      </trkpt>
      <trkpt lat="47.47386" lon="6.76428">
        <ele>315.2</ele>
        <time>2016-09-11T08:15:02Z</time>
      </trkpt>
      <trkpt lat="47.47405" lon="6.76445">
        <ele>314.93</ele>
        <time>2016-09-11T08:15:06Z</time>
      </trkpt>
      <trkpt lat="47.47422" lon="6.76461">
        <ele>313.29</ele>
        <time>2016-09-11T08:15:10Z</time>
      </trkpt>
      <trkpt lat="47.47442" lon="6.76463">
        <ele>312.98</ele>
        <time>2016-09-11T08:15:17Z</time>
      </trkpt>
      <trkpt lat="47.47457" lon="6.76445">
        <ele>310.23</ele>
        <time>2016-09-11T08:15:23Z</time>
      </trkpt>
      <trkpt lat="47.47475" lon="6.76453">
        <ele>308.66</ele>
        <time>2016-09-11T08:15:28Z</time>
      </trkpt>
      <trkpt lat="47.47493" lon="6.76448">
        <ele>304.79</ele>
        <time>2016-09-11T08:15:32Z</time>
      </trkpt>
      <trkpt lat="47.47511" lon="6.7644">
        <ele>300.35</ele>
        <time>2016-09-11T08:15:36Z</time>
      </trkpt>
      <trkpt lat="47.47529" lon="6.7642">
        <ele>297.48</ele>
        <time>2016-09-11T08:15:40Z</time>
      </trkpt>
      <trkpt lat="47.47544" lon="6.76395">
        <ele>299.74</ele>
        <time>2016-09-11T08:15:44Z</time>
      </trkpt>
      <trkpt lat="47.47551" lon="6.76368">
        <ele>299.88</ele>
        <time>2016-09-11T08:15:48Z</time>
      </trkpt>
      <trkpt lat="47.47564" lon="6.76343">
        <ele>299.92</ele>
        <time>2016-09-11T08:15:52Z</time>
      </trkpt>
      <trkpt lat="47.47575" lon="6.76317">
        <ele>299.56</ele>
        <time>2016-09-11T08:15:56Z</time>
      </trkpt>
      <trkpt lat="47.47587" lon="6.76292">
        <ele>299.84</ele>
        <time>2016-09-11T08:16:00Z</time>
      </trkpt>
      <trkpt lat="47.47601" lon="6.76268">
        <ele>302.46</ele>
        <time>2016-09-11T08:16:04Z</time>
      </trkpt>
      <trkpt lat="47.47614" lon="6.76238">
        <ele>306.59</ele>
        <time>2016-09-11T08:16:08Z</time>
      </trkpt>
      <trkpt lat="47.47624" lon="6.76215">
        <ele>305.78</ele>
        <time>2016-09-11T08:16:11Z</time>
      </trkpt>
      <trkpt lat="47.47635" lon="6.76192">
        <ele>304.31</ele>
        <time>2016-09-11T08:16:14Z</time>
      </trkpt>
      <trkpt lat="47.47645" lon="6.76164">
        <ele>303.65</ele>
        <time>2016-09-11T08:16:18Z</time>
      </trkpt>
      <trkpt lat="47.47654" lon="6.76139">
        <ele>304.64</ele>
        <time>2016-09-11T08:16:20Z</time>
      </trkpt>
      <trkpt lat="47.47665" lon="6.76114">
        <ele>306.57</ele>
        <time>2016-09-11T08:16:23Z</time>
      </trkpt>
      <trkpt lat="47.47677" lon="6.76088">
        <ele>307.31</ele>
        <time>2016-09-11T08:16:27Z</time>
      </trkpt>
      <trkpt lat="47.47697" lon="6.76106">
        <ele>310.57</ele>
        <time>2016-09-11T08:16:32Z</time>
      </trkpt>
      <trkpt lat="47.47707" lon="6.76129">
        <ele>312.59</ele>
        <time>2016-09-11T08:16:35Z</time>
      </trkpt>
      <trkpt lat="47.47722" lon="6.76153">
        <ele>314.52</ele>
        <time>2016-09-11T08:16:39Z</time>
      </trkpt>
      <trkpt lat="47.47737" lon="6.76176">
        <ele>314.94</ele>
        <time>2016-09-11T08:16:43Z</time>
      </trkpt>
      <trkpt lat="47.47754" lon="6.76199">
        <ele>315.32</ele>
        <time>2016-09-11T08:16:47Z</time>
      </trkpt>
      <trkpt lat="47.47769" lon="6.76225">
        <ele>315.31</ele>
        <time>2016-09-11T08:16:51Z</time>
      </trkpt>
      <trkpt lat="47.47785" lon="6.76251">
        <ele>314.56</ele>
        <time>2016-09-11T08:16:55Z</time>
      </trkpt>
      <trkpt lat="47.47802" lon="6.76262">
        <ele>315.32</ele>
        <time>2016-09-11T08:16:58Z</time>
      </trkpt>
      <trkpt lat="47.47819" lon="6.76272">
        <ele>315.86</ele>
        <time>2016-09-11T08:17:01Z</time>
      </trkpt>
      <trkpt lat="47.47839" lon="6.76289">
        <ele>318.87</ele>
        <time>2016-09-11T08:17:05Z</time>
      </trkpt>
      <trkpt lat="47.47854" lon="6.76314">
        <ele>318.77</ele>
        <time>2016-09-11T08:17:09Z</time>
      </trkpt>
      <trkpt lat="47.47866" lon="6.76335">
        <ele>317.11</ele>
        <time>2016-09-11T08:17:12Z</time>
      </trkpt>
      <trkpt lat="47.4788" lon="6.76362">
        <ele>318.15</ele>
        <time>2016-09-11T08:17:16Z</time>
      </trkpt>
      <trkpt lat="47.47891" lon="6.76384">
        <ele>318.73</ele>
        <time>2016-09-11T08:17:19Z</time>
      </trkpt>
      <trkpt lat="47.47904" lon="6.76412">
        <ele>318.46</ele>
        <time>2016-09-11T08:17:23Z</time>
      </trkpt>
      <trkpt lat="47.47915" lon="6.76441">
        <ele>314.69</ele>
        <time>2016-09-11T08:17:27Z</time>
      </trkpt>
      <trkpt lat="47.47922" lon="6.76467">
        <ele>311.77</ele>
        <time>2016-09-11T08:17:30Z</time>
      </trkpt>
      <trkpt lat="47.47928" lon="6.765">
        <ele>311.66</ele>
        <time>2016-09-11T08:17:34Z</time>
      </trkpt>
      <trkpt lat="47.47936" lon="6.76532">
        <ele>312.98</ele>
        <time>2016-09-11T08:17:38Z</time>
      </trkpt>
      <trkpt lat="47.47944" lon="6.76564">
        <ele>312.09</ele>
        <time>2016-09-11T08:17:42Z</time>
      </trkpt>
      <trkpt lat="47.47952" lon="6.76589">
        <ele>310.95</ele>
        <time>2016-09-11T08:17:46Z</time>
      </trkpt>
      <trkpt lat="47.47966" lon="6.76614">
        <ele>309.89</ele>
        <time>2016-09-11T08:17:51Z</time>
      </trkpt>
      <trkpt lat="47.47977" lon="6.76636">
        <ele>307.19</ele>
        <time>2016-09-11T08:17:55Z</time>
      </trkpt>
      <trkpt lat="47.4798" lon="6.76667">
        <ele>305.21</ele>
        <time>2016-09-11T08:17:59Z</time>
      </trkpt>
      <trkpt lat="47.47983" lon="6.76698">
        <ele>308.38</ele>
        <time>2016-09-11T08:18:03Z</time>
      </trkpt>
      <trkpt lat="47.47989" lon="6.76729">
        <ele>310.25</ele>
        <time>2016-09-11T08:18:07Z</time>
      </trkpt>
      <trkpt lat="47.48001" lon="6.76758">
        <ele>310.32</ele>
        <time>2016-09-11T08:18:11Z</time>
      </trkpt>
      <trkpt lat="47.48012" lon="6.76787">
        <ele>311.38</ele>
        <time>2016-09-11T08:18:15Z</time>
      </trkpt>
      <trkpt lat="47.48025" lon="6.76811">
        <ele>311.72</ele>
        <time>2016-09-11T08:18:19Z</time>
      </trkpt>
      <trkpt lat="47.4804" lon="6.76833">
        <ele>311.61</ele>
        <time>2016-09-11T08:18:23Z</time>
      </trkpt>
      <trkpt lat="47.48056" lon="6.76854">
        <ele>313.04</ele>
        <time>2016-09-11T08:18:27Z</time>
      </trkpt>
      <trkpt lat="47.48072" lon="6.76873">
        <ele>314.55</ele>
        <time>2016-09-11T08:18:31Z</time>
      </trkpt>
      <trkpt lat="47.4809" lon="6.76892">
        <ele>314.91</ele>
        <time>2016-09-11T08:18:35Z</time>
      </trkpt>
      <trkpt lat="47.48109" lon="6.76907">
        <ele>314.34</ele>
        <time>2016-09-11T08:18:39Z</time>
      </trkpt>
      <trkpt lat="47.48127" lon="6.76923">
        <ele>313.68</ele>
        <time>2016-09-11T08:18:43Z</time>
      </trkpt>
      <trkpt lat="47.48147" lon="6.76936">
        <ele>313.86</ele>
        <time>2016-09-11T08:18:47Z</time>
      </trkpt>
      <trkpt lat="47.48167" lon="6.76946">
        <ele>314.68</ele>
        <time>2016-09-11T08:18:51Z</time>
      </trkpt>
      <trkpt lat="47.48189" lon="6.76957">
        <ele>315.67</ele>
        <time>2016-09-11T08:18:55Z</time>
      </trkpt>
      <trkpt lat="47.4821" lon="6.76968">
        <ele>317.36</ele>
        <time>2016-09-11T08:18:59Z</time>
      </trkpt>
      <trkpt lat="47.48227" lon="6.76979">
        <ele>319.5</ele>
        <time>2016-09-11T08:19:03Z</time>
      </trkpt>
      <trkpt lat="47.48246" lon="6.7699">
        <ele>319.46</ele>
        <time>2016-09-11T08:19:08Z</time>
      </trkpt>
      <trkpt lat="47.48266" lon="6.76999">
        <ele>318.96</ele>
        <time>2016-09-11T08:19:14Z</time>
      </trkpt>
      <trkpt lat="47.48275" lon="6.77027">
        <ele>317.81</ele>
        <time>2016-09-11T08:19:29Z</time>
      </trkpt>
      <trkpt lat="47.48269" lon="6.77056">
        <ele>317.23</ele>
        <time>2016-09-11T08:19:35Z</time>
      </trkpt>
      <trkpt lat="47.48261" lon="6.77087">
        <ele>315.51</ele>
        <time>2016-09-11T08:19:41Z</time>
      </trkpt>
      <trkpt lat="47.48258" lon="6.77113">
        <ele>315.34</ele>
        <time>2016-09-11T08:19:47Z</time>
      </trkpt>
      <trkpt lat="47.48276" lon="6.77106">
        <ele>315.33</ele>
        <time>2016-09-11T08:19:55Z</time>
      </trkpt>
      <trkpt lat="47.48293" lon="6.77098">
        <ele>315.06</ele>
        <time>2016-09-11T08:20:05Z</time>
      </trkpt>
      <trkpt lat="47.48313" lon="6.77108">
        <ele>314.68</ele>
        <time>2016-09-11T08:20:14Z</time>
      </trkpt>
      <trkpt lat="47.4833" lon="6.7712">
        <ele>315.09</ele>
        <time>2016-09-11T08:20:24Z</time>
      </trkpt>
      <trkpt lat="47.48333" lon="6.7716">
        <ele>317.71</ele>
        <time>2016-09-11T08:20:35Z</time>
      </trkpt>
      <trkpt lat="47.48335" lon="6.77188">
        <ele>321.11</ele>
        <time>2016-09-11T08:20:44Z</time>
      </trkpt>
      <trkpt lat="47.48341" lon="6.77218">
        <ele>324.44</ele>
        <time>2016-09-11T08:20:54Z</time>
      </trkpt>
      <trkpt lat="47.48357" lon="6.77238">
        <ele>327.05</ele>
        <time>2016-09-11T08:21:04Z</time>
      </trkpt>
      <trkpt lat="47.48376" lon="6.77251">
        <ele>327.78</ele>
        <time>2016-09-11T08:21:12Z</time>
      </trkpt>
      <trkpt lat="47.48389" lon="6.7727">
        <ele>330.5</ele>
        <time>2016-09-11T08:21:21Z</time>
      </trkpt>
      <trkpt lat="47.48407" lon="6.77285">
        <ele>332.18</ele>
        <time>2016-09-11T08:21:28Z</time>
      </trkpt>
      <trkpt lat="47.48426" lon="6.77294">
        <ele>333.07</ele>
        <time>2016-09-11T08:21:36Z</time>
      </trkpt>
      <trkpt lat="47.48441" lon="6.77311">
        <ele>332.96</ele>
        <time>2016-09-11T08:21:43Z</time>
      </trkpt>
      <trkpt lat="47.48455" lon="6.77329">
        <ele>330.98</ele>
        <time>2016-09-11T08:21:52Z</time>
      </trkpt>
      <trkpt lat="47.48471" lon="6.77347">
        <ele>329.75</ele>
        <time>2016-09-11T08:22:01Z</time>
      </trkpt>
      <trkpt lat="47.48486" lon="6.77365">
        <ele>328.99</ele>
        <time>2016-09-11T08:22:10Z</time>
      </trkpt>
      <trkpt lat="47.48501" lon="6.77382">
        <ele>327.44</ele>
        <time>2016-09-11T08:22:15Z</time>
      </trkpt>
      <trkpt lat="47.48516" lon="6.77399">
        <ele>326.23</ele>
        <time>2016-09-11T08:22:21Z</time>
      </trkpt>
      <trkpt lat="47.48532" lon="6.77414">
        <ele>326.27</ele>
        <time>2016-09-11T08:22:26Z</time>
      </trkpt>
      <trkpt lat="47.48547" lon="6.77432">
        <ele>326.08</ele>
        <time>2016-09-11T08:22:31Z</time>
      </trkpt>
      <trkpt lat="47.48565" lon="6.77442">
        <ele>327.26</ele>
        <time>2016-09-11T08:22:36Z</time>
      </trkpt>
      <trkpt lat="47.48576" lon="6.77466">
        <ele>326.89</ele>
        <time>2016-09-11T08:22:43Z</time>
      </trkpt>
      <trkpt lat="47.48591" lon="6.77484">
        <ele>327.19</ele>
        <time>2016-09-11T08:22:47Z</time>
      </trkpt>
      <trkpt lat="47.48609" lon="6.77503">
        <ele>329</ele>
        <time>2016-09-11T08:22:51Z</time>
      </trkpt>
      <trkpt lat="47.48629" lon="6.77514">
        <ele>332.25</ele>
        <time>2016-09-11T08:22:56Z</time>
      </trkpt>
      <trkpt lat="47.48643" lon="6.77534">
        <ele>332.64</ele>
        <time>2016-09-11T08:23:00Z</time>
      </trkpt>
      <trkpt lat="47.4866" lon="6.77559">
        <ele>336.26</ele>
        <time>2016-09-11T08:23:06Z</time>
      </trkpt>
      <trkpt lat="47.48677" lon="6.77578">
        <ele>339</ele>
        <time>2016-09-11T08:23:10Z</time>
      </trkpt>
      <trkpt lat="47.48692" lon="6.77598">
        <ele>336.6</ele>
        <time>2016-09-11T08:23:15Z</time>
      </trkpt>
      <trkpt lat="47.48705" lon="6.7762">
        <ele>331.13</ele>
        <time>2016-09-11T08:23:19Z</time>
      </trkpt>
      <trkpt lat="47.48718" lon="6.77643">
        <ele>329.24</ele>
        <time>2016-09-11T08:23:23Z</time>
      </trkpt>
      <trkpt lat="47.48728" lon="6.77665">
        <ele>329.85</ele>
        <time>2016-09-11T08:23:29Z</time>
      </trkpt>
      <trkpt lat="47.48742" lon="6.77681">
        <ele>330.44</ele>
        <time>2016-09-11T08:23:39Z</time>
      </trkpt>
      <trkpt lat="47.48754" lon="6.77703">
        <ele>331.71</ele>
        <time>2016-09-11T08:23:57Z</time>
      </trkpt>
      <trkpt lat="47.48767" lon="6.77722">
        <ele>332.17</ele>
        <time>2016-09-11T08:24:21Z</time>
      </trkpt>
      <trkpt lat="47.48779" lon="6.77744">
        <ele>331.6</ele>
        <time>2016-09-11T08:24:28Z</time>
      </trkpt>
      <trkpt lat="47.48792" lon="6.77763">
        <ele>330.54</ele>
        <time>2016-09-11T08:24:38Z</time>
      </trkpt>
      <trkpt lat="47.48804" lon="6.77784">
        <ele>329.96</ele>
        <time>2016-09-11T08:24:43Z</time>
      </trkpt>
      <trkpt lat="47.48817" lon="6.77802">
        <ele>328.96</ele>
        <time>2016-09-11T08:24:49Z</time>
      </trkpt>
      <trkpt lat="47.48826" lon="6.77829">
        <ele>329</ele>
        <time>2016-09-11T08:24:57Z</time>
      </trkpt>
      <trkpt lat="47.48837" lon="6.77853">
        <ele>328.96</ele>
        <time>2016-09-11T08:25:03Z</time>
      </trkpt>
      <trkpt lat="47.48849" lon="6.77874">
        <ele>328.9</ele>
        <time>2016-09-11T08:25:10Z</time>
      </trkpt>
      <trkpt lat="47.4886" lon="6.779">
        <ele>328.79</ele>
        <time>2016-09-11T08:25:16Z</time>
      </trkpt>
      <trkpt lat="47.48872" lon="6.77925">
        <ele>328.46</ele>
        <time>2016-09-11T08:25:23Z</time>
      </trkpt>
      <trkpt lat="47.48885" lon="6.77945">
        <ele>328.47</ele>
        <time>2016-09-11T08:25:29Z</time>
      </trkpt>
      <trkpt lat="47.48897" lon="6.77969">
        <ele>329.36</ele>
        <time>2016-09-11T08:25:34Z</time>
      </trkpt>
      <trkpt lat="47.48906" lon="6.77998">
        <ele>332.16</ele>
        <time>2016-09-11T08:25:38Z</time>
      </trkpt>
      <trkpt lat="47.4891" lon="6.78024">
        <ele>332.86</ele>
        <time>2016-09-11T08:25:43Z</time>
      </trkpt>
      <trkpt lat="47.48919" lon="6.78056">
        <ele>333.94</ele>
        <time>2016-09-11T08:25:48Z</time>
      </trkpt>
      <trkpt lat="47.48933" lon="6.78078">
        <ele>334.49</ele>
        <time>2016-09-11T08:25:55Z</time>
      </trkpt>
      <trkpt lat="47.48938" lon="6.78104">
        <ele>334.49</ele>
        <time>2016-09-11T08:26:01Z</time>
      </trkpt>
      <trkpt lat="47.48945" lon="6.7813">
        <ele>334.56</ele>
        <time>2016-09-11T08:26:06Z</time>
      </trkpt>
      <trkpt lat="47.48958" lon="6.78153">
        <ele>334.73</ele>
        <time>2016-09-11T08:26:11Z</time>
      </trkpt>
      <trkpt lat="47.48972" lon="6.7817">
        <ele>335.19</ele>
        <time>2016-09-11T08:26:16Z</time>
      </trkpt>
      <trkpt lat="47.48985" lon="6.78193">
        <ele>335.58</ele>
        <time>2016-09-11T08:26:20Z</time>
      </trkpt>
      <trkpt lat="47.49001" lon="6.78221">
        <ele>335.98</ele>
        <time>2016-09-11T08:26:25Z</time>
      </trkpt>
      <trkpt lat="47.49014" lon="6.78244">
        <ele>337.1</ele>
        <time>2016-09-11T08:26:28Z</time>
      </trkpt>
      <trkpt lat="47.49027" lon="6.78265">
        <ele>336.91</ele>
        <time>2016-09-11T08:26:32Z</time>
      </trkpt>
      <trkpt lat="47.49044" lon="6.78285">
        <ele>337.4</ele>
        <time>2016-09-11T08:26:35Z</time>
      </trkpt>
      <trkpt lat="47.4906" lon="6.78304">
        <ele>337.71</ele>
        <time>2016-09-11T08:26:40Z</time>
      </trkpt>
      <trkpt lat="47.49071" lon="6.78331">
        <ele>337.42</ele>
        <time>2016-09-11T08:26:45Z</time>
      </trkpt>
      <trkpt lat="47.49078" lon="6.78362">
        <ele>340.18</ele>
        <time>2016-09-11T08:26:49Z</time>
      </trkpt>
      <trkpt lat="47.4909" lon="6.7839">
        <ele>338.72</ele>
        <time>2016-09-11T08:26:53Z</time>
      </trkpt>
      <trkpt lat="47.49102" lon="6.78418">
        <ele>341.77</ele>
        <time>2016-09-11T08:26:57Z</time>
      </trkpt>
      <trkpt lat="47.49116" lon="6.78448">
        <ele>341.28</ele>
        <time>2016-09-11T08:27:00Z</time>
      </trkpt>
      <trkpt lat="47.4913" lon="6.7847">
        <ele>337.86</ele>
        <time>2016-09-11T08:27:05Z</time>
      </trkpt>
      <trkpt lat="47.49146" lon="6.78486">
        <ele>335.13</ele>
        <time>2016-09-11T08:27:12Z</time>
      </trkpt>
      <trkpt lat="47.49168" lon="6.78504">
        <ele>333.15</ele>
        <time>2016-09-11T08:27:15Z</time>
      </trkpt>
      <trkpt lat="47.49181" lon="6.78525">
        <ele>333.31</ele>
        <time>2016-09-11T08:27:19Z</time>
      </trkpt>
      <trkpt lat="47.49184" lon="6.78556">
        <ele>335.05</ele>
        <time>2016-09-11T08:27:25Z</time>
      </trkpt>
      <trkpt lat="47.49196" lon="6.78585">
        <ele>336.14</ele>
        <time>2016-09-11T08:27:29Z</time>
      </trkpt>
      <trkpt lat="47.49206" lon="6.78608">
        <ele>334.95</ele>
        <time>2016-09-11T08:27:33Z</time>
      </trkpt>
      <trkpt lat="47.49218" lon="6.78629">
        <ele>332.29</ele>
        <time>2016-09-11T08:27:38Z</time>
      </trkpt>
      <trkpt lat="47.49233" lon="6.78646">
        <ele>331.65</ele>
        <time>2016-09-11T08:27:44Z</time>
      </trkpt>
      <trkpt lat="47.49242" lon="6.78669">
        <ele>330.53</ele>
        <time>2016-09-11T08:27:49Z</time>
      </trkpt>
      <trkpt lat="47.49254" lon="6.78695">
        <ele>329.84</ele>
        <time>2016-09-11T08:27:54Z</time>
      </trkpt>
      <trkpt lat="47.49264" lon="6.78719">
        <ele>326.15</ele>
        <time>2016-09-11T08:27:57Z</time>
      </trkpt>
      <trkpt lat="47.49282" lon="6.78738">
        <ele>320.85</ele>
        <time>2016-09-11T08:28:00Z</time>
      </trkpt>
      <trkpt lat="47.49299" lon="6.78754">
        <ele>316.1</ele>
        <time>2016-09-11T08:28:04Z</time>
      </trkpt>
      <trkpt lat="47.49314" lon="6.7877">
        <ele>316.53</ele>
        <time>2016-09-11T08:28:09Z</time>
      </trkpt>
      <trkpt lat="47.49316" lon="6.78796">
        <ele>320.1</ele>
        <time>2016-09-11T08:28:14Z</time>
      </trkpt>
      <trkpt lat="47.4932" lon="6.78828">
        <ele>319.96</ele>
        <time>2016-09-11T08:28:19Z</time>
      </trkpt>
      <trkpt lat="47.49323" lon="6.78857">
        <ele>318.55</ele>
        <time>2016-09-11T08:28:24Z</time>
      </trkpt>
      <trkpt lat="47.4933" lon="6.78885">
        <ele>319.97</ele>
        <time>2016-09-11T08:28:28Z</time>
      </trkpt>
      <trkpt lat="47.49338" lon="6.78916">
        <ele>319.58</ele>
        <time>2016-09-11T08:28:32Z</time>
      </trkpt>
      <trkpt lat="47.49353" lon="6.78942">
        <ele>321.37</ele>
        <time>2016-09-11T08:28:36Z</time>
      </trkpt>
      <trkpt lat="47.4937" lon="6.78963">
        <ele>322.65</ele>
        <time>2016-09-11T08:28:39Z</time>
      </trkpt>
      <trkpt lat="47.49387" lon="6.78981">
        <ele>325.46</ele>
        <time>2016-09-11T08:28:43Z</time>
      </trkpt>
      <trkpt lat="47.49402" lon="6.79002">
        <ele>328.46</ele>
        <time>2016-09-11T08:28:47Z</time>
      </trkpt>
      <trkpt lat="47.49422" lon="6.79023">
        <ele>324.98</ele>
        <time>2016-09-11T08:28:51Z</time>
      </trkpt>
      <trkpt lat="47.49433" lon="6.79054">
        <ele>318.79</ele>
        <time>2016-09-11T08:28:56Z</time>
      </trkpt>
      <trkpt lat="47.49442" lon="6.79077">
        <ele>317.24</ele>
        <time>2016-09-11T08:29:00Z</time>
      </trkpt>
      <trkpt lat="47.49446" lon="6.79109">
        <ele>319.45</ele>
        <time>2016-09-11T08:29:04Z</time>
      </trkpt>
      <trkpt lat="47.49448" lon="6.7914">
        <ele>319.83</ele>
        <time>2016-09-11T08:29:07Z</time>
      </trkpt>
      <trkpt lat="47.49445" lon="6.79171">
        <ele>319.88</ele>
        <time>2016-09-11T08:29:10Z</time>
      </trkpt>
      <trkpt lat="47.49428" lon="6.7919">
        <ele>319.63</ele>
        <time>2016-09-11T08:29:13Z</time>
      </trkpt>
      <trkpt lat="47.49406" lon="6.79206">
        <ele>317.57</ele>
        <time>2016-09-11T08:29:16Z</time>
      </trkpt>
      <trkpt lat="47.49386" lon="6.79217">
        <ele>315.36</ele>
        <time>2016-09-11T08:29:19Z</time>
      </trkpt>
      <trkpt lat="47.4937" lon="6.79231">
        <ele>313.8</ele>
        <time>2016-09-11T08:29:22Z</time>
      </trkpt>
      <trkpt lat="47.49354" lon="6.79252">
        <ele>312.16</ele>
        <time>2016-09-11T08:29:26Z</time>
      </trkpt>
      <trkpt lat="47.4934" lon="6.79274">
        <ele>310.89</ele>
        <time>2016-09-11T08:29:30Z</time>
      </trkpt>
      <trkpt lat="47.49325" lon="6.79295">
        <ele>310.48</ele>
        <time>2016-09-11T08:29:34Z</time>
      </trkpt>
      <trkpt lat="47.49304" lon="6.79294">
        <ele>311.5</ele>
        <time>2016-09-11T08:29:38Z</time>
      </trkpt>
      <trkpt lat="47.49295" lon="6.79265">
        <ele>313.72</ele>
        <time>2016-09-11T08:29:41Z</time>
      </trkpt>
      <trkpt lat="47.49286" lon="6.79232">
        <ele>313.09</ele>
        <time>2016-09-11T08:29:44Z</time>
      </trkpt>
      <trkpt lat="47.49282" lon="6.79196">
        <ele>311.83</ele>
        <time>2016-09-11T08:29:47Z</time>
      </trkpt>
      <trkpt lat="47.49282" lon="6.79162">
        <ele>309.79</ele>
        <time>2016-09-11T08:29:50Z</time>
      </trkpt>
      <trkpt lat="47.49281" lon="6.79132">
        <ele>310.86</ele>
        <time>2016-09-11T08:29:53Z</time>
      </trkpt>
      <trkpt lat="47.4928" lon="6.79104">
        <ele>313.22</ele>
        <time>2016-09-11T08:29:56Z</time>
      </trkpt>
      <trkpt lat="47.49281" lon="6.79077">
        <ele>313.25</ele>
        <time>2016-09-11T08:29:59Z</time>
      </trkpt>
      <trkpt lat="47.49279" lon="6.79046">
        <ele>310.77</ele>
        <time>2016-09-11T08:30:03Z</time>
      </trkpt>
      <trkpt lat="47.49279" lon="6.79016">
        <ele>308.76</ele>
        <time>2016-09-11T08:30:07Z</time>
      </trkpt>
      <trkpt lat="47.4928" lon="6.78984">
        <ele>306.98</ele>
        <time>2016-09-11T08:30:11Z</time>
      </trkpt>
      <trkpt lat="47.49283" lon="6.78956">
        <ele>301.96</ele>
        <time>2016-09-11T08:30:15Z</time>
      </trkpt>
      <trkpt lat="47.49279" lon="6.78923">
        <ele>296.49</ele>
        <time>2016-09-11T08:30:20Z</time>
      </trkpt>
      <trkpt lat="47.49273" lon="6.78896">
        <ele>294.94</ele>
        <time>2016-09-11T08:30:24Z</time>
      </trkpt>
      <trkpt lat="47.49265" lon="6.78871">
        <ele>296.25</ele>
        <time>2016-09-11T08:30:28Z</time>
      </trkpt>
      <trkpt lat="47.49254" lon="6.78842">
        <ele>300.18</ele>
        <time>2016-09-11T08:30:33Z</time>
      </trkpt>
      <trkpt lat="47.49245" lon="6.78814">
        <ele>303.18</ele>
        <time>2016-09-11T08:30:37Z</time>
      </trkpt>
      <trkpt lat="47.49235" lon="6.78791">
        <ele>306.25</ele>
        <time>2016-09-11T08:30:41Z</time>
      </trkpt>
      <trkpt lat="47.49224" lon="6.78761">
        <ele>307.83</ele>
        <time>2016-09-11T08:30:45Z</time>
      </trkpt>
      <trkpt lat="47.49215" lon="6.78734">
        <ele>310.32</ele>
        <time>2016-09-11T08:30:49Z</time>
      </trkpt>
      <trkpt lat="47.492" lon="6.78712">
        <ele>311.56</ele>
        <time>2016-09-11T08:30:53Z</time>
      </trkpt>
      <trkpt lat="47.49186" lon="6.78693">
        <ele>313.73</ele>
        <time>2016-09-11T08:30:56Z</time>
      </trkpt>
      <trkpt lat="47.49168" lon="6.78687">
        <ele>314.38</ele>
        <time>2016-09-11T08:30:59Z</time>
      </trkpt>
      <trkpt lat="47.4915" lon="6.78676">
        <ele>315.11</ele>
        <time>2016-09-11T08:31:02Z</time>
      </trkpt>
      <trkpt lat="47.49136" lon="6.78658">
        <ele>316.28</ele>
        <time>2016-09-11T08:31:05Z</time>
      </trkpt>
      <trkpt lat="47.49124" lon="6.78639">
        <ele>315.41</ele>
        <time>2016-09-11T08:31:08Z</time>
      </trkpt>
      <trkpt lat="47.49107" lon="6.78613">
        <ele>311.16</ele>
        <time>2016-09-11T08:31:12Z</time>
      </trkpt>
      <trkpt lat="47.49093" lon="6.78583">
        <ele>311.12</ele>
        <time>2016-09-11T08:31:16Z</time>
      </trkpt>
      <trkpt lat="47.49082" lon="6.7856">
        <ele>313.47</ele>
        <time>2016-09-11T08:31:19Z</time>
      </trkpt>
      <trkpt lat="47.49068" lon="6.7854">
        <ele>314.26</ele>
        <time>2016-09-11T08:31:22Z</time>
      </trkpt>
      <trkpt lat="47.49054" lon="6.78524">
        <ele>313.78</ele>
        <time>2016-09-11T08:31:25Z</time>
      </trkpt>
      <trkpt lat="47.4904" lon="6.78507">
        <ele>313.65</ele>
        <time>2016-09-11T08:31:28Z</time>
      </trkpt>
      <trkpt lat="47.49026" lon="6.78489">
        <ele>315.13</ele>
        <time>2016-09-11T08:31:31Z</time>
      </trkpt>
      <trkpt lat="47.4901" lon="6.78466">
        <ele>316.56</ele>
        <time>2016-09-11T08:31:35Z</time>
      </trkpt>
      <trkpt lat="47.48991" lon="6.78444">
        <ele>318.14</ele>
        <time>2016-09-11T08:31:39Z</time>
      </trkpt>
      <trkpt lat="47.48973" lon="6.7842">
        <ele>318.88</ele>
        <time>2016-09-11T08:31:43Z</time>
      </trkpt>
      <trkpt lat="47.48958" lon="6.78403">
        <ele>321.32</ele>
        <time>2016-09-11T08:31:46Z</time>
      </trkpt>
      <trkpt lat="47.48944" lon="6.78384">
        <ele>320.81</ele>
        <time>2016-09-11T08:31:49Z</time>
      </trkpt>
      <trkpt lat="47.48929" lon="6.78368">
        <ele>320.56</ele>
        <time>2016-09-11T08:31:52Z</time>
      </trkpt>
      <trkpt lat="47.48908" lon="6.78351">
        <ele>316.97</ele>
        <time>2016-09-11T08:31:56Z</time>
      </trkpt>
      <trkpt lat="47.48891" lon="6.78341">
        <ele>315.21</ele>
        <time>2016-09-11T08:31:59Z</time>
      </trkpt>
      <trkpt lat="47.4887" lon="6.78328">
        <ele>315.28</ele>
        <time>2016-09-11T08:32:03Z</time>
      </trkpt>
      <trkpt lat="47.48848" lon="6.78315">
        <ele>314.36</ele>
        <time>2016-09-11T08:32:07Z</time>
      </trkpt>
      <trkpt lat="47.48832" lon="6.78304">
        <ele>313.86</ele>
        <time>2016-09-11T08:32:10Z</time>
      </trkpt>
      <trkpt lat="47.48814" lon="6.78294">
        <ele>315</ele>
        <time>2016-09-11T08:32:13Z</time>
      </trkpt>
      <trkpt lat="47.48792" lon="6.78282">
        <ele>314.52</ele>
        <time>2016-09-11T08:32:17Z</time>
      </trkpt>
      <trkpt lat="47.48774" lon="6.78273">
        <ele>315.04</ele>
        <time>2016-09-11T08:32:20Z</time>
      </trkpt>
      <trkpt lat="47.48757" lon="6.78264">
        <ele>315.31</ele>
        <time>2016-09-11T08:32:23Z</time>
      </trkpt>
      <trkpt lat="47.48739" lon="6.78254">
        <ele>314.06</ele>
        <time>2016-09-11T08:32:26Z</time>
      </trkpt>
      <trkpt lat="47.48718" lon="6.78238">
        <ele>311.04</ele>
        <time>2016-09-11T08:32:30Z</time>
      </trkpt>
      <trkpt lat="47.48699" lon="6.7822">
        <ele>307.22</ele>
        <time>2016-09-11T08:32:34Z</time>
      </trkpt>
      <trkpt lat="47.48679" lon="6.782">
        <ele>306.07</ele>
        <time>2016-09-11T08:32:38Z</time>
      </trkpt>
      <trkpt lat="47.48665" lon="6.78183">
        <ele>307.93</ele>
        <time>2016-09-11T08:32:41Z</time>
      </trkpt>
      <trkpt lat="47.4865" lon="6.78165">
        <ele>311.41</ele>
        <time>2016-09-11T08:32:44Z</time>
      </trkpt>
      <trkpt lat="47.48632" lon="6.78142">
        <ele>313.74</ele>
        <time>2016-09-11T08:32:48Z</time>
      </trkpt>
      <trkpt lat="47.48618" lon="6.78123">
        <ele>315</ele>
        <time>2016-09-11T08:32:51Z</time>
      </trkpt>
      <trkpt lat="47.48605" lon="6.78103">
        <ele>315.12</ele>
        <time>2016-09-11T08:32:54Z</time>
      </trkpt>
      <trkpt lat="47.48593" lon="6.78081">
        <ele>314.89</ele>
        <time>2016-09-11T08:32:57Z</time>
      </trkpt>
      <trkpt lat="47.48578" lon="6.78054">
        <ele>314.71</ele>
        <time>2016-09-11T08:33:01Z</time>
      </trkpt>
      <trkpt lat="47.48563" lon="6.78029">
        <ele>315.46</ele>
        <time>2016-09-11T08:33:05Z</time>
      </trkpt>
      <trkpt lat="47.48546" lon="6.78003">
        <ele>314.52</ele>
        <time>2016-09-11T08:33:09Z</time>
      </trkpt>
      <trkpt lat="47.48534" lon="6.77981">
        <ele>313.85</ele>
        <time>2016-09-11T08:33:12Z</time>
      </trkpt>
      <trkpt lat="47.48513" lon="6.77979">
        <ele>312.42</ele>
        <time>2016-09-11T08:33:16Z</time>
      </trkpt>
      <trkpt lat="47.48494" lon="6.77994">
        <ele>310.92</ele>
        <time>2016-09-11T08:33:20Z</time>
      </trkpt>
      <trkpt lat="47.48481" lon="6.78018">
        <ele>310.48</ele>
        <time>2016-09-11T08:33:24Z</time>
      </trkpt>
      <trkpt lat="47.48475" lon="6.78049">
        <ele>309.23</ele>
        <time>2016-09-11T08:33:28Z</time>
      </trkpt>
      <trkpt lat="47.48466" lon="6.7808">
        <ele>309.31</ele>
        <time>2016-09-11T08:33:32Z</time>
      </trkpt>
      <trkpt lat="47.48458" lon="6.78112">
        <ele>306.84</ele>
        <time>2016-09-11T08:33:36Z</time>
      </trkpt>
      <trkpt lat="47.48451" lon="6.78137">
        <ele>304.45</ele>
        <time>2016-09-11T08:33:39Z</time>
      </trkpt>
      <trkpt lat="47.48448" lon="6.78164">
        <ele>303.96</ele>
        <time>2016-09-11T08:33:42Z</time>
      </trkpt>
      <trkpt lat="47.48449" lon="6.78196">
        <ele>303.12</ele>
        <time>2016-09-11T08:33:45Z</time>
      </trkpt>
      <trkpt lat="47.4845" lon="6.78224">
        <ele>302.58</ele>
        <time>2016-09-11T08:33:48Z</time>
      </trkpt>
      <trkpt lat="47.48458" lon="6.78253">
        <ele>302.11</ele>
        <time>2016-09-11T08:33:52Z</time>
      </trkpt>
      <trkpt lat="47.48462" lon="6.78279">
        <ele>297.17</ele>
        <time>2016-09-11T08:33:55Z</time>
      </trkpt>
      <trkpt lat="47.48466" lon="6.78314">
        <ele>295.24</ele>
        <time>2016-09-11T08:33:59Z</time>
      </trkpt>
      <trkpt lat="47.48471" lon="6.78348">
        <ele>294.37</ele>
        <time>2016-09-11T08:34:03Z</time>
      </trkpt>
      <trkpt lat="47.48471" lon="6.78379">
        <ele>299.42</ele>
        <time>2016-09-11T08:34:55Z</time>
      </trkpt>
      <trkpt lat="47.48475" lon="6.78407">
        <ele>303.39</ele>
        <time>2016-09-11T08:35:00Z</time>
      </trkpt>
      <trkpt lat="47.48479" lon="6.78438">
        <ele>307.97</ele>
        <time>2016-09-11T08:35:05Z</time>
      </trkpt>
      <trkpt lat="47.48486" lon="6.78464">
        <ele>309.58</ele>
        <time>2016-09-11T08:35:09Z</time>
      </trkpt>
      <trkpt lat="47.48491" lon="6.78493">
        <ele>310.23</ele>
        <time>2016-09-11T08:35:14Z</time>
      </trkpt>
      <trkpt lat="47.48494" lon="6.78521">
        <ele>311.51</ele>
        <time>2016-09-11T08:35:19Z</time>
      </trkpt>
      <trkpt lat="47.485" lon="6.78551">
        <ele>309.12</ele>
        <time>2016-09-11T08:35:24Z</time>
      </trkpt>
      <trkpt lat="47.48502" lon="6.78584">
        <ele>306.48</ele>
        <time>2016-09-11T08:35:29Z</time>
      </trkpt>
      <trkpt lat="47.48499" lon="6.78616">
        <ele>306.07</ele>
        <time>2016-09-11T08:35:34Z</time>
      </trkpt>
      <trkpt lat="47.48491" lon="6.78648">
        <ele>307.64</ele>
        <time>2016-09-11T08:35:39Z</time>
      </trkpt>
      <trkpt lat="47.48484" lon="6.78677">
        <ele>308.21</ele>
        <time>2016-09-11T08:35:43Z</time>
      </trkpt>
      <trkpt lat="47.48478" lon="6.78706">
        <ele>309.02</ele>
        <time>2016-09-11T08:35:47Z</time>
      </trkpt>
      <trkpt lat="47.48472" lon="6.78733">
        <ele>308.32</ele>
        <time>2016-09-11T08:35:51Z</time>
      </trkpt>
      <trkpt lat="47.48466" lon="6.7876">
        <ele>305.3</ele>
        <time>2016-09-11T08:35:55Z</time>
      </trkpt>
      <trkpt lat="47.48459" lon="6.78791">
        <ele>305.09</ele>
        <time>2016-09-11T08:35:59Z</time>
      </trkpt>
      <trkpt lat="47.48454" lon="6.78818">
        <ele>307.39</ele>
        <time>2016-09-11T08:36:03Z</time>
      </trkpt>
      <trkpt lat="47.48448" lon="6.78849">
        <ele>305.36</ele>
        <time>2016-09-11T08:36:07Z</time>
      </trkpt>
      <trkpt lat="47.48443" lon="6.78879">
        <ele>304.78</ele>
        <time>2016-09-11T08:36:11Z</time>
      </trkpt>
      <trkpt lat="47.48437" lon="6.78908">
        <ele>306.39</ele>
        <time>2016-09-11T08:36:15Z</time>
      </trkpt>
      <trkpt lat="47.4843" lon="6.7894">
        <ele>310.28</ele>
        <time>2016-09-11T08:36:19Z</time>
      </trkpt>
      <trkpt lat="47.48425" lon="6.78966">
        <ele>312.26</ele>
        <time>2016-09-11T08:36:22Z</time>
      </trkpt>
      <trkpt lat="47.4842" lon="6.78992">
        <ele>312.78</ele>
        <time>2016-09-11T08:36:25Z</time>
      </trkpt>
      <trkpt lat="47.48414" lon="6.79021">
        <ele>313.93</ele>
        <time>2016-09-11T08:36:29Z</time>
      </trkpt>
      <trkpt lat="47.48411" lon="6.79052">
        <ele>314.92</ele>
        <time>2016-09-11T08:36:33Z</time>
      </trkpt>
      <trkpt lat="47.48408" lon="6.79083">
        <ele>312.3</ele>
        <time>2016-09-11T08:36:37Z</time>
      </trkpt>
      <trkpt lat="47.4841" lon="6.7911">
        <ele>307.61</ele>
        <time>2016-09-11T08:36:41Z</time>
      </trkpt>
      <trkpt lat="47.48419" lon="6.79137">
        <ele>306.09</ele>
        <time>2016-09-11T08:36:45Z</time>
      </trkpt>
      <trkpt lat="47.48432" lon="6.79164">
        <ele>304.89</ele>
        <time>2016-09-11T08:36:49Z</time>
      </trkpt>
      <trkpt lat="47.48442" lon="6.7919">
        <ele>305.28</ele>
        <time>2016-09-11T08:36:53Z</time>
      </trkpt>
      <trkpt lat="47.48454" lon="6.79218">
        <ele>305.51</ele>
        <time>2016-09-11T08:36:57Z</time>
      </trkpt>
      <trkpt lat="47.48466" lon="6.7924">
        <ele>308.37</ele>
        <time>2016-09-11T08:37:00Z</time>
      </trkpt>
      <trkpt lat="47.48481" lon="6.79267">
        <ele>308.84</ele>
        <time>2016-09-11T08:37:04Z</time>
      </trkpt>
      <trkpt lat="47.48495" lon="6.79294">
        <ele>309.82</ele>
        <time>2016-09-11T08:37:08Z</time>
      </trkpt>
      <trkpt lat="47.48508" lon="6.7932">
        <ele>310.78</ele>
        <time>2016-09-11T08:37:12Z</time>
      </trkpt>
      <trkpt lat="47.48522" lon="6.79348">
        <ele>313.55</ele>
        <time>2016-09-11T08:37:16Z</time>
      </trkpt>
      <trkpt lat="47.48536" lon="6.79375">
        <ele>312.74</ele>
        <time>2016-09-11T08:37:20Z</time>
      </trkpt>
      <trkpt lat="47.48547" lon="6.79397">
        <ele>310.38</ele>
        <time>2016-09-11T08:37:23Z</time>
      </trkpt>
      <trkpt lat="47.48557" lon="6.7942">
        <ele>310.07</ele>
        <time>2016-09-11T08:37:26Z</time>
      </trkpt>
      <trkpt lat="47.48568" lon="6.79442">
        <ele>309.6</ele>
        <time>2016-09-11T08:37:29Z</time>
      </trkpt>
      <trkpt lat="47.4858" lon="6.79465">
        <ele>308.99</ele>
        <time>2016-09-11T08:37:32Z</time>
      </trkpt>
      <trkpt lat="47.48591" lon="6.79486">
        <ele>309.26</ele>
        <time>2016-09-11T08:37:35Z</time>
      </trkpt>
      <trkpt lat="47.48606" lon="6.79514">
        <ele>311.18</ele>
        <time>2016-09-11T08:37:39Z</time>
      </trkpt>
      <trkpt lat="47.4862" lon="6.79541">
        <ele>313.87</ele>
        <time>2016-09-11T08:37:43Z</time>
      </trkpt>
      <trkpt lat="47.48634" lon="6.7957">
        <ele>314.33</ele>
        <time>2016-09-11T08:37:47Z</time>
      </trkpt>
      <trkpt lat="47.48643" lon="6.79593">
        <ele>314.65</ele>
        <time>2016-09-11T08:37:50Z</time>
      </trkpt>
      <trkpt lat="47.48654" lon="6.79623">
        <ele>314.39</ele>
        <time>2016-09-11T08:37:54Z</time>
      </trkpt>
      <trkpt lat="47.48662" lon="6.79648">
        <ele>313.34</ele>
        <time>2016-09-11T08:37:57Z</time>
      </trkpt>
      <trkpt lat="47.48667" lon="6.79675">
        <ele>314.64</ele>
        <time>2016-09-11T08:38:00Z</time>
      </trkpt>
      <trkpt lat="47.48671" lon="6.79701">
        <ele>315.08</ele>
        <time>2016-09-11T08:38:03Z</time>
      </trkpt>
      <trkpt lat="47.48676" lon="6.79734">
        <ele>315.93</ele>
        <time>2016-09-11T08:38:07Z</time>
      </trkpt>
      <trkpt lat="47.4868" lon="6.79762">
        <ele>317.1</ele>
        <time>2016-09-11T08:38:10Z</time>
      </trkpt>
      <trkpt lat="47.48685" lon="6.7979">
        <ele>318.38</ele>
        <time>2016-09-11T08:38:13Z</time>
      </trkpt>
      <trkpt lat="47.4869" lon="6.79819">
        <ele>318.65</ele>
        <time>2016-09-11T08:38:16Z</time>
      </trkpt>
      <trkpt lat="47.48692" lon="6.79847">
        <ele>315.68</ele>
        <time>2016-09-11T08:38:19Z</time>
      </trkpt>
      <trkpt lat="47.48696" lon="6.79874">
        <ele>313.32</ele>
        <time>2016-09-11T08:38:22Z</time>
      </trkpt>
      <trkpt lat="47.48697" lon="6.79902">
        <ele>312.34</ele>
        <time>2016-09-11T08:38:25Z</time>
      </trkpt>
      <trkpt lat="47.48699" lon="6.79929">
        <ele>312.21</ele>
        <time>2016-09-11T08:38:28Z</time>
      </trkpt>
      <trkpt lat="47.487" lon="6.79958">
        <ele>313.51</ele>
        <time>2016-09-11T08:38:31Z</time>
      </trkpt>
      <trkpt lat="47.48701" lon="6.79987">
        <ele>313.92</ele>
        <time>2016-09-11T08:38:34Z</time>
      </trkpt>
      <trkpt lat="47.48702" lon="6.80015">
        <ele>313.9</ele>
        <time>2016-09-11T08:38:37Z</time>
      </trkpt>
      <trkpt lat="47.48703" lon="6.80044">
        <ele>313.53</ele>
        <time>2016-09-11T08:38:40Z</time>
      </trkpt>
      <trkpt lat="47.48704" lon="6.80075">
        <ele>311.94</ele>
        <time>2016-09-11T08:38:43Z</time>
      </trkpt>
      <trkpt lat="47.48705" lon="6.80104">
        <ele>310.18</ele>
        <time>2016-09-11T08:38:46Z</time>
      </trkpt>
      <trkpt lat="47.48704" lon="6.80131">
        <ele>309.14</ele>
        <time>2016-09-11T08:38:49Z</time>
      </trkpt>
      <trkpt lat="47.48702" lon="6.80166">
        <ele>307.99</ele>
        <time>2016-09-11T08:38:53Z</time>
      </trkpt>
      <trkpt lat="47.48697" lon="6.80194">
        <ele>308.05</ele>
        <time>2016-09-11T08:38:56Z</time>
      </trkpt>
      <trkpt lat="47.48689" lon="6.80219">
        <ele>308.58</ele>
        <time>2016-09-11T08:38:59Z</time>
      </trkpt>
      <trkpt lat="47.48675" lon="6.80241">
        <ele>308.19</ele>
        <time>2016-09-11T08:39:02Z</time>
      </trkpt>
      <trkpt lat="47.48663" lon="6.80265">
        <ele>309.09</ele>
        <time>2016-09-11T08:39:05Z</time>
      </trkpt>
      <trkpt lat="47.48649" lon="6.80289">
        <ele>307.33</ele>
        <time>2016-09-11T08:39:08Z</time>
      </trkpt>
      <trkpt lat="47.48634" lon="6.80312">
        <ele>305.45</ele>
        <time>2016-09-11T08:39:11Z</time>
      </trkpt>
      <trkpt lat="47.4862" lon="6.80336">
        <ele>304.26</ele>
        <time>2016-09-11T08:39:14Z</time>
      </trkpt>
      <trkpt lat="47.48607" lon="6.80358">
        <ele>304.17</ele>
        <time>2016-09-11T08:39:17Z</time>
      </trkpt>
      <trkpt lat="47.48594" lon="6.80379">
        <ele>305</ele>
        <time>2016-09-11T08:39:20Z</time>
      </trkpt>
      <trkpt lat="47.4858" lon="6.804">
        <ele>306.92</ele>
        <time>2016-09-11T08:39:23Z</time>
      </trkpt>
      <trkpt lat="47.48568" lon="6.80426">
        <ele>307.96</ele>
        <time>2016-09-11T08:39:26Z</time>
      </trkpt>
      <trkpt lat="47.4856" lon="6.80453">
        <ele>309.65</ele>
        <time>2016-09-11T08:39:29Z</time>
      </trkpt>
      <trkpt lat="47.48553" lon="6.80483">
        <ele>310.79</ele>
        <time>2016-09-11T08:39:32Z</time>
      </trkpt>
      <trkpt lat="47.48547" lon="6.80515">
        <ele>311.38</ele>
        <time>2016-09-11T08:39:35Z</time>
      </trkpt>
      <trkpt lat="47.48539" lon="6.80541">
        <ele>310.99</ele>
        <time>2016-09-11T08:39:38Z</time>
      </trkpt>
      <trkpt lat="47.48532" lon="6.80569">
        <ele>308.77</ele>
        <time>2016-09-11T08:39:41Z</time>
      </trkpt>
      <trkpt lat="47.48524" lon="6.80602">
        <ele>304.84</ele>
        <time>2016-09-11T08:39:45Z</time>
      </trkpt>
      <trkpt lat="47.48514" lon="6.80629">
        <ele>302.93</ele>
        <time>2016-09-11T08:39:48Z</time>
      </trkpt>
      <trkpt lat="47.48503" lon="6.80655">
        <ele>305.05</ele>
        <time>2016-09-11T08:39:51Z</time>
      </trkpt>
      <trkpt lat="47.48484" lon="6.80675">
        <ele>307.59</ele>
        <time>2016-09-11T08:39:54Z</time>
      </trkpt>
      <trkpt lat="47.48452" lon="6.80695">
        <ele>307.15</ele>
        <time>2016-09-11T08:39:58Z</time>
      </trkpt>
      <trkpt lat="47.48451" lon="6.80732">
        <ele>305.96</ele>
        <time>2016-09-11T08:40:01Z</time>
      </trkpt>
      <trkpt lat="47.48461" lon="6.80768">
        <ele>307.44</ele>
        <time>2016-09-11T08:40:04Z</time>
      </trkpt>
      <trkpt lat="47.48466" lon="6.80804">
        <ele>308.1</ele>
        <time>2016-09-11T08:40:07Z</time>
      </trkpt>
      <trkpt lat="47.48466" lon="6.80838">
        <ele>307.53</ele>
        <time>2016-09-11T08:40:10Z</time>
      </trkpt>
      <trkpt lat="47.4846" lon="6.80867">
        <ele>306.92</ele>
        <time>2016-09-11T08:40:13Z</time>
      </trkpt>
      <trkpt lat="47.48453" lon="6.80899">
        <ele>307.69</ele>
        <time>2016-09-11T08:40:16Z</time>
      </trkpt>
      <trkpt lat="47.48447" lon="6.8093">
        <ele>308.61</ele>
        <time>2016-09-11T08:40:19Z</time>
      </trkpt>
      <trkpt lat="47.48442" lon="6.8096">
        <ele>310.23</ele>
        <time>2016-09-11T08:40:22Z</time>
      </trkpt>
      <trkpt lat="47.48435" lon="6.80989">
        <ele>310.87</ele>
        <time>2016-09-11T08:40:25Z</time>
      </trkpt>
      <trkpt lat="47.4843" lon="6.8102">
        <ele>311.05</ele>
        <time>2016-09-11T08:40:28Z</time>
      </trkpt>
      <trkpt lat="47.48425" lon="6.81051">
        <ele>310.75</ele>
        <time>2016-09-11T08:40:31Z</time>
      </trkpt>
      <trkpt lat="47.48419" lon="6.8108">
        <ele>311.66</ele>
        <time>2016-09-11T08:40:34Z</time>
      </trkpt>
      <trkpt lat="47.48413" lon="6.81111">
        <ele>313.45</ele>
        <time>2016-09-11T08:40:37Z</time>
      </trkpt>
      <trkpt lat="47.48408" lon="6.81141">
        <ele>312.86</ele>
        <time>2016-09-11T08:40:40Z</time>
      </trkpt>
      <trkpt lat="47.48402" lon="6.81171">
        <ele>312.47</ele>
        <time>2016-09-11T08:40:43Z</time>
      </trkpt>
      <trkpt lat="47.48397" lon="6.81201">
        <ele>311.82</ele>
        <time>2016-09-11T08:40:46Z</time>
      </trkpt>
      <trkpt lat="47.48391" lon="6.8123">
        <ele>311.38</ele>
        <time>2016-09-11T08:40:49Z</time>
      </trkpt>
      <trkpt lat="47.48386" lon="6.81261">
        <ele>312.91</ele>
        <time>2016-09-11T08:40:52Z</time>
      </trkpt>
      <trkpt lat="47.48382" lon="6.81292">
        <ele>314.77</ele>
        <time>2016-09-11T08:40:55Z</time>
      </trkpt>
      <trkpt lat="47.48378" lon="6.81321">
        <ele>313.94</ele>
        <time>2016-09-11T08:40:58Z</time>
      </trkpt>
      <trkpt lat="47.4838" lon="6.81351">
        <ele>311.43</ele>
        <time>2016-09-11T08:41:01Z</time>
      </trkpt>
      <trkpt lat="47.48383" lon="6.81379">
        <ele>308.47</ele>
        <time>2016-09-11T08:41:04Z</time>
      </trkpt>
      <trkpt lat="47.48386" lon="6.81408">
        <ele>306.5</ele>
        <time>2016-09-11T08:41:07Z</time>
      </trkpt>
      <trkpt lat="47.4839" lon="6.81437">
        <ele>307.98</ele>
        <time>2016-09-11T08:41:10Z</time>
      </trkpt>
      <trkpt lat="47.48393" lon="6.81467">
        <ele>308.69</ele>
        <time>2016-09-11T08:41:13Z</time>
      </trkpt>
      <trkpt lat="47.48397" lon="6.81497">
        <ele>309.73</ele>
        <time>2016-09-11T08:41:16Z</time>
      </trkpt>
      <trkpt lat="47.48402" lon="6.81527">
        <ele>310.2</ele>
        <time>2016-09-11T08:41:19Z</time>
      </trkpt>
      <trkpt lat="47.48406" lon="6.81557">
        <ele>308.65</ele>
        <time>2016-09-11T08:41:22Z</time>
      </trkpt>
      <trkpt lat="47.4841" lon="6.81585">
        <ele>309.41</ele>
        <time>2016-09-11T08:41:25Z</time>
      </trkpt>
      <trkpt lat="47.48421" lon="6.81609">
        <ele>310.15</ele>
        <time>2016-09-11T08:41:31Z</time>
      </trkpt>
      <trkpt lat="47.48402" lon="6.8162">
        <ele>310.83</ele>
        <time>2016-09-11T08:41:37Z</time>
      </trkpt>
      <trkpt lat="47.48383" lon="6.81623">
        <ele>312.7</ele>
        <time>2016-09-11T08:41:42Z</time>
      </trkpt>
      <trkpt lat="47.48363" lon="6.81627">
        <ele>312.11</ele>
        <time>2016-09-11T08:41:47Z</time>
      </trkpt>
      <trkpt lat="47.48343" lon="6.81628">
        <ele>312.33</ele>
        <time>2016-09-11T08:41:55Z</time>
      </trkpt>
      <trkpt lat="47.48328" lon="6.81611">
        <ele>312.91</ele>
        <time>2016-09-11T08:42:01Z</time>
      </trkpt>
      <trkpt lat="47.48315" lon="6.81592">
        <ele>313.55</ele>
        <time>2016-09-11T08:42:06Z</time>
      </trkpt>
      <trkpt lat="47.48307" lon="6.81564">
        <ele>315.87</ele>
        <time>2016-09-11T08:42:11Z</time>
      </trkpt>
      <trkpt lat="47.483" lon="6.81539">
        <ele>316.74</ele>
        <time>2016-09-11T08:42:16Z</time>
      </trkpt>
      <trkpt lat="47.48292" lon="6.81515">
        <ele>317.39</ele>
        <time>2016-09-11T08:42:21Z</time>
      </trkpt>
      <trkpt lat="47.48283" lon="6.81485">
        <ele>319.14</ele>
        <time>2016-09-11T08:42:26Z</time>
      </trkpt>
      <trkpt lat="47.48277" lon="6.81459">
        <ele>319.37</ele>
        <time>2016-09-11T08:42:31Z</time>
      </trkpt>
      <trkpt lat="47.48275" lon="6.81428">
        <ele>319.17</ele>
        <time>2016-09-11T08:42:37Z</time>
      </trkpt>
      <trkpt lat="47.48274" lon="6.81399">
        <ele>319.13</ele>
        <time>2016-09-11T08:42:44Z</time>
      </trkpt>
      <trkpt lat="47.48257" lon="6.8141">
        <ele>319.53</ele>
        <time>2016-09-11T08:42:54Z</time>
      </trkpt>
      <trkpt lat="47.48241" lon="6.81426">
        <ele>320.06</ele>
        <time>2016-09-11T08:43:01Z</time>
      </trkpt>
      <trkpt lat="47.48222" lon="6.81436">
        <ele>321</ele>
        <time>2016-09-11T08:43:08Z</time>
      </trkpt>
      <trkpt lat="47.48203" lon="6.81441">
        <ele>322.06</ele>
        <time>2016-09-11T08:43:16Z</time>
      </trkpt>
      <trkpt lat="47.48185" lon="6.81445">
        <ele>323.13</ele>
        <time>2016-09-11T08:43:23Z</time>
      </trkpt>
      <trkpt lat="47.48165" lon="6.81446">
        <ele>324.05</ele>
        <time>2016-09-11T08:43:32Z</time>
      </trkpt>
      <trkpt lat="47.48146" lon="6.81448">
        <ele>325.23</ele>
        <time>2016-09-11T08:43:40Z</time>
      </trkpt>
      <trkpt lat="47.48128" lon="6.81444">
        <ele>326.3</ele>
        <time>2016-09-11T08:43:47Z</time>
      </trkpt>
      <trkpt lat="47.48109" lon="6.81439">
        <ele>327.98</ele>
        <time>2016-09-11T08:43:57Z</time>
      </trkpt>
      <trkpt lat="47.4809" lon="6.81437">
        <ele>330.42</ele>
        <time>2016-09-11T08:44:05Z</time>
      </trkpt>
      <trkpt lat="47.48072" lon="6.81435">
        <ele>331.96</ele>
        <time>2016-09-11T08:44:12Z</time>
      </trkpt>
      <trkpt lat="47.48053" lon="6.81443">
        <ele>333.19</ele>
        <time>2016-09-11T08:44:21Z</time>
      </trkpt>
      <trkpt lat="47.48043" lon="6.81467">
        <ele>333.36</ele>
        <time>2016-09-11T08:44:31Z</time>
      </trkpt>
      <trkpt lat="47.48026" lon="6.81477">
        <ele>334.11</ele>
        <time>2016-09-11T08:44:43Z</time>
      </trkpt>
      <trkpt lat="47.48007" lon="6.81472">
        <ele>335.15</ele>
        <time>2016-09-11T08:44:53Z</time>
      </trkpt>
      <trkpt lat="47.47988" lon="6.81474">
        <ele>336</ele>
        <time>2016-09-11T08:45:02Z</time>
      </trkpt>
      <trkpt lat="47.47961" lon="6.81473">
        <ele>336.81</ele>
        <time>2016-09-11T08:45:13Z</time>
      </trkpt>
      <trkpt lat="47.47945" lon="6.81493">
        <ele>338.13</ele>
        <time>2016-09-11T08:45:19Z</time>
      </trkpt>
      <trkpt lat="47.47936" lon="6.81524">
        <ele>344.37</ele>
        <time>2016-09-11T08:45:23Z</time>
      </trkpt>
      <trkpt lat="47.47931" lon="6.81554">
        <ele>346.42</ele>
        <time>2016-09-11T08:45:26Z</time>
      </trkpt>
      <trkpt lat="47.47925" lon="6.81583">
        <ele>347.01</ele>
        <time>2016-09-11T08:45:29Z</time>
      </trkpt>
      <trkpt lat="47.47919" lon="6.8161">
        <ele>347.75</ele>
        <time>2016-09-11T08:45:33Z</time>
      </trkpt>
      <trkpt lat="47.47908" lon="6.81636">
        <ele>347.26</ele>
        <time>2016-09-11T08:45:38Z</time>
      </trkpt>
      <trkpt lat="47.47892" lon="6.81659">
        <ele>345.41</ele>
        <time>2016-09-11T08:45:43Z</time>
      </trkpt>
      <trkpt lat="47.47888" lon="6.81688">
        <ele>343.49</ele>
        <time>2016-09-11T08:45:47Z</time>
      </trkpt>
      <trkpt lat="47.47878" lon="6.81712">
        <ele>343.17</ele>
        <time>2016-09-11T08:45:52Z</time>
      </trkpt>
      <trkpt lat="47.47859" lon="6.8171">
        <ele>344.63</ele>
        <time>2016-09-11T08:45:59Z</time>
      </trkpt>
      <trkpt lat="47.47854" lon="6.81736">
        <ele>345.19</ele>
        <time>2016-09-11T08:46:06Z</time>
      </trkpt>
      <trkpt lat="47.4785" lon="6.81766">
        <ele>347.25</ele>
        <time>2016-09-11T08:46:10Z</time>
      </trkpt>
      <trkpt lat="47.47851" lon="6.81794">
        <ele>347.55</ele>
        <time>2016-09-11T08:46:14Z</time>
      </trkpt>
      <trkpt lat="47.47835" lon="6.8183">
        <ele>347.07</ele>
        <time>2016-09-11T08:46:22Z</time>
      </trkpt>
      <trkpt lat="47.47826" lon="6.81859">
        <ele>345.44</ele>
        <time>2016-09-11T08:46:27Z</time>
      </trkpt>
      <trkpt lat="47.47813" lon="6.8188">
        <ele>345.1</ele>
        <time>2016-09-11T08:46:31Z</time>
      </trkpt>
      <trkpt lat="47.47802" lon="6.81901">
        <ele>344.28</ele>
        <time>2016-09-11T08:46:42Z</time>
      </trkpt>
      <trkpt lat="47.47789" lon="6.81924">
        <ele>344.76</ele>
        <time>2016-09-11T08:46:51Z</time>
      </trkpt>
      <trkpt lat="47.47774" lon="6.81942">
        <ele>345.76</ele>
        <time>2016-09-11T08:47:01Z</time>
      </trkpt>
      <trkpt lat="47.47751" lon="6.81963">
        <ele>347.12</ele>
        <time>2016-09-11T08:47:16Z</time>
      </trkpt>
      <trkpt lat="47.47734" lon="6.81986">
        <ele>348.98</ele>
        <time>2016-09-11T08:47:28Z</time>
      </trkpt>
      <trkpt lat="47.47716" lon="6.82004">
        <ele>349.53</ele>
        <time>2016-09-11T08:47:34Z</time>
      </trkpt>
      <trkpt lat="47.47694" lon="6.82026">
        <ele>350.58</ele>
        <time>2016-09-11T08:47:47Z</time>
      </trkpt>
      <trkpt lat="47.47677" lon="6.82041">
        <ele>351.25</ele>
        <time>2016-09-11T08:47:54Z</time>
      </trkpt>
      <trkpt lat="47.47659" lon="6.8206">
        <ele>352.79</ele>
        <time>2016-09-11T08:48:06Z</time>
      </trkpt>
      <trkpt lat="47.47638" lon="6.82074">
        <ele>355.83</ele>
        <time>2016-09-11T08:48:16Z</time>
      </trkpt>
      <trkpt lat="47.47619" lon="6.82074">
        <ele>358.2</ele>
        <time>2016-09-11T08:48:25Z</time>
      </trkpt>
      <trkpt lat="47.47598" lon="6.82064">
        <ele>360.54</ele>
        <time>2016-09-11T08:48:31Z</time>
      </trkpt>
      <trkpt lat="47.4758" lon="6.82049">
        <ele>362.5</ele>
        <time>2016-09-11T08:48:38Z</time>
      </trkpt>
      <trkpt lat="47.47564" lon="6.82027">
        <ele>363.89</ele>
        <time>2016-09-11T08:48:46Z</time>
      </trkpt>
      <trkpt lat="47.47545" lon="6.82022">
        <ele>365.11</ele>
        <time>2016-09-11T08:48:53Z</time>
      </trkpt>
      <trkpt lat="47.47526" lon="6.82027">
        <ele>365.75</ele>
        <time>2016-09-11T08:48:59Z</time>
      </trkpt>
      <trkpt lat="47.47498" lon="6.82029">
        <ele>366.66</ele>
        <time>2016-09-11T08:49:09Z</time>
      </trkpt>
      <trkpt lat="47.4748" lon="6.8204">
        <ele>366.61</ele>
        <time>2016-09-11T08:49:16Z</time>
      </trkpt>
      <trkpt lat="47.47459" lon="6.82046">
        <ele>366.78</ele>
        <time>2016-09-11T08:49:23Z</time>
      </trkpt>
      <trkpt lat="47.4744" lon="6.8204">
        <ele>366.76</ele>
        <time>2016-09-11T08:49:27Z</time>
      </trkpt>
      <trkpt lat="47.47422" lon="6.82032">
        <ele>366.84</ele>
        <time>2016-09-11T08:49:31Z</time>
      </trkpt>
      <trkpt lat="47.47406" lon="6.82019">
        <ele>369.83</ele>
        <time>2016-09-11T08:49:34Z</time>
      </trkpt>
      <trkpt lat="47.47384" lon="6.82003">
        <ele>368.4</ele>
        <time>2016-09-11T08:49:38Z</time>
      </trkpt>
      <trkpt lat="47.47361" lon="6.82005">
        <ele>366.7</ele>
        <time>2016-09-11T08:49:45Z</time>
      </trkpt>
      <trkpt lat="47.47342" lon="6.82014">
        <ele>366.3</ele>
        <time>2016-09-11T08:49:52Z</time>
      </trkpt>
      <trkpt lat="47.47324" lon="6.82024">
        <ele>366.01</ele>
        <time>2016-09-11T08:50:30Z</time>
      </trkpt>
      <trkpt lat="47.47316" lon="6.82048">
        <ele>368.71</ele>
        <time>2016-09-11T08:56:21Z</time>
      </trkpt>
      <trkpt lat="47.47305" lon="6.8207">
        <ele>368.84</ele>
        <time>2016-09-11T08:56:31Z</time>
      </trkpt>
      <trkpt lat="47.47296" lon="6.82095">
        <ele>369.96</ele>
        <time>2016-09-11T08:56:40Z</time>
      </trkpt>
      <trkpt lat="47.47286" lon="6.82119">
        <ele>370.66</ele>
        <time>2016-09-11T08:56:49Z</time>
      </trkpt>
      <trkpt lat="47.47278" lon="6.82147">
        <ele>371.42</ele>
        <time>2016-09-11T08:56:57Z</time>
      </trkpt>
      <trkpt lat="47.47271" lon="6.82172">
        <ele>372.61</ele>
        <time>2016-09-11T08:57:06Z</time>
      </trkpt>
      <trkpt lat="47.47263" lon="6.822">
        <ele>374.09</ele>
        <time>2016-09-11T08:57:15Z</time>
      </trkpt>
      <trkpt lat="47.47253" lon="6.82224">
        <ele>375.51</ele>
        <time>2016-09-11T08:57:23Z</time>
      </trkpt>
      <trkpt lat="47.47243" lon="6.82246">
        <ele>375.89</ele>
        <time>2016-09-11T08:57:31Z</time>
      </trkpt>
      <trkpt lat="47.47224" lon="6.82238">
        <ele>376.63</ele>
        <time>2016-09-11T08:57:40Z</time>
      </trkpt>
      <trkpt lat="47.47212" lon="6.82218">
        <ele>378.07</ele>
        <time>2016-09-11T08:57:48Z</time>
      </trkpt>
      <trkpt lat="47.47194" lon="6.82205">
        <ele>380.53</ele>
        <time>2016-09-11T08:57:57Z</time>
      </trkpt>
      <trkpt lat="47.47176" lon="6.82197">
        <ele>381.42</ele>
        <time>2016-09-11T08:58:05Z</time>
      </trkpt>
      <trkpt lat="47.47158" lon="6.82191">
        <ele>382.71</ele>
        <time>2016-09-11T08:58:11Z</time>
      </trkpt>
      <trkpt lat="47.47138" lon="6.82184">
        <ele>383.44</ele>
        <time>2016-09-11T08:58:17Z</time>
      </trkpt>
      <trkpt lat="47.47119" lon="6.82173">
        <ele>384.04</ele>
        <time>2016-09-11T08:58:24Z</time>
      </trkpt>
      <trkpt lat="47.47097" lon="6.82179">
        <ele>386.99</ele>
        <time>2016-09-11T08:58:28Z</time>
      </trkpt>
      <trkpt lat="47.47077" lon="6.82188">
        <ele>388.5</ele>
        <time>2016-09-11T08:58:32Z</time>
      </trkpt>
      <trkpt lat="47.47059" lon="6.82192">
        <ele>388.71</ele>
        <time>2016-09-11T08:58:36Z</time>
      </trkpt>
      <trkpt lat="47.47038" lon="6.82196">
        <ele>389.67</ele>
        <time>2016-09-11T08:58:40Z</time>
      </trkpt>
      <trkpt lat="47.4702" lon="6.82194">
        <ele>391.4</ele>
        <time>2016-09-11T08:58:45Z</time>
      </trkpt>
      <trkpt lat="47.46997" lon="6.82188">
        <ele>395.14</ele>
        <time>2016-09-11T08:58:50Z</time>
      </trkpt>
      <trkpt lat="47.46974" lon="6.82187">
        <ele>397.56</ele>
        <time>2016-09-11T08:58:55Z</time>
      </trkpt>
      <trkpt lat="47.46952" lon="6.82181">
        <ele>398.9</ele>
        <time>2016-09-11T08:59:00Z</time>
      </trkpt>
      <trkpt lat="47.46935" lon="6.82177">
        <ele>398.69</ele>
        <time>2016-09-11T08:59:04Z</time>
      </trkpt>
      <trkpt lat="47.46916" lon="6.82174">
        <ele>397.1</ele>
        <time>2016-09-11T08:59:08Z</time>
      </trkpt>
      <trkpt lat="47.46898" lon="6.82164">
        <ele>394.19</ele>
        <time>2016-09-11T08:59:13Z</time>
      </trkpt>
      <trkpt lat="47.46884" lon="6.82141">
        <ele>394.14</ele>
        <time>2016-09-11T08:59:19Z</time>
      </trkpt>
      <trkpt lat="47.46868" lon="6.82127">
        <ele>395.74</ele>
        <time>2016-09-11T08:59:24Z</time>
      </trkpt>
      <trkpt lat="47.46849" lon="6.82113">
        <ele>395.61</ele>
        <time>2016-09-11T08:59:29Z</time>
      </trkpt>
      <trkpt lat="47.46832" lon="6.82101">
        <ele>395.47</ele>
        <time>2016-09-11T08:59:34Z</time>
      </trkpt>
      <trkpt lat="47.46817" lon="6.82086">
        <ele>395.86</ele>
        <time>2016-09-11T08:59:39Z</time>
      </trkpt>
      <trkpt lat="47.468" lon="6.82072">
        <ele>396.54</ele>
        <time>2016-09-11T08:59:45Z</time>
      </trkpt>
      <trkpt lat="47.46782" lon="6.82061">
        <ele>397.73</ele>
        <time>2016-09-11T08:59:51Z</time>
      </trkpt>
      <trkpt lat="47.46764" lon="6.82048">
        <ele>399.19</ele>
        <time>2016-09-11T08:59:56Z</time>
      </trkpt>
      <trkpt lat="47.46745" lon="6.82032">
        <ele>401.7</ele>
        <time>2016-09-11T09:00:01Z</time>
      </trkpt>
      <trkpt lat="47.46727" lon="6.82022">
        <ele>403.96</ele>
        <time>2016-09-11T09:00:06Z</time>
      </trkpt>
      <trkpt lat="47.46713" lon="6.82007">
        <ele>403.53</ele>
        <time>2016-09-11T09:00:16Z</time>
      </trkpt>
      <trkpt lat="47.46698" lon="6.81988">
        <ele>403.36</ele>
        <time>2016-09-11T09:00:24Z</time>
      </trkpt>
      <trkpt lat="47.46697" lon="6.81961">
        <ele>403.78</ele>
        <time>2016-09-11T09:00:37Z</time>
      </trkpt>
      <trkpt lat="47.46708" lon="6.81932">
        <ele>403.62</ele>
        <time>2016-09-11T09:00:44Z</time>
      </trkpt>
      <trkpt lat="47.46715" lon="6.81905">
        <ele>404.58</ele>
        <time>2016-09-11T09:00:49Z</time>
      </trkpt>
      <trkpt lat="47.46718" lon="6.81873">
        <ele>405.7</ele>
        <time>2016-09-11T09:00:56Z</time>
      </trkpt>
      <trkpt lat="47.46721" lon="6.81845">
        <ele>405.55</ele>
        <time>2016-09-11T09:01:03Z</time>
      </trkpt>
      <trkpt lat="47.4672" lon="6.81814">
        <ele>404.46</ele>
        <time>2016-09-11T09:01:09Z</time>
      </trkpt>
      <trkpt lat="47.46724" lon="6.81778">
        <ele>403</ele>
        <time>2016-09-11T09:01:16Z</time>
      </trkpt>
      <trkpt lat="47.46727" lon="6.81751">
        <ele>399.38</ele>
        <time>2016-09-11T09:01:21Z</time>
      </trkpt>
      <trkpt lat="47.46738" lon="6.81729">
        <ele>398.75</ele>
        <time>2016-09-11T09:01:27Z</time>
      </trkpt>
      <trkpt lat="47.46739" lon="6.81702">
        <ele>396.85</ele>
        <time>2016-09-11T09:01:32Z</time>
      </trkpt>
      <trkpt lat="47.46734" lon="6.81672">
        <ele>393.62</ele>
        <time>2016-09-11T09:01:36Z</time>
      </trkpt>
      <trkpt lat="47.46718" lon="6.81653">
        <ele>393.23</ele>
        <time>2016-09-11T09:01:41Z</time>
      </trkpt>
      <trkpt lat="47.46702" lon="6.81639">
        <ele>393.27</ele>
        <time>2016-09-11T09:01:46Z</time>
      </trkpt>
      <trkpt lat="47.46701" lon="6.81607">
        <ele>393.24</ele>
        <time>2016-09-11T09:01:50Z</time>
      </trkpt>
      <trkpt lat="47.4671" lon="6.81584">
        <ele>393.56</ele>
        <time>2016-09-11T09:01:55Z</time>
      </trkpt>
      <trkpt lat="47.46719" lon="6.81559">
        <ele>392.33</ele>
        <time>2016-09-11T09:02:00Z</time>
      </trkpt>
      <trkpt lat="47.46725" lon="6.8153">
        <ele>390.88</ele>
        <time>2016-09-11T09:02:05Z</time>
      </trkpt>
      <trkpt lat="47.46714" lon="6.81508">
        <ele>390.34</ele>
        <time>2016-09-11T09:02:09Z</time>
      </trkpt>
      <trkpt lat="47.46699" lon="6.81491">
        <ele>390.48</ele>
        <time>2016-09-11T09:02:13Z</time>
      </trkpt>
      <trkpt lat="47.46682" lon="6.81477">
        <ele>388.64</ele>
        <time>2016-09-11T09:02:17Z</time>
      </trkpt>
      <trkpt lat="47.46665" lon="6.81463">
        <ele>386.61</ele>
        <time>2016-09-11T09:02:20Z</time>
      </trkpt>
      <trkpt lat="47.46647" lon="6.81456">
        <ele>386.58</ele>
        <time>2016-09-11T09:02:24Z</time>
      </trkpt>
      <trkpt lat="47.46627" lon="6.81466">
        <ele>389.65</ele>
        <time>2016-09-11T09:02:30Z</time>
      </trkpt>
      <trkpt lat="47.46608" lon="6.81456">
        <ele>390.39</ele>
        <time>2016-09-11T09:02:36Z</time>
      </trkpt>
      <trkpt lat="47.4659" lon="6.81448">
        <ele>390.47</ele>
        <time>2016-09-11T09:02:42Z</time>
      </trkpt>
      <trkpt lat="47.46571" lon="6.81442">
        <ele>390.52</ele>
        <time>2016-09-11T09:02:47Z</time>
      </trkpt>
      <trkpt lat="47.46553" lon="6.81436">
        <ele>390.76</ele>
        <time>2016-09-11T09:02:53Z</time>
      </trkpt>
      <trkpt lat="47.46531" lon="6.81427">
        <ele>390.93</ele>
        <time>2016-09-11T09:03:00Z</time>
      </trkpt>
      <trkpt lat="47.46513" lon="6.81423">
        <ele>391.28</ele>
        <time>2016-09-11T09:03:05Z</time>
      </trkpt>
      <trkpt lat="47.46494" lon="6.81415">
        <ele>391.72</ele>
        <time>2016-09-11T09:03:12Z</time>
      </trkpt>
      <trkpt lat="47.46474" lon="6.81407">
        <ele>392.6</ele>
        <time>2016-09-11T09:03:18Z</time>
      </trkpt>
      <trkpt lat="47.46458" lon="6.81395">
        <ele>393.56</ele>
        <time>2016-09-11T09:03:28Z</time>
      </trkpt>
      <trkpt lat="47.46437" lon="6.81384">
        <ele>394.78</ele>
        <time>2016-09-11T09:03:39Z</time>
      </trkpt>
      <trkpt lat="47.4642" lon="6.81372">
        <ele>396.5</ele>
        <time>2016-09-11T09:03:48Z</time>
      </trkpt>
      <trkpt lat="47.46404" lon="6.81358">
        <ele>397.59</ele>
        <time>2016-09-11T09:03:55Z</time>
      </trkpt>
      <trkpt lat="47.46387" lon="6.81341">
        <ele>400.61</ele>
        <time>2016-09-11T09:04:06Z</time>
      </trkpt>
      <trkpt lat="47.46369" lon="6.81326">
        <ele>402.35</ele>
        <time>2016-09-11T09:04:15Z</time>
      </trkpt>
      <trkpt lat="47.46351" lon="6.81316">
        <ele>402.71</ele>
        <time>2016-09-11T09:04:21Z</time>
      </trkpt>
      <trkpt lat="47.46334" lon="6.81306">
        <ele>403.78</ele>
        <time>2016-09-11T09:04:27Z</time>
      </trkpt>
      <trkpt lat="47.4632" lon="6.81289">
        <ele>404.52</ele>
        <time>2016-09-11T09:04:33Z</time>
      </trkpt>
      <trkpt lat="47.46303" lon="6.81276">
        <ele>405.1</ele>
        <time>2016-09-11T09:04:39Z</time>
      </trkpt>
      <trkpt lat="47.46285" lon="6.81262">
        <ele>406.04</ele>
        <time>2016-09-11T09:04:44Z</time>
      </trkpt>
      <trkpt lat="47.46266" lon="6.81247">
        <ele>409.39</ele>
        <time>2016-09-11T09:04:50Z</time>
      </trkpt>
      <trkpt lat="47.46248" lon="6.81232">
        <ele>412.13</ele>
        <time>2016-09-11T09:04:55Z</time>
      </trkpt>
      <trkpt lat="47.46228" lon="6.81219">
        <ele>417.03</ele>
        <time>2016-09-11T09:05:00Z</time>
      </trkpt>
      <trkpt lat="47.4621" lon="6.81204">
        <ele>418.61</ele>
        <time>2016-09-11T09:05:04Z</time>
      </trkpt>
      <trkpt lat="47.46194" lon="6.8119">
        <ele>420.28</ele>
        <time>2016-09-11T09:05:07Z</time>
      </trkpt>
      <trkpt lat="47.46172" lon="6.81175">
        <ele>420.76</ele>
        <time>2016-09-11T09:05:10Z</time>
      </trkpt>
      <trkpt lat="47.4615" lon="6.81162">
        <ele>420.19</ele>
        <time>2016-09-11T09:05:12Z</time>
      </trkpt>
      <trkpt lat="47.46129" lon="6.81149">
        <ele>419.16</ele>
        <time>2016-09-11T09:05:14Z</time>
      </trkpt>
      <trkpt lat="47.4611" lon="6.81135">
        <ele>417.54</ele>
        <time>2016-09-11T09:05:16Z</time>
      </trkpt>
      <trkpt lat="47.46092" lon="6.81121">
        <ele>414.01</ele>
        <time>2016-09-11T09:05:18Z</time>
      </trkpt>
      <trkpt lat="47.46073" lon="6.81106">
        <ele>411.58</ele>
        <time>2016-09-11T09:05:20Z</time>
      </trkpt>
      <trkpt lat="47.46051" lon="6.81089">
        <ele>409.88</ele>
        <time>2016-09-11T09:05:22Z</time>
      </trkpt>
      <trkpt lat="47.46033" lon="6.81075">
        <ele>406.91</ele>
        <time>2016-09-11T09:05:24Z</time>
      </trkpt>
      <trkpt lat="47.46014" lon="6.81063">
        <ele>404.76</ele>
        <time>2016-09-11T09:05:26Z</time>
      </trkpt>
      <trkpt lat="47.45996" lon="6.81049">
        <ele>404.84</ele>
        <time>2016-09-11T09:05:28Z</time>
      </trkpt>
      <trkpt lat="47.45974" lon="6.81027">
        <ele>400.91</ele>
        <time>2016-09-11T09:05:31Z</time>
      </trkpt>
      <trkpt lat="47.45957" lon="6.81016">
        <ele>397.36</ele>
        <time>2016-09-11T09:05:34Z</time>
      </trkpt>
      <trkpt lat="47.45958" lon="6.80984">
        <ele>394.95</ele>
        <time>2016-09-11T09:06:06Z</time>
      </trkpt>
      <trkpt lat="47.45968" lon="6.80958">
        <ele>392.42</ele>
        <time>2016-09-11T09:06:09Z</time>
      </trkpt>
      <trkpt lat="47.45974" lon="6.80931">
        <ele>389.64</ele>
        <time>2016-09-11T09:06:12Z</time>
      </trkpt>
      <trkpt lat="47.45974" lon="6.80903">
        <ele>387.58</ele>
        <time>2016-09-11T09:06:17Z</time>
      </trkpt>
      <trkpt lat="47.45974" lon="6.80876">
        <ele>385.36</ele>
        <time>2016-09-11T09:06:25Z</time>
      </trkpt>
      <trkpt lat="47.45973" lon="6.80844">
        <ele>384.57</ele>
        <time>2016-09-11T09:06:34Z</time>
      </trkpt>
      <trkpt lat="47.45977" lon="6.80814">
        <ele>384.74</ele>
        <time>2016-09-11T09:06:44Z</time>
      </trkpt>
      <trkpt lat="47.45982" lon="6.80784">
        <ele>384.94</ele>
        <time>2016-09-11T09:06:52Z</time>
      </trkpt>
      <trkpt lat="47.45984" lon="6.80755">
        <ele>385.57</ele>
        <time>2016-09-11T09:06:59Z</time>
      </trkpt>
      <trkpt lat="47.45988" lon="6.80724">
        <ele>386.27</ele>
        <time>2016-09-11T09:07:09Z</time>
      </trkpt>
      <trkpt lat="47.45994" lon="6.80698">
        <ele>387.24</ele>
        <time>2016-09-11T09:07:17Z</time>
      </trkpt>
      <trkpt lat="47.45999" lon="6.80669">
        <ele>388.25</ele>
        <time>2016-09-11T09:07:25Z</time>
      </trkpt>
      <trkpt lat="47.46009" lon="6.80643">
        <ele>388.95</ele>
        <time>2016-09-11T09:07:32Z</time>
      </trkpt>
      <trkpt lat="47.46016" lon="6.80619">
        <ele>389.42</ele>
        <time>2016-09-11T09:07:38Z</time>
      </trkpt>
      <trkpt lat="47.46022" lon="6.80592">
        <ele>389.87</ele>
        <time>2016-09-11T09:07:45Z</time>
      </trkpt>
      <trkpt lat="47.46031" lon="6.80563">
        <ele>390.64</ele>
        <time>2016-09-11T09:07:51Z</time>
      </trkpt>
      <trkpt lat="47.46039" lon="6.80536">
        <ele>390.89</ele>
        <time>2016-09-11T09:07:57Z</time>
      </trkpt>
      <trkpt lat="47.46049" lon="6.80508">
        <ele>391.82</ele>
        <time>2016-09-11T09:08:04Z</time>
      </trkpt>
      <trkpt lat="47.46055" lon="6.80483">
        <ele>393.47</ele>
        <time>2016-09-11T09:08:10Z</time>
      </trkpt>
      <trkpt lat="47.46059" lon="6.80456">
        <ele>394.76</ele>
        <time>2016-09-11T09:08:16Z</time>
      </trkpt>
      <trkpt lat="47.46057" lon="6.80428">
        <ele>395.75</ele>
        <time>2016-09-11T09:08:23Z</time>
      </trkpt>
      <trkpt lat="47.46058" lon="6.80401">
        <ele>396.82</ele>
        <time>2016-09-11T09:08:30Z</time>
      </trkpt>
      <trkpt lat="47.46054" lon="6.80374">
        <ele>397.23</ele>
        <time>2016-09-11T09:08:38Z</time>
      </trkpt>
      <trkpt lat="47.46042" lon="6.80344">
        <ele>398.65</ele>
        <time>2016-09-11T09:08:49Z</time>
      </trkpt>
      <trkpt lat="47.46028" lon="6.80319">
        <ele>400.33</ele>
        <time>2016-09-11T09:08:57Z</time>
      </trkpt>
      <trkpt lat="47.46027" lon="6.8029">
        <ele>403.02</ele>
        <time>2016-09-11T09:09:08Z</time>
      </trkpt>
      <trkpt lat="47.46024" lon="6.80263">
        <ele>404.22</ele>
        <time>2016-09-11T09:09:17Z</time>
      </trkpt>
      <trkpt lat="47.46021" lon="6.80233">
        <ele>405.61</ele>
        <time>2016-09-11T09:09:26Z</time>
      </trkpt>
      <trkpt lat="47.46019" lon="6.80201">
        <ele>407.33</ele>
        <time>2016-09-11T09:09:33Z</time>
      </trkpt>
      <trkpt lat="47.46014" lon="6.80174">
        <ele>408.32</ele>
        <time>2016-09-11T09:09:38Z</time>
      </trkpt>
      <trkpt lat="47.46008" lon="6.80145">
        <ele>413.4</ele>
        <time>2016-09-11T09:09:43Z</time>
      </trkpt>
      <trkpt lat="47.46008" lon="6.80116">
        <ele>414.45</ele>
        <time>2016-09-11T09:09:47Z</time>
      </trkpt>
      <trkpt lat="47.46004" lon="6.80085">
        <ele>413.54</ele>
        <time>2016-09-11T09:09:51Z</time>
      </trkpt>
      <trkpt lat="47.46002" lon="6.80049">
        <ele>410.69</ele>
        <time>2016-09-11T09:09:55Z</time>
      </trkpt>
      <trkpt lat="47.45996" lon="6.80017">
        <ele>409.81</ele>
        <time>2016-09-11T09:09:58Z</time>
      </trkpt>
      <trkpt lat="47.45992" lon="6.79985">
        <ele>410.36</ele>
        <time>2016-09-11T09:10:01Z</time>
      </trkpt>
      <trkpt lat="47.45991" lon="6.79949">
        <ele>406.3</ele>
        <time>2016-09-11T09:10:04Z</time>
      </trkpt>
      <trkpt lat="47.4599" lon="6.79921">
        <ele>402.9</ele>
        <time>2016-09-11T09:10:06Z</time>
      </trkpt>
      <trkpt lat="47.4599" lon="6.79892">
        <ele>401.3</ele>
        <time>2016-09-11T09:10:08Z</time>
      </trkpt>
      <trkpt lat="47.45991" lon="6.79864">
        <ele>400.06</ele>
        <time>2016-09-11T09:10:10Z</time>
      </trkpt>
      <trkpt lat="47.46002" lon="6.7984">
        <ele>400.08</ele>
        <time>2016-09-11T09:10:12Z</time>
      </trkpt>
      <trkpt lat="47.46016" lon="6.79815">
        <ele>398.31</ele>
        <time>2016-09-11T09:10:14Z</time>
      </trkpt>
      <trkpt lat="47.46028" lon="6.79793">
        <ele>397.28</ele>
        <time>2016-09-11T09:10:16Z</time>
      </trkpt>
      <trkpt lat="47.46035" lon="6.79758">
        <ele>397.31</ele>
        <time>2016-09-11T09:10:19Z</time>
      </trkpt>
      <trkpt lat="47.46035" lon="6.79731">
        <ele>397.96</ele>
        <time>2016-09-11T09:10:21Z</time>
      </trkpt>
      <trkpt lat="47.46036" lon="6.79704">
        <ele>397.43</ele>
        <time>2016-09-11T09:10:23Z</time>
      </trkpt>
      <trkpt lat="47.46039" lon="6.79664">
        <ele>394.51</ele>
        <time>2016-09-11T09:10:26Z</time>
      </trkpt>
      <trkpt lat="47.46041" lon="6.79627">
        <ele>392.53</ele>
        <time>2016-09-11T09:10:29Z</time>
      </trkpt>
      <trkpt lat="47.46046" lon="6.79595">
        <ele>389.56</ele>
        <time>2016-09-11T09:10:32Z</time>
      </trkpt>
      <trkpt lat="47.4605" lon="6.79567">
        <ele>387.35</ele>
        <time>2016-09-11T09:10:35Z</time>
      </trkpt>
      <trkpt lat="47.46054" lon="6.79539">
        <ele>387.85</ele>
        <time>2016-09-11T09:10:38Z</time>
      </trkpt>
      <trkpt lat="47.46058" lon="6.7951">
        <ele>388.88</ele>
        <time>2016-09-11T09:10:41Z</time>
      </trkpt>
      <trkpt lat="47.4606" lon="6.79483">
        <ele>389.11</ele>
        <time>2016-09-11T09:10:44Z</time>
      </trkpt>
      <trkpt lat="47.46065" lon="6.79449">
        <ele>387.74</ele>
        <time>2016-09-11T09:10:48Z</time>
      </trkpt>
      <trkpt lat="47.46068" lon="6.79422">
        <ele>386.26</ele>
        <time>2016-09-11T09:10:51Z</time>
      </trkpt>
      <trkpt lat="47.46069" lon="6.79395">
        <ele>385.85</ele>
        <time>2016-09-11T09:10:54Z</time>
      </trkpt>
      <trkpt lat="47.46068" lon="6.79367">
        <ele>388.2</ele>
        <time>2016-09-11T09:10:57Z</time>
      </trkpt>
      <trkpt lat="47.46066" lon="6.79339">
        <ele>388.99</ele>
        <time>2016-09-11T09:11:00Z</time>
      </trkpt>
      <trkpt lat="47.46062" lon="6.7931">
        <ele>389.18</ele>
        <time>2016-09-11T09:11:03Z</time>
      </trkpt>
      <trkpt lat="47.46056" lon="6.79279">
        <ele>391.4</ele>
        <time>2016-09-11T09:11:06Z</time>
      </trkpt>
      <trkpt lat="47.4605" lon="6.79248">
        <ele>393.85</ele>
        <time>2016-09-11T09:11:09Z</time>
      </trkpt>
      <trkpt lat="47.46045" lon="6.79218">
        <ele>392.59</ele>
        <time>2016-09-11T09:11:12Z</time>
      </trkpt>
      <trkpt lat="47.4604" lon="6.79188">
        <ele>391.45</ele>
        <time>2016-09-11T09:11:15Z</time>
      </trkpt>
      <trkpt lat="47.46033" lon="6.79162">
        <ele>389.9</ele>
        <time>2016-09-11T09:11:18Z</time>
      </trkpt>
      <trkpt lat="47.46024" lon="6.79129">
        <ele>388.81</ele>
        <time>2016-09-11T09:11:22Z</time>
      </trkpt>
      <trkpt lat="47.46017" lon="6.79097">
        <ele>387.4</ele>
        <time>2016-09-11T09:11:25Z</time>
      </trkpt>
      <trkpt lat="47.46006" lon="6.79063">
        <ele>386.06</ele>
        <time>2016-09-11T09:11:28Z</time>
      </trkpt>
      <trkpt lat="47.45999" lon="6.79037">
        <ele>385.91</ele>
        <time>2016-09-11T09:11:30Z</time>
      </trkpt>
      <trkpt lat="47.45993" lon="6.79012">
        <ele>385.67</ele>
        <time>2016-09-11T09:11:32Z</time>
      </trkpt>
      <trkpt lat="47.45985" lon="6.78988">
        <ele>385.22</ele>
        <time>2016-09-11T09:11:34Z</time>
      </trkpt>
      <trkpt lat="47.45977" lon="6.78965">
        <ele>384.54</ele>
        <time>2016-09-11T09:11:36Z</time>
      </trkpt>
      <trkpt lat="47.45968" lon="6.78941">
        <ele>382.93</ele>
        <time>2016-09-11T09:11:38Z</time>
      </trkpt>
      <trkpt lat="47.45956" lon="6.78905">
        <ele>381.79</ele>
        <time>2016-09-11T09:11:41Z</time>
      </trkpt>
      <trkpt lat="47.45945" lon="6.78871">
        <ele>380.1</ele>
        <time>2016-09-11T09:11:44Z</time>
      </trkpt>
      <trkpt lat="47.45933" lon="6.78836">
        <ele>377.89</ele>
        <time>2016-09-11T09:11:47Z</time>
      </trkpt>
      <trkpt lat="47.45921" lon="6.78803">
        <ele>375.43</ele>
        <time>2016-09-11T09:11:50Z</time>
      </trkpt>
      <trkpt lat="47.45908" lon="6.78769">
        <ele>374.09</ele>
        <time>2016-09-11T09:11:53Z</time>
      </trkpt>
      <trkpt lat="47.45899" lon="6.78745">
        <ele>374.93</ele>
        <time>2016-09-11T09:11:55Z</time>
      </trkpt>
      <trkpt lat="47.45888" lon="6.78711">
        <ele>374.59</ele>
        <time>2016-09-11T09:11:58Z</time>
      </trkpt>
      <trkpt lat="47.4588" lon="6.78685">
        <ele>374.56</ele>
        <time>2016-09-11T09:12:00Z</time>
      </trkpt>
      <trkpt lat="47.45872" lon="6.7866">
        <ele>374.31</ele>
        <time>2016-09-11T09:12:02Z</time>
      </trkpt>
      <trkpt lat="47.45864" lon="6.78634">
        <ele>373.42</ele>
        <time>2016-09-11T09:12:04Z</time>
      </trkpt>
      <trkpt lat="47.45857" lon="6.78609">
        <ele>373.01</ele>
        <time>2016-09-11T09:12:06Z</time>
      </trkpt>
      <trkpt lat="47.45846" lon="6.78574">
        <ele>371.83</ele>
        <time>2016-09-11T09:12:09Z</time>
      </trkpt>
      <trkpt lat="47.45834" lon="6.7854">
        <ele>369.67</ele>
        <time>2016-09-11T09:12:12Z</time>
      </trkpt>
      <trkpt lat="47.45822" lon="6.78506">
        <ele>367.85</ele>
        <time>2016-09-11T09:12:15Z</time>
      </trkpt>
      <trkpt lat="47.45812" lon="6.7847">
        <ele>366.4</ele>
        <time>2016-09-11T09:12:18Z</time>
      </trkpt>
      <trkpt lat="47.45806" lon="6.78444">
        <ele>364.1</ele>
        <time>2016-09-11T09:12:21Z</time>
      </trkpt>
      <trkpt lat="47.45793" lon="6.78418">
        <ele>366.16</ele>
        <time>2016-09-11T09:12:25Z</time>
      </trkpt>
      <trkpt lat="47.45776" lon="6.78402">
        <ele>366.23</ele>
        <time>2016-09-11T09:12:28Z</time>
      </trkpt>
      <trkpt lat="47.45756" lon="6.7839">
        <ele>364.62</ele>
        <time>2016-09-11T09:12:31Z</time>
      </trkpt>
      <trkpt lat="47.4573" lon="6.78385">
        <ele>363.09</ele>
        <time>2016-09-11T09:12:34Z</time>
      </trkpt>
      <trkpt lat="47.45704" lon="6.78383">
        <ele>362.23</ele>
        <time>2016-09-11T09:12:37Z</time>
      </trkpt>
      <trkpt lat="47.45684" lon="6.78382">
        <ele>361.98</ele>
        <time>2016-09-11T09:12:39Z</time>
      </trkpt>
      <trkpt lat="47.45658" lon="6.78388">
        <ele>361.22</ele>
        <time>2016-09-11T09:12:42Z</time>
      </trkpt>
      <trkpt lat="47.45641" lon="6.78394">
        <ele>361.14</ele>
        <time>2016-09-11T09:12:44Z</time>
      </trkpt>
      <trkpt lat="47.45617" lon="6.78404">
        <ele>360.66</ele>
        <time>2016-09-11T09:12:47Z</time>
      </trkpt>
      <trkpt lat="47.45595" lon="6.78416">
        <ele>360.27</ele>
        <time>2016-09-11T09:12:50Z</time>
      </trkpt>
      <trkpt lat="47.45573" lon="6.78429">
        <ele>357.71</ele>
        <time>2016-09-11T09:12:53Z</time>
      </trkpt>
      <trkpt lat="47.45552" lon="6.78441">
        <ele>355.67</ele>
        <time>2016-09-11T09:12:56Z</time>
      </trkpt>
      <trkpt lat="47.4553" lon="6.78454">
        <ele>355.28</ele>
        <time>2016-09-11T09:12:59Z</time>
      </trkpt>
      <trkpt lat="47.45507" lon="6.78467">
        <ele>355</ele>
        <time>2016-09-11T09:13:02Z</time>
      </trkpt>
      <trkpt lat="47.45484" lon="6.78479">
        <ele>353.38</ele>
        <time>2016-09-11T09:13:05Z</time>
      </trkpt>
      <trkpt lat="47.45461" lon="6.78494">
        <ele>352.18</ele>
        <time>2016-09-11T09:13:08Z</time>
      </trkpt>
      <trkpt lat="47.45444" lon="6.78504">
        <ele>351.2</ele>
        <time>2016-09-11T09:13:10Z</time>
      </trkpt>
      <trkpt lat="47.45425" lon="6.78508">
        <ele>348.66</ele>
        <time>2016-09-11T09:13:12Z</time>
      </trkpt>
      <trkpt lat="47.45404" lon="6.785">
        <ele>347.04</ele>
        <time>2016-09-11T09:13:14Z</time>
      </trkpt>
      <trkpt lat="47.45385" lon="6.78484">
        <ele>344.84</ele>
        <time>2016-09-11T09:13:16Z</time>
      </trkpt>
      <trkpt lat="47.45366" lon="6.78467">
        <ele>343.86</ele>
        <time>2016-09-11T09:13:18Z</time>
      </trkpt>
      <trkpt lat="47.45351" lon="6.78446">
        <ele>344.11</ele>
        <time>2016-09-11T09:13:20Z</time>
      </trkpt>
      <trkpt lat="47.45341" lon="6.78421">
        <ele>342.92</ele>
        <time>2016-09-11T09:13:22Z</time>
      </trkpt>
      <trkpt lat="47.45332" lon="6.7839">
        <ele>343.14</ele>
        <time>2016-09-11T09:13:25Z</time>
      </trkpt>
      <trkpt lat="47.45328" lon="6.78364">
        <ele>341.79</ele>
        <time>2016-09-11T09:13:29Z</time>
      </trkpt>
      <trkpt lat="47.45334" lon="6.78336">
        <ele>341.62</ele>
        <time>2016-09-11T09:13:35Z</time>
      </trkpt>
      <trkpt lat="47.45336" lon="6.78308">
        <ele>342.2</ele>
        <time>2016-09-11T09:13:41Z</time>
      </trkpt>
      <trkpt lat="47.45336" lon="6.78279">
        <ele>342.39</ele>
        <time>2016-09-11T09:13:47Z</time>
      </trkpt>
      <trkpt lat="47.45335" lon="6.7825">
        <ele>342.71</ele>
        <time>2016-09-11T09:13:54Z</time>
      </trkpt>
      <trkpt lat="47.45328" lon="6.78225">
        <ele>343.56</ele>
        <time>2016-09-11T09:14:03Z</time>
      </trkpt>
      <trkpt lat="47.45308" lon="6.78231">
        <ele>345.26</ele>
        <time>2016-09-11T09:14:13Z</time>
      </trkpt>
      <trkpt lat="47.45292" lon="6.78248">
        <ele>345.85</ele>
        <time>2016-09-11T09:14:21Z</time>
      </trkpt>
      <trkpt lat="47.45281" lon="6.7827">
        <ele>347.15</ele>
        <time>2016-09-11T09:14:28Z</time>
      </trkpt>
      <trkpt lat="47.45272" lon="6.78298">
        <ele>348</ele>
        <time>2016-09-11T09:14:35Z</time>
      </trkpt>
      <trkpt lat="47.45257" lon="6.78318">
        <ele>348.31</ele>
        <time>2016-09-11T09:14:41Z</time>
      </trkpt>
      <trkpt lat="47.4524" lon="6.78331">
        <ele>348.94</ele>
        <time>2016-09-11T09:14:46Z</time>
      </trkpt>
      <trkpt lat="47.4522" lon="6.78331">
        <ele>351.04</ele>
        <time>2016-09-11T09:14:51Z</time>
      </trkpt>
      <trkpt lat="47.45202" lon="6.78327">
        <ele>350.11</ele>
        <time>2016-09-11T09:14:56Z</time>
      </trkpt>
      <trkpt lat="47.45183" lon="6.78321">
        <ele>350.71</ele>
        <time>2016-09-11T09:15:01Z</time>
      </trkpt>
      <trkpt lat="47.45164" lon="6.78313">
        <ele>349.48</ele>
        <time>2016-09-11T09:15:07Z</time>
      </trkpt>
      <trkpt lat="47.45146" lon="6.78307">
        <ele>347.4</ele>
        <time>2016-09-11T09:15:11Z</time>
      </trkpt>
      <trkpt lat="47.4513" lon="6.78295">
        <ele>346.71</ele>
        <time>2016-09-11T09:15:15Z</time>
      </trkpt>
      <trkpt lat="47.45114" lon="6.78282">
        <ele>349.62</ele>
        <time>2016-09-11T09:15:19Z</time>
      </trkpt>
      <trkpt lat="47.45095" lon="6.78269">
        <ele>351.61</ele>
        <time>2016-09-11T09:15:24Z</time>
      </trkpt>
      <trkpt lat="47.45079" lon="6.78248">
        <ele>352.15</ele>
        <time>2016-09-11T09:15:31Z</time>
      </trkpt>
      <trkpt lat="47.45061" lon="6.7823">
        <ele>351.97</ele>
        <time>2016-09-11T09:15:36Z</time>
      </trkpt>
      <trkpt lat="47.45046" lon="6.78209">
        <ele>352.92</ele>
        <time>2016-09-11T09:15:41Z</time>
      </trkpt>
      <trkpt lat="47.45031" lon="6.78182">
        <ele>351.49</ele>
        <time>2016-09-11T09:15:46Z</time>
      </trkpt>
      <trkpt lat="47.45019" lon="6.78159">
        <ele>351.13</ele>
        <time>2016-09-11T09:15:50Z</time>
      </trkpt>
      <trkpt lat="47.45005" lon="6.78139">
        <ele>351.8</ele>
        <time>2016-09-11T09:15:54Z</time>
      </trkpt>
      <trkpt lat="47.44992" lon="6.78119">
        <ele>352.65</ele>
        <time>2016-09-11T09:15:58Z</time>
      </trkpt>
      <trkpt lat="47.44975" lon="6.78103">
        <ele>354.12</ele>
        <time>2016-09-11T09:16:02Z</time>
      </trkpt>
      <trkpt lat="47.44961" lon="6.78085">
        <ele>355.88</ele>
        <time>2016-09-11T09:16:06Z</time>
      </trkpt>
      <trkpt lat="47.44946" lon="6.78064">
        <ele>356.66</ele>
        <time>2016-09-11T09:16:10Z</time>
      </trkpt>
      <trkpt lat="47.44931" lon="6.78048">
        <ele>357.8</ele>
        <time>2016-09-11T09:16:14Z</time>
      </trkpt>
      <trkpt lat="47.44915" lon="6.78031">
        <ele>358.49</ele>
        <time>2016-09-11T09:16:18Z</time>
      </trkpt>
      <trkpt lat="47.44897" lon="6.78013">
        <ele>360.48</ele>
        <time>2016-09-11T09:16:22Z</time>
      </trkpt>
      <trkpt lat="47.4488" lon="6.77993">
        <ele>362.86</ele>
        <time>2016-09-11T09:16:26Z</time>
      </trkpt>
      <trkpt lat="47.44862" lon="6.77981">
        <ele>364.13</ele>
        <time>2016-09-11T09:16:30Z</time>
      </trkpt>
      <trkpt lat="47.44843" lon="6.77967">
        <ele>360.69</ele>
        <time>2016-09-11T09:16:35Z</time>
      </trkpt>
      <trkpt lat="47.44826" lon="6.77947">
        <ele>358.95</ele>
        <time>2016-09-11T09:16:40Z</time>
      </trkpt>
      <trkpt lat="47.44806" lon="6.77932">
        <ele>359.18</ele>
        <time>2016-09-11T09:16:44Z</time>
      </trkpt>
      <trkpt lat="47.44788" lon="6.77923">
        <ele>359.54</ele>
        <time>2016-09-11T09:18:26Z</time>
      </trkpt>
      <trkpt lat="47.44773" lon="6.77907">
        <ele>361.58</ele>
        <time>2016-09-11T09:19:34Z</time>
      </trkpt>
      <trkpt lat="47.44754" lon="6.77903">
        <ele>361.18</ele>
        <time>2016-09-11T09:19:43Z</time>
      </trkpt>
      <trkpt lat="47.44736" lon="6.77896">
        <ele>361.02</ele>
        <time>2016-09-11T09:19:50Z</time>
      </trkpt>
      <trkpt lat="47.44717" lon="6.77883">
        <ele>362.05</ele>
        <time>2016-09-11T09:19:55Z</time>
      </trkpt>
      <trkpt lat="47.44695" lon="6.7787">
        <ele>359.38</ele>
        <time>2016-09-11T09:19:59Z</time>
      </trkpt>
      <trkpt lat="47.44674" lon="6.77855">
        <ele>355.76</ele>
        <time>2016-09-11T09:20:03Z</time>
      </trkpt>
      <trkpt lat="47.44654" lon="6.77846">
        <ele>352.33</ele>
        <time>2016-09-11T09:20:07Z</time>
      </trkpt>
      <trkpt lat="47.44632" lon="6.77838">
        <ele>351.21</ele>
        <time>2016-09-11T09:20:11Z</time>
      </trkpt>
      <trkpt lat="47.44611" lon="6.7783">
        <ele>349.18</ele>
        <time>2016-09-11T09:20:16Z</time>
      </trkpt>
      <trkpt lat="47.44592" lon="6.77836">
        <ele>347.68</ele>
        <time>2016-09-11T09:20:20Z</time>
      </trkpt>
      <trkpt lat="47.44577" lon="6.77853">
        <ele>344.41</ele>
        <time>2016-09-11T09:20:22Z</time>
      </trkpt>
      <trkpt lat="47.44564" lon="6.77878">
        <ele>341.83</ele>
        <time>2016-09-11T09:20:24Z</time>
      </trkpt>
      <trkpt lat="47.44551" lon="6.779">
        <ele>340.35</ele>
        <time>2016-09-11T09:20:26Z</time>
      </trkpt>
      <trkpt lat="47.44539" lon="6.7792">
        <ele>339.39</ele>
        <time>2016-09-11T09:20:28Z</time>
      </trkpt>
      <trkpt lat="47.44525" lon="6.77948">
        <ele>337.02</ele>
        <time>2016-09-11T09:20:31Z</time>
      </trkpt>
      <trkpt lat="47.44512" lon="6.77978">
        <ele>335.16</ele>
        <time>2016-09-11T09:20:34Z</time>
      </trkpt>
      <trkpt lat="47.445" lon="6.78007">
        <ele>332.06</ele>
        <time>2016-09-11T09:20:37Z</time>
      </trkpt>
      <trkpt lat="47.4449" lon="6.78034">
        <ele>331.75</ele>
        <time>2016-09-11T09:20:40Z</time>
      </trkpt>
      <trkpt lat="47.4448" lon="6.78059">
        <ele>330.02</ele>
        <time>2016-09-11T09:20:43Z</time>
      </trkpt>
      <trkpt lat="47.44472" lon="6.78083">
        <ele>328.99</ele>
        <time>2016-09-11T09:20:46Z</time>
      </trkpt>
      <trkpt lat="47.44463" lon="6.78115">
        <ele>328.57</ele>
        <time>2016-09-11T09:20:50Z</time>
      </trkpt>
      <trkpt lat="47.44455" lon="6.78141">
        <ele>329.41</ele>
        <time>2016-09-11T09:20:54Z</time>
      </trkpt>
      <trkpt lat="47.44437" lon="6.7816">
        <ele>328.24</ele>
        <time>2016-09-11T09:20:59Z</time>
      </trkpt>
      <trkpt lat="47.44418" lon="6.78171">
        <ele>325.71</ele>
        <time>2016-09-11T09:21:03Z</time>
      </trkpt>
      <trkpt lat="47.44399" lon="6.78175">
        <ele>326.41</ele>
        <time>2016-09-11T09:21:07Z</time>
      </trkpt>
      <trkpt lat="47.44378" lon="6.78173">
        <ele>328.96</ele>
        <time>2016-09-11T09:21:10Z</time>
      </trkpt>
      <trkpt lat="47.44358" lon="6.78165">
        <ele>329.4</ele>
        <time>2016-09-11T09:21:14Z</time>
      </trkpt>
      <trkpt lat="47.4434" lon="6.78149">
        <ele>329.45</ele>
        <time>2016-09-11T09:21:18Z</time>
      </trkpt>
      <trkpt lat="47.44322" lon="6.78135">
        <ele>331.18</ele>
        <time>2016-09-11T09:21:22Z</time>
      </trkpt>
      <trkpt lat="47.44303" lon="6.78122">
        <ele>330.88</ele>
        <time>2016-09-11T09:21:25Z</time>
      </trkpt>
      <trkpt lat="47.44286" lon="6.78138">
        <ele>330.67</ele>
        <time>2016-09-11T09:21:29Z</time>
      </trkpt>
      <trkpt lat="47.44276" lon="6.78167">
        <ele>328.5</ele>
        <time>2016-09-11T09:21:34Z</time>
      </trkpt>
      <trkpt lat="47.4426" lon="6.78182">
        <ele>329.76</ele>
        <time>2016-09-11T09:21:39Z</time>
      </trkpt>
      <trkpt lat="47.44241" lon="6.78193">
        <ele>334.21</ele>
        <time>2016-09-11T09:21:44Z</time>
      </trkpt>
      <trkpt lat="47.44223" lon="6.78204">
        <ele>336.18</ele>
        <time>2016-09-11T09:21:49Z</time>
      </trkpt>
      <trkpt lat="47.44206" lon="6.78213">
        <ele>333.77</ele>
        <time>2016-09-11T09:21:54Z</time>
      </trkpt>
      <trkpt lat="47.44188" lon="6.78221">
        <ele>334.89</ele>
        <time>2016-09-11T09:21:59Z</time>
      </trkpt>
      <trkpt lat="47.44167" lon="6.78229">
        <ele>336.26</ele>
        <time>2016-09-11T09:22:05Z</time>
      </trkpt>
      <trkpt lat="47.44157" lon="6.78255">
        <ele>338.04</ele>
        <time>2016-09-11T09:22:10Z</time>
      </trkpt>
      <trkpt lat="47.4415" lon="6.78281">
        <ele>334.6</ele>
        <time>2016-09-11T09:22:14Z</time>
      </trkpt>
      <trkpt lat="47.44143" lon="6.78307">
        <ele>333.82</ele>
        <time>2016-09-11T09:22:18Z</time>
      </trkpt>
      <trkpt lat="47.44136" lon="6.78333">
        <ele>335.05</ele>
        <time>2016-09-11T09:22:23Z</time>
      </trkpt>
      <trkpt lat="47.4412" lon="6.78322">
        <ele>336.11</ele>
        <time>2016-09-11T09:22:29Z</time>
      </trkpt>
      <trkpt lat="47.44102" lon="6.78306">
        <ele>336.14</ele>
        <time>2016-09-11T09:22:34Z</time>
      </trkpt>
      <trkpt lat="47.44086" lon="6.78292">
        <ele>334.48</ele>
        <time>2016-09-11T09:22:38Z</time>
      </trkpt>
      <trkpt lat="47.44068" lon="6.7828">
        <ele>334.91</ele>
        <time>2016-09-11T09:22:43Z</time>
      </trkpt>
      <trkpt lat="47.44049" lon="6.7827">
        <ele>335.55</ele>
        <time>2016-09-11T09:22:48Z</time>
      </trkpt>
      <trkpt lat="47.44028" lon="6.78263">
        <ele>337.64</ele>
        <time>2016-09-11T09:22:53Z</time>
      </trkpt>
      <trkpt lat="47.44009" lon="6.7826">
        <ele>336.97</ele>
        <time>2016-09-11T09:22:57Z</time>
      </trkpt>
      <trkpt lat="47.43989" lon="6.78258">
        <ele>339.58</ele>
        <time>2016-09-11T09:23:01Z</time>
      </trkpt>
      <trkpt lat="47.43968" lon="6.78256">
        <ele>339.63</ele>
        <time>2016-09-11T09:23:05Z</time>
      </trkpt>
      <trkpt lat="47.43946" lon="6.78252">
        <ele>337.46</ele>
        <time>2016-09-11T09:23:09Z</time>
      </trkpt>
      <trkpt lat="47.43925" lon="6.78249">
        <ele>335.92</ele>
        <time>2016-09-11T09:23:13Z</time>
      </trkpt>
      <trkpt lat="47.43903" lon="6.78249">
        <ele>335.55</ele>
        <time>2016-09-11T09:23:17Z</time>
      </trkpt>
      <trkpt lat="47.43881" lon="6.78249">
        <ele>334.19</ele>
        <time>2016-09-11T09:23:21Z</time>
      </trkpt>
      <trkpt lat="47.43861" lon="6.7825">
        <ele>333.61</ele>
        <time>2016-09-11T09:23:25Z</time>
      </trkpt>
      <trkpt lat="47.43837" lon="6.7825">
        <ele>334.79</ele>
        <time>2016-09-11T09:23:29Z</time>
      </trkpt>
      <trkpt lat="47.43818" lon="6.78251">
        <ele>336.45</ele>
        <time>2016-09-11T09:23:33Z</time>
      </trkpt>
      <trkpt lat="47.43797" lon="6.78255">
        <ele>337.86</ele>
        <time>2016-09-11T09:23:37Z</time>
      </trkpt>
      <trkpt lat="47.43773" lon="6.78261">
        <ele>339.5</ele>
        <time>2016-09-11T09:23:41Z</time>
      </trkpt>
      <trkpt lat="47.43752" lon="6.78262">
        <ele>342.76</ele>
        <time>2016-09-11T09:23:45Z</time>
      </trkpt>
      <trkpt lat="47.4374" lon="6.78284">
        <ele>342.24</ele>
        <time>2016-09-11T09:23:49Z</time>
      </trkpt>
      <trkpt lat="47.43737" lon="6.78315">
        <ele>341.29</ele>
        <time>2016-09-11T09:23:53Z</time>
      </trkpt>
      <trkpt lat="47.43734" lon="6.78345">
        <ele>340.86</ele>
        <time>2016-09-11T09:23:57Z</time>
      </trkpt>
      <trkpt lat="47.4373" lon="6.78378">
        <ele>338.32</ele>
        <time>2016-09-11T09:24:01Z</time>
      </trkpt>
      <trkpt lat="47.43727" lon="6.78412">
        <ele>336.93</ele>
        <time>2016-09-11T09:24:05Z</time>
      </trkpt>
      <trkpt lat="47.43724" lon="6.7844">
        <ele>333</ele>
        <time>2016-09-11T09:24:08Z</time>
      </trkpt>
      <trkpt lat="47.43722" lon="6.7847">
        <ele>331.26</ele>
        <time>2016-09-11T09:24:11Z</time>
      </trkpt>
      <trkpt lat="47.43719" lon="6.78499">
        <ele>330.38</ele>
        <time>2016-09-11T09:24:14Z</time>
      </trkpt>
      <trkpt lat="47.43717" lon="6.78525">
        <ele>329.23</ele>
        <time>2016-09-11T09:24:17Z</time>
      </trkpt>
      <trkpt lat="47.43713" lon="6.78555">
        <ele>328.35</ele>
        <time>2016-09-11T09:24:21Z</time>
      </trkpt>
      <trkpt lat="47.43712" lon="6.78582">
        <ele>331.2</ele>
        <time>2016-09-11T09:24:25Z</time>
      </trkpt>
      <trkpt lat="47.43703" lon="6.78608">
        <ele>331.61</ele>
        <time>2016-09-11T09:24:31Z</time>
      </trkpt>
      <trkpt lat="47.43697" lon="6.78636">
        <ele>331.54</ele>
        <time>2016-09-11T09:24:36Z</time>
      </trkpt>
      <trkpt lat="47.43688" lon="6.78663">
        <ele>331.26</ele>
        <time>2016-09-11T09:24:41Z</time>
      </trkpt>
      <trkpt lat="47.43682" lon="6.78691">
        <ele>331.28</ele>
        <time>2016-09-11T09:24:46Z</time>
      </trkpt>
      <trkpt lat="47.43688" lon="6.7872">
        <ele>330.11</ele>
        <time>2016-09-11T09:24:50Z</time>
      </trkpt>
      <trkpt lat="47.43689" lon="6.78749">
        <ele>329.86</ele>
        <time>2016-09-11T09:24:54Z</time>
      </trkpt>
      <trkpt lat="47.43671" lon="6.78764">
        <ele>329.75</ele>
        <time>2016-09-11T09:24:58Z</time>
      </trkpt>
      <trkpt lat="47.4365" lon="6.7878">
        <ele>327.68</ele>
        <time>2016-09-11T09:25:02Z</time>
      </trkpt>
      <trkpt lat="47.43632" lon="6.78793">
        <ele>329.43</ele>
        <time>2016-09-11T09:25:05Z</time>
      </trkpt>
      <trkpt lat="47.43615" lon="6.78803">
        <ele>331.13</ele>
        <time>2016-09-11T09:25:08Z</time>
      </trkpt>
      <trkpt lat="47.43599" lon="6.78816">
        <ele>334.08</ele>
        <time>2016-09-11T09:25:11Z</time>
      </trkpt>
      <trkpt lat="47.43584" lon="6.78839">
        <ele>337.06</ele>
        <time>2016-09-11T09:25:15Z</time>
      </trkpt>
      <trkpt lat="47.43578" lon="6.78868">
        <ele>336.84</ele>
        <time>2016-09-11T09:25:19Z</time>
      </trkpt>
      <trkpt lat="47.43568" lon="6.78898">
        <ele>334.75</ele>
        <time>2016-09-11T09:25:24Z</time>
      </trkpt>
      <trkpt lat="47.43552" lon="6.78913">
        <ele>335.53</ele>
        <time>2016-09-11T09:25:27Z</time>
      </trkpt>
      <trkpt lat="47.43531" lon="6.78929">
        <ele>337.78</ele>
        <time>2016-09-11T09:25:31Z</time>
      </trkpt>
      <trkpt lat="47.43514" lon="6.78944">
        <ele>337.43</ele>
        <time>2016-09-11T09:25:35Z</time>
      </trkpt>
      <trkpt lat="47.43495" lon="6.7896">
        <ele>336.57</ele>
        <time>2016-09-11T09:25:40Z</time>
      </trkpt>
      <trkpt lat="47.4348" lon="6.78978">
        <ele>338.91</ele>
        <time>2016-09-11T09:25:44Z</time>
      </trkpt>
      <trkpt lat="47.43462" lon="6.79">
        <ele>338.22</ele>
        <time>2016-09-11T09:25:48Z</time>
      </trkpt>
      <trkpt lat="47.43447" lon="6.79022">
        <ele>336.53</ele>
        <time>2016-09-11T09:25:52Z</time>
      </trkpt>
      <trkpt lat="47.43432" lon="6.79044">
        <ele>339.28</ele>
        <time>2016-09-11T09:25:56Z</time>
      </trkpt>
      <trkpt lat="47.43416" lon="6.79069">
        <ele>338.98</ele>
        <time>2016-09-11T09:26:00Z</time>
      </trkpt>
      <trkpt lat="47.43401" lon="6.79092">
        <ele>337.39</ele>
        <time>2016-09-11T09:26:04Z</time>
      </trkpt>
      <trkpt lat="47.43384" lon="6.79106">
        <ele>335.85</ele>
        <time>2016-09-11T09:26:08Z</time>
      </trkpt>
      <trkpt lat="47.43362" lon="6.79108">
        <ele>335.89</ele>
        <time>2016-09-11T09:26:12Z</time>
      </trkpt>
      <trkpt lat="47.43353" lon="6.79078">
        <ele>333.88</ele>
        <time>2016-09-11T09:26:17Z</time>
      </trkpt>
      <trkpt lat="47.43351" lon="6.79045">
        <ele>333.58</ele>
        <time>2016-09-11T09:26:21Z</time>
      </trkpt>
      <trkpt lat="47.43351" lon="6.79016">
        <ele>332.7</ele>
        <time>2016-09-11T09:26:25Z</time>
      </trkpt>
      <trkpt lat="47.4335" lon="6.78989">
        <ele>333.05</ele>
        <time>2016-09-11T09:26:29Z</time>
      </trkpt>
      <trkpt lat="47.43348" lon="6.78959">
        <ele>334.93</ele>
        <time>2016-09-11T09:26:33Z</time>
      </trkpt>
      <trkpt lat="47.43345" lon="6.78929">
        <ele>336.44</ele>
        <time>2016-09-11T09:26:37Z</time>
      </trkpt>
      <trkpt lat="47.43343" lon="6.78898">
        <ele>336.79</ele>
        <time>2016-09-11T09:26:41Z</time>
      </trkpt>
      <trkpt lat="47.4334" lon="6.78864">
        <ele>337.02</ele>
        <time>2016-09-11T09:26:45Z</time>
      </trkpt>
      <trkpt lat="47.43338" lon="6.78832">
        <ele>338.77</ele>
        <time>2016-09-11T09:26:49Z</time>
      </trkpt>
      <trkpt lat="47.43336" lon="6.78802">
        <ele>341.57</ele>
        <time>2016-09-11T09:26:53Z</time>
      </trkpt>
      <trkpt lat="47.43334" lon="6.78769">
        <ele>343.21</ele>
        <time>2016-09-11T09:26:57Z</time>
      </trkpt>
      <trkpt lat="47.4333" lon="6.78736">
        <ele>343.87</ele>
        <time>2016-09-11T09:27:01Z</time>
      </trkpt>
      <trkpt lat="47.43316" lon="6.78713">
        <ele>343.58</ele>
        <time>2016-09-11T09:27:05Z</time>
      </trkpt>
      <trkpt lat="47.43314" lon="6.78685">
        <ele>341.54</ele>
        <time>2016-09-11T09:27:09Z</time>
      </trkpt>
      <trkpt lat="47.43313" lon="6.78655">
        <ele>339.71</ele>
        <time>2016-09-11T09:27:13Z</time>
      </trkpt>
      <trkpt lat="47.43313" lon="6.78623">
        <ele>338.99</ele>
        <time>2016-09-11T09:27:17Z</time>
      </trkpt>
      <trkpt lat="47.43314" lon="6.78594">
        <ele>338.75</ele>
        <time>2016-09-11T09:27:21Z</time>
      </trkpt>
      <trkpt lat="47.43314" lon="6.78565">
        <ele>340.06</ele>
        <time>2016-09-11T09:27:25Z</time>
      </trkpt>
      <trkpt lat="47.43297" lon="6.78555">
        <ele>340.98</ele>
        <time>2016-09-11T09:27:32Z</time>
      </trkpt>
      <trkpt lat="47.43279" lon="6.78572">
        <ele>342.24</ele>
        <time>2016-09-11T09:27:38Z</time>
      </trkpt>
      <trkpt lat="47.43262" lon="6.78584">
        <ele>339.22</ele>
        <time>2016-09-11T09:27:42Z</time>
      </trkpt>
      <trkpt lat="47.43244" lon="6.78596">
        <ele>336.11</ele>
        <time>2016-09-11T09:27:46Z</time>
      </trkpt>
      <trkpt lat="47.43224" lon="6.7861">
        <ele>334.46</ele>
        <time>2016-09-11T09:27:51Z</time>
      </trkpt>
      <trkpt lat="47.43207" lon="6.78619">
        <ele>334.34</ele>
        <time>2016-09-11T09:27:55Z</time>
      </trkpt>
      <trkpt lat="47.43187" lon="6.78631">
        <ele>335.56</ele>
        <time>2016-09-11T09:27:59Z</time>
      </trkpt>
      <trkpt lat="47.4317" lon="6.78642">
        <ele>334.64</ele>
        <time>2016-09-11T09:28:03Z</time>
      </trkpt>
      <trkpt lat="47.43147" lon="6.78653">
        <ele>333.99</ele>
        <time>2016-09-11T09:28:07Z</time>
      </trkpt>
      <trkpt lat="47.43129" lon="6.7866">
        <ele>334.91</ele>
        <time>2016-09-11T09:28:10Z</time>
      </trkpt>
      <trkpt lat="47.43111" lon="6.78664">
        <ele>336.46</ele>
        <time>2016-09-11T09:28:13Z</time>
      </trkpt>
      <trkpt lat="47.43088" lon="6.78671">
        <ele>336.71</ele>
        <time>2016-09-11T09:28:17Z</time>
      </trkpt>
      <trkpt lat="47.43066" lon="6.78679">
        <ele>336.47</ele>
        <time>2016-09-11T09:28:21Z</time>
      </trkpt>
      <trkpt lat="47.43043" lon="6.78686">
        <ele>337.54</ele>
        <time>2016-09-11T09:28:25Z</time>
      </trkpt>
      <trkpt lat="47.43021" lon="6.78692">
        <ele>338.18</ele>
        <time>2016-09-11T09:28:29Z</time>
      </trkpt>
      <trkpt lat="47.43" lon="6.78697">
        <ele>338.69</ele>
        <time>2016-09-11T09:28:33Z</time>
      </trkpt>
      <trkpt lat="47.42976" lon="6.78704">
        <ele>337.83</ele>
        <time>2016-09-11T09:28:37Z</time>
      </trkpt>
      <trkpt lat="47.42954" lon="6.78712">
        <ele>339.64</ele>
        <time>2016-09-11T09:28:41Z</time>
      </trkpt>
      <trkpt lat="47.42932" lon="6.78712">
        <ele>342.2</ele>
        <time>2016-09-11T09:28:45Z</time>
      </trkpt>
      <trkpt lat="47.42913" lon="6.78711">
        <ele>340.26</ele>
        <time>2016-09-11T09:28:49Z</time>
      </trkpt>
      <trkpt lat="47.42897" lon="6.78728">
        <ele>338.18</ele>
        <time>2016-09-11T09:28:53Z</time>
      </trkpt>
      <trkpt lat="47.42881" lon="6.78745">
        <ele>336.88</ele>
        <time>2016-09-11T09:28:57Z</time>
      </trkpt>
      <trkpt lat="47.42864" lon="6.78761">
        <ele>336.62</ele>
        <time>2016-09-11T09:29:01Z</time>
      </trkpt>
      <trkpt lat="47.42849" lon="6.78783">
        <ele>337.84</ele>
        <time>2016-09-11T09:29:05Z</time>
      </trkpt>
      <trkpt lat="47.42834" lon="6.78802">
        <ele>338.26</ele>
        <time>2016-09-11T09:29:10Z</time>
      </trkpt>
      <trkpt lat="47.42816" lon="6.78815">
        <ele>339.5</ele>
        <time>2016-09-11T09:29:15Z</time>
      </trkpt>
      <trkpt lat="47.42798" lon="6.78825">
        <ele>339.74</ele>
        <time>2016-09-11T09:29:19Z</time>
      </trkpt>
      <trkpt lat="47.4278" lon="6.78836">
        <ele>337.83</ele>
        <time>2016-09-11T09:29:23Z</time>
      </trkpt>
      <trkpt lat="47.42762" lon="6.78846">
        <ele>335.45</ele>
        <time>2016-09-11T09:29:27Z</time>
      </trkpt>
      <trkpt lat="47.42744" lon="6.78855">
        <ele>335.22</ele>
        <time>2016-09-11T09:29:31Z</time>
      </trkpt>
      <trkpt lat="47.42725" lon="6.78855">
        <ele>335.2</ele>
        <time>2016-09-11T09:29:35Z</time>
      </trkpt>
      <trkpt lat="47.42708" lon="6.78869">
        <ele>333.74</ele>
        <time>2016-09-11T09:29:39Z</time>
      </trkpt>
      <trkpt lat="47.42688" lon="6.7888">
        <ele>333.7</ele>
        <time>2016-09-11T09:29:43Z</time>
      </trkpt>
      <trkpt lat="47.4267" lon="6.78884">
        <ele>332.04</ele>
        <time>2016-09-11T09:29:47Z</time>
      </trkpt>
      <trkpt lat="47.42647" lon="6.7889">
        <ele>332.77</ele>
        <time>2016-09-11T09:29:52Z</time>
      </trkpt>
      <trkpt lat="47.42626" lon="6.78892">
        <ele>334.51</ele>
        <time>2016-09-11T09:29:56Z</time>
      </trkpt>
      <trkpt lat="47.42606" lon="6.78892">
        <ele>334.57</ele>
        <time>2016-09-11T09:30:00Z</time>
      </trkpt>
      <trkpt lat="47.42584" lon="6.78889">
        <ele>335.15</ele>
        <time>2016-09-11T09:30:04Z</time>
      </trkpt>
      <trkpt lat="47.42565" lon="6.7889">
        <ele>336.61</ele>
        <time>2016-09-11T09:30:08Z</time>
      </trkpt>
      <trkpt lat="47.42544" lon="6.78894">
        <ele>337.76</ele>
        <time>2016-09-11T09:30:12Z</time>
      </trkpt>
      <trkpt lat="47.42525" lon="6.78902">
        <ele>340.26</ele>
        <time>2016-09-11T09:30:16Z</time>
      </trkpt>
      <trkpt lat="47.42507" lon="6.7891">
        <ele>339.22</ele>
        <time>2016-09-11T09:30:20Z</time>
      </trkpt>
      <trkpt lat="47.42489" lon="6.78923">
        <ele>338.24</ele>
        <time>2016-09-11T09:30:24Z</time>
      </trkpt>
      <trkpt lat="47.42471" lon="6.78937">
        <ele>337.58</ele>
        <time>2016-09-11T09:30:28Z</time>
      </trkpt>
      <trkpt lat="47.42459" lon="6.7896">
        <ele>339.68</ele>
        <time>2016-09-11T09:30:32Z</time>
      </trkpt>
      <trkpt lat="47.42448" lon="6.78983">
        <ele>341.01</ele>
        <time>2016-09-11T09:30:36Z</time>
      </trkpt>
      <trkpt lat="47.42429" lon="6.78991">
        <ele>341.14</ele>
        <time>2016-09-11T09:30:40Z</time>
      </trkpt>
      <trkpt lat="47.42409" lon="6.79002">
        <ele>341.06</ele>
        <time>2016-09-11T09:30:44Z</time>
      </trkpt>
      <trkpt lat="47.42389" lon="6.79009">
        <ele>340.41</ele>
        <time>2016-09-11T09:30:48Z</time>
      </trkpt>
      <trkpt lat="47.4237" lon="6.79014">
        <ele>339.15</ele>
        <time>2016-09-11T09:30:52Z</time>
      </trkpt>
      <trkpt lat="47.42351" lon="6.79017">
        <ele>340.04</ele>
        <time>2016-09-11T09:30:56Z</time>
      </trkpt>
      <trkpt lat="47.42331" lon="6.79018">
        <ele>338.99</ele>
        <time>2016-09-11T09:31:00Z</time>
      </trkpt>
      <trkpt lat="47.42309" lon="6.7902">
        <ele>339.41</ele>
        <time>2016-09-11T09:31:04Z</time>
      </trkpt>
      <trkpt lat="47.42289" lon="6.79006">
        <ele>339.06</ele>
        <time>2016-09-11T09:31:09Z</time>
      </trkpt>
      <trkpt lat="47.42278" lon="6.78982">
        <ele>339.13</ele>
        <time>2016-09-11T09:31:13Z</time>
      </trkpt>
      <trkpt lat="47.42263" lon="6.78954">
        <ele>339.36</ele>
        <time>2016-09-11T09:31:17Z</time>
      </trkpt>
      <trkpt lat="47.42251" lon="6.78931">
        <ele>337.48</ele>
        <time>2016-09-11T09:31:20Z</time>
      </trkpt>
      <trkpt lat="47.42237" lon="6.78907">
        <ele>335.18</ele>
        <time>2016-09-11T09:31:23Z</time>
      </trkpt>
      <trkpt lat="47.42225" lon="6.78887">
        <ele>333.53</ele>
        <time>2016-09-11T09:31:26Z</time>
      </trkpt>
      <trkpt lat="47.42212" lon="6.78865">
        <ele>333.08</ele>
        <time>2016-09-11T09:31:29Z</time>
      </trkpt>
      <trkpt lat="47.42198" lon="6.78845">
        <ele>332.84</ele>
        <time>2016-09-11T09:31:32Z</time>
      </trkpt>
      <trkpt lat="47.42184" lon="6.78821">
        <ele>331.72</ele>
        <time>2016-09-11T09:31:35Z</time>
      </trkpt>
      <trkpt lat="47.4217" lon="6.788">
        <ele>332.04</ele>
        <time>2016-09-11T09:31:38Z</time>
      </trkpt>
      <trkpt lat="47.42155" lon="6.7878">
        <ele>333.64</ele>
        <time>2016-09-11T09:31:41Z</time>
      </trkpt>
      <trkpt lat="47.42141" lon="6.78762">
        <ele>334.19</ele>
        <time>2016-09-11T09:31:44Z</time>
      </trkpt>
      <trkpt lat="47.42125" lon="6.78743">
        <ele>334.88</ele>
        <time>2016-09-11T09:31:47Z</time>
      </trkpt>
      <trkpt lat="47.4211" lon="6.78724">
        <ele>336.09</ele>
        <time>2016-09-11T09:31:50Z</time>
      </trkpt>
      <trkpt lat="47.42095" lon="6.78706">
        <ele>337.21</ele>
        <time>2016-09-11T09:31:53Z</time>
      </trkpt>
      <trkpt lat="47.42076" lon="6.78695">
        <ele>337.24</ele>
        <time>2016-09-11T09:31:56Z</time>
      </trkpt>
      <trkpt lat="47.42056" lon="6.78683">
        <ele>337.8</ele>
        <time>2016-09-11T09:31:59Z</time>
      </trkpt>
      <trkpt lat="47.42039" lon="6.78674">
        <ele>337.24</ele>
        <time>2016-09-11T09:32:02Z</time>
      </trkpt>
      <trkpt lat="47.42021" lon="6.78665">
        <ele>338.19</ele>
        <time>2016-09-11T09:32:05Z</time>
      </trkpt>
      <trkpt lat="47.41998" lon="6.78657">
        <ele>339.55</ele>
        <time>2016-09-11T09:32:09Z</time>
      </trkpt>
      <trkpt lat="47.41979" lon="6.78652">
        <ele>340.79</ele>
        <time>2016-09-11T09:32:12Z</time>
      </trkpt>
      <trkpt lat="47.41958" lon="6.78648">
        <ele>341.61</ele>
        <time>2016-09-11T09:32:15Z</time>
      </trkpt>
      <trkpt lat="47.41939" lon="6.78646">
        <ele>340.18</ele>
        <time>2016-09-11T09:32:18Z</time>
      </trkpt>
      <trkpt lat="47.41915" lon="6.78644">
        <ele>338.09</ele>
        <time>2016-09-11T09:32:22Z</time>
      </trkpt>
      <trkpt lat="47.41895" lon="6.78645">
        <ele>338.88</ele>
        <time>2016-09-11T09:32:25Z</time>
      </trkpt>
      <trkpt lat="47.41876" lon="6.78647">
        <ele>339.58</ele>
        <time>2016-09-11T09:32:28Z</time>
      </trkpt>
      <trkpt lat="47.41857" lon="6.78648">
        <ele>340.01</ele>
        <time>2016-09-11T09:32:31Z</time>
      </trkpt>
      <trkpt lat="47.41836" lon="6.7865">
        <ele>339.31</ele>
        <time>2016-09-11T09:32:34Z</time>
      </trkpt>
      <trkpt lat="47.41816" lon="6.78654">
        <ele>339.48</ele>
        <time>2016-09-11T09:32:37Z</time>
      </trkpt>
      <trkpt lat="47.41792" lon="6.78658">
        <ele>338.99</ele>
        <time>2016-09-11T09:32:41Z</time>
      </trkpt>
      <trkpt lat="47.41772" lon="6.78658">
        <ele>338.64</ele>
        <time>2016-09-11T09:32:44Z</time>
      </trkpt>
      <trkpt lat="47.41753" lon="6.78661">
        <ele>339.14</ele>
        <time>2016-09-11T09:32:47Z</time>
      </trkpt>
      <trkpt lat="47.41735" lon="6.78662">
        <ele>337.51</ele>
        <time>2016-09-11T09:32:50Z</time>
      </trkpt>
      <trkpt lat="47.41717" lon="6.78661">
        <ele>335.91</ele>
        <time>2016-09-11T09:32:53Z</time>
      </trkpt>
      <trkpt lat="47.41697" lon="6.78656">
        <ele>335.62</ele>
        <time>2016-09-11T09:32:56Z</time>
      </trkpt>
      <trkpt lat="47.41676" lon="6.78649">
        <ele>337.29</ele>
        <time>2016-09-11T09:32:59Z</time>
      </trkpt>
      <trkpt lat="47.41656" lon="6.78643">
        <ele>339.48</ele>
        <time>2016-09-11T09:33:02Z</time>
      </trkpt>
      <trkpt lat="47.41639" lon="6.78635">
        <ele>341.54</ele>
        <time>2016-09-11T09:33:05Z</time>
      </trkpt>
      <trkpt lat="47.4162" lon="6.78625">
        <ele>340.85</ele>
        <time>2016-09-11T09:33:08Z</time>
      </trkpt>
      <trkpt lat="47.41605" lon="6.78606">
        <ele>339.82</ele>
        <time>2016-09-11T09:33:11Z</time>
      </trkpt>
      <trkpt lat="47.41591" lon="6.78589">
        <ele>340.77</ele>
        <time>2016-09-11T09:33:14Z</time>
      </trkpt>
      <trkpt lat="47.41588" lon="6.78561">
        <ele>341.35</ele>
        <time>2016-09-11T09:33:17Z</time>
      </trkpt>
      <trkpt lat="47.4159" lon="6.78532">
        <ele>342.73</ele>
        <time>2016-09-11T09:33:20Z</time>
      </trkpt>
      <trkpt lat="47.41589" lon="6.78504">
        <ele>341.03</ele>
        <time>2016-09-11T09:33:23Z</time>
      </trkpt>
      <trkpt lat="47.41583" lon="6.78473">
        <ele>340.53</ele>
        <time>2016-09-11T09:33:26Z</time>
      </trkpt>
      <trkpt lat="47.41579" lon="6.78439">
        <ele>341.69</ele>
        <time>2016-09-11T09:33:29Z</time>
      </trkpt>
      <trkpt lat="47.41576" lon="6.78406">
        <ele>341.17</ele>
        <time>2016-09-11T09:33:32Z</time>
      </trkpt>
      <trkpt lat="47.41573" lon="6.78375">
        <ele>340.53</ele>
        <time>2016-09-11T09:33:35Z</time>
      </trkpt>
      <trkpt lat="47.41571" lon="6.78348">
        <ele>340.42</ele>
        <time>2016-09-11T09:33:38Z</time>
      </trkpt>
      <trkpt lat="47.41568" lon="6.78319">
        <ele>341.26</ele>
        <time>2016-09-11T09:33:41Z</time>
      </trkpt>
      <trkpt lat="47.41565" lon="6.78288">
        <ele>341.05</ele>
        <time>2016-09-11T09:33:44Z</time>
      </trkpt>
      <trkpt lat="47.41561" lon="6.78257">
        <ele>342.68</ele>
        <time>2016-09-11T09:33:47Z</time>
      </trkpt>
      <trkpt lat="47.41559" lon="6.78228">
        <ele>342.16</ele>
        <time>2016-09-11T09:33:50Z</time>
      </trkpt>
      <trkpt lat="47.41553" lon="6.78201">
        <ele>342.36</ele>
        <time>2016-09-11T09:33:53Z</time>
      </trkpt>
      <trkpt lat="47.41535" lon="6.78181">
        <ele>342.83</ele>
        <time>2016-09-11T09:33:57Z</time>
      </trkpt>
      <trkpt lat="47.41515" lon="6.78172">
        <ele>344.87</ele>
        <time>2016-09-11T09:34:01Z</time>
      </trkpt>
      <trkpt lat="47.41494" lon="6.78169">
        <ele>347.96</ele>
        <time>2016-09-11T09:34:05Z</time>
      </trkpt>
      <trkpt lat="47.41489" lon="6.78204">
        <ele>348.31</ele>
        <time>2016-09-11T09:34:09Z</time>
      </trkpt>
      <trkpt lat="47.41482" lon="6.78231">
        <ele>345.97</ele>
        <time>2016-09-11T09:34:12Z</time>
      </trkpt>
      <trkpt lat="47.41476" lon="6.78257">
        <ele>344.41</ele>
        <time>2016-09-11T09:34:15Z</time>
      </trkpt>
      <trkpt lat="47.4147" lon="6.78283">
        <ele>342.83</ele>
        <time>2016-09-11T09:34:18Z</time>
      </trkpt>
      <trkpt lat="47.41465" lon="6.78309">
        <ele>343.09</ele>
        <time>2016-09-11T09:34:21Z</time>
      </trkpt>
      <trkpt lat="47.41459" lon="6.78337">
        <ele>344.28</ele>
        <time>2016-09-11T09:34:25Z</time>
      </trkpt>
      <trkpt lat="47.41453" lon="6.78363">
        <ele>341.6</ele>
        <time>2016-09-11T09:34:29Z</time>
      </trkpt>
      <trkpt lat="47.41446" lon="6.78389">
        <ele>339.29</ele>
        <time>2016-09-11T09:34:33Z</time>
      </trkpt>
      <trkpt lat="47.4144" lon="6.7842">
        <ele>339.11</ele>
        <time>2016-09-11T09:34:37Z</time>
      </trkpt>
      <trkpt lat="47.41429" lon="6.78447">
        <ele>339.74</ele>
        <time>2016-09-11T09:34:41Z</time>
      </trkpt>
      <trkpt lat="47.41411" lon="6.78452">
        <ele>338.54</ele>
        <time>2016-09-11T09:34:44Z</time>
      </trkpt>
      <trkpt lat="47.414" lon="6.78428">
        <ele>336.17</ele>
        <time>2016-09-11T09:34:49Z</time>
      </trkpt>
    </trkseg>
  </trk>
</gpx>